<?xml version="1.0" encoding="UTF-8" standalone="no" ?>
<gpx xmlns="http://www.topografix.com/GPX/1/1" xmlns:xsi="http://www.w3.org/2001/XMLSchema-instance" xsi:schemaLocation="http://www.topografix.com/GPX/1/1 http://www.topografix.com/GPX/1/1/gpx.xsd" version="1.1" creator="VisuGPX - https://www.visugpx.com">
  <metadata>
    <name>Entre Causse et Quercy</name>
    <desc><![CDATA[Du pur vtt dans des paysages magiques]]></desc>
  </metadata>
  <trk>
    <name><![CDATA[Entre Causse et Quercy_1]]></name>
    <trkseg>
      <trkpt lat="44.66894" lon="1.10744">
        <ele>226</ele>
        <time>2012-07-15T10:27:10Z</time>
      </trkpt>
      <trkpt lat="44.66872" lon="1.10719">
        <ele>244</ele>
        <time>2012-07-15T10:28:48Z</time>
      </trkpt>
      <trkpt lat="44.66861" lon="1.10721">
        <ele>243</ele>
        <time>2012-07-15T10:28:54Z</time>
      </trkpt>
      <trkpt lat="44.66853" lon="1.10724">
        <ele>240</ele>
        <time>2012-07-15T10:29:02Z</time>
      </trkpt>
      <trkpt lat="44.66842" lon="1.1073">
        <ele>240</ele>
        <time>2012-07-15T10:29:07Z</time>
      </trkpt>
      <trkpt lat="44.66834" lon="1.10733">
        <ele>240</ele>
        <time>2012-07-15T10:29:12Z</time>
      </trkpt>
      <trkpt lat="44.66825" lon="1.10738">
        <ele>240</ele>
        <time>2012-07-15T10:29:19Z</time>
      </trkpt>
      <trkpt lat="44.66809" lon="1.10746">
        <ele>240</ele>
        <time>2012-07-15T10:29:27Z</time>
      </trkpt>
      <trkpt lat="44.668" lon="1.10752">
        <ele>240</ele>
        <time>2012-07-15T10:29:32Z</time>
      </trkpt>
      <trkpt lat="44.66793" lon="1.10759">
        <ele>240</ele>
        <time>2012-07-15T10:29:37Z</time>
      </trkpt>
      <trkpt lat="44.66783" lon="1.10771">
        <ele>240</ele>
        <time>2012-07-15T10:29:42Z</time>
      </trkpt>
      <trkpt lat="44.66776" lon="1.10777">
        <ele>240</ele>
        <time>2012-07-15T10:29:48Z</time>
      </trkpt>
      <trkpt lat="44.66767" lon="1.10784">
        <ele>240</ele>
        <time>2012-07-15T10:29:53Z</time>
      </trkpt>
      <trkpt lat="44.66757" lon="1.10793">
        <ele>242</ele>
        <time>2012-07-15T10:29:59Z</time>
      </trkpt>
      <trkpt lat="44.66748" lon="1.10801">
        <ele>244</ele>
        <time>2012-07-15T10:30:05Z</time>
      </trkpt>
      <trkpt lat="44.66736" lon="1.10812">
        <ele>245</ele>
        <time>2012-07-15T10:30:10Z</time>
      </trkpt>
      <trkpt lat="44.66738" lon="1.10825">
        <ele>247</ele>
        <time>2012-07-15T10:30:19Z</time>
      </trkpt>
      <trkpt lat="44.66741" lon="1.10834">
        <ele>248</ele>
        <time>2012-07-15T10:30:24Z</time>
      </trkpt>
      <trkpt lat="44.66748" lon="1.10846">
        <ele>251</ele>
        <time>2012-07-15T10:30:30Z</time>
      </trkpt>
      <trkpt lat="44.66755" lon="1.1086">
        <ele>255</ele>
        <time>2012-07-15T10:30:37Z</time>
      </trkpt>
      <trkpt lat="44.66761" lon="1.10876">
        <ele>259</ele>
        <time>2012-07-15T10:30:44Z</time>
      </trkpt>
      <trkpt lat="44.66766" lon="1.10899">
        <ele>264</ele>
        <time>2012-07-15T10:30:54Z</time>
      </trkpt>
      <trkpt lat="44.66771" lon="1.10916">
        <ele>266</ele>
        <time>2012-07-15T10:31:00Z</time>
      </trkpt>
      <trkpt lat="44.66776" lon="1.10929">
        <ele>266</ele>
        <time>2012-07-15T10:31:06Z</time>
      </trkpt>
      <trkpt lat="44.66777" lon="1.10951">
        <ele>269</ele>
        <time>2012-07-15T10:31:14Z</time>
      </trkpt>
      <trkpt lat="44.66781" lon="1.1097">
        <ele>271</ele>
        <time>2012-07-15T10:31:24Z</time>
      </trkpt>
      <trkpt lat="44.66782" lon="1.10987">
        <ele>272</ele>
        <time>2012-07-15T10:31:29Z</time>
      </trkpt>
      <trkpt lat="44.66782" lon="1.11049">
        <ele>273</ele>
        <time>2012-07-15T10:31:44Z</time>
      </trkpt>
      <trkpt lat="44.66782" lon="1.11068">
        <ele>273</ele>
        <time>2012-07-15T10:31:49Z</time>
      </trkpt>
      <trkpt lat="44.6678" lon="1.11074">
        <ele>272</ele>
        <time>2012-07-15T10:31:56Z</time>
      </trkpt>
      <trkpt lat="44.66782" lon="1.11102">
        <ele>271</ele>
        <time>2012-07-15T10:32:04Z</time>
      </trkpt>
      <trkpt lat="44.66784" lon="1.11129">
        <ele>271</ele>
        <time>2012-07-15T10:32:12Z</time>
      </trkpt>
      <trkpt lat="44.66785" lon="1.11163">
        <ele>271</ele>
        <time>2012-07-15T10:32:22Z</time>
      </trkpt>
      <trkpt lat="44.66781" lon="1.11188">
        <ele>273</ele>
        <time>2012-07-15T10:32:30Z</time>
      </trkpt>
      <trkpt lat="44.66778" lon="1.11208">
        <ele>276</ele>
        <time>2012-07-15T10:32:36Z</time>
      </trkpt>
      <trkpt lat="44.66779" lon="1.11225">
        <ele>276</ele>
        <time>2012-07-15T10:32:44Z</time>
      </trkpt>
      <trkpt lat="44.66779" lon="1.11245">
        <ele>276</ele>
        <time>2012-07-15T10:32:51Z</time>
      </trkpt>
      <trkpt lat="44.66787" lon="1.11269">
        <ele>276</ele>
        <time>2012-07-15T10:32:59Z</time>
      </trkpt>
      <trkpt lat="44.66793" lon="1.11291">
        <ele>278</ele>
        <time>2012-07-15T10:33:08Z</time>
      </trkpt>
      <trkpt lat="44.66798" lon="1.11309">
        <ele>281</ele>
        <time>2012-07-15T10:33:15Z</time>
      </trkpt>
      <trkpt lat="44.668" lon="1.11335">
        <ele>286</ele>
        <time>2012-07-15T10:33:24Z</time>
      </trkpt>
      <trkpt lat="44.66794" lon="1.11354">
        <ele>289</ele>
        <time>2012-07-15T10:33:30Z</time>
      </trkpt>
      <trkpt lat="44.66792" lon="1.11375">
        <ele>291</ele>
        <time>2012-07-15T10:33:37Z</time>
      </trkpt>
      <trkpt lat="44.66786" lon="1.11395">
        <ele>292</ele>
        <time>2012-07-15T10:33:44Z</time>
      </trkpt>
      <trkpt lat="44.6678" lon="1.11411">
        <ele>294</ele>
        <time>2012-07-15T10:33:52Z</time>
      </trkpt>
      <trkpt lat="44.66769" lon="1.11433">
        <ele>296</ele>
        <time>2012-07-15T10:33:59Z</time>
      </trkpt>
      <trkpt lat="44.66766" lon="1.11443">
        <ele>297</ele>
        <time>2012-07-15T10:34:07Z</time>
      </trkpt>
      <trkpt lat="44.66753" lon="1.11468">
        <ele>298</ele>
        <time>2012-07-15T10:34:15Z</time>
      </trkpt>
      <trkpt lat="44.66742" lon="1.11493">
        <ele>298</ele>
        <time>2012-07-15T10:34:25Z</time>
      </trkpt>
      <trkpt lat="44.66734" lon="1.11508">
        <ele>298</ele>
        <time>2012-07-15T10:34:31Z</time>
      </trkpt>
      <trkpt lat="44.66726" lon="1.11523">
        <ele>299</ele>
        <time>2012-07-15T10:34:38Z</time>
      </trkpt>
      <trkpt lat="44.66715" lon="1.1154">
        <ele>299</ele>
        <time>2012-07-15T10:34:45Z</time>
      </trkpt>
      <trkpt lat="44.66705" lon="1.1156">
        <ele>299</ele>
        <time>2012-07-15T10:34:53Z</time>
      </trkpt>
      <trkpt lat="44.6669" lon="1.11585">
        <ele>299</ele>
        <time>2012-07-15T10:35:03Z</time>
      </trkpt>
      <trkpt lat="44.66675" lon="1.11612">
        <ele>303</ele>
        <time>2012-07-15T10:35:11Z</time>
      </trkpt>
      <trkpt lat="44.66664" lon="1.11633">
        <ele>303</ele>
        <time>2012-07-15T10:35:18Z</time>
      </trkpt>
      <trkpt lat="44.66652" lon="1.11658">
        <ele>304</ele>
        <time>2012-07-15T10:35:25Z</time>
      </trkpt>
      <trkpt lat="44.66643" lon="1.11678">
        <ele>305</ele>
        <time>2012-07-15T10:35:30Z</time>
      </trkpt>
      <trkpt lat="44.66636" lon="1.11692">
        <ele>305</ele>
        <time>2012-07-15T10:35:38Z</time>
      </trkpt>
      <trkpt lat="44.66629" lon="1.11714">
        <ele>305</ele>
        <time>2012-07-15T10:35:45Z</time>
      </trkpt>
      <trkpt lat="44.66623" lon="1.11737">
        <ele>305</ele>
        <time>2012-07-15T10:35:52Z</time>
      </trkpt>
      <trkpt lat="44.66622" lon="1.1176">
        <ele>305</ele>
        <time>2012-07-15T10:35:58Z</time>
      </trkpt>
      <trkpt lat="44.66621" lon="1.11792">
        <ele>306</ele>
        <time>2012-07-15T10:36:04Z</time>
      </trkpt>
      <trkpt lat="44.6663" lon="1.11808">
        <ele>306</ele>
        <time>2012-07-15T10:36:12Z</time>
      </trkpt>
      <trkpt lat="44.66642" lon="1.1183">
        <ele>306</ele>
        <time>2012-07-15T10:36:19Z</time>
      </trkpt>
      <trkpt lat="44.66647" lon="1.11853">
        <ele>306</ele>
        <time>2012-07-15T10:36:25Z</time>
      </trkpt>
      <trkpt lat="44.66642" lon="1.11895">
        <ele>306</ele>
        <time>2012-07-15T10:36:33Z</time>
      </trkpt>
      <trkpt lat="44.6664" lon="1.11907">
        <ele>306</ele>
        <time>2012-07-15T10:36:40Z</time>
      </trkpt>
      <trkpt lat="44.66637" lon="1.1195">
        <ele>306</ele>
        <time>2012-07-15T10:36:46Z</time>
      </trkpt>
      <trkpt lat="44.66637" lon="1.11964">
        <ele>307</ele>
        <time>2012-07-15T10:36:52Z</time>
      </trkpt>
      <trkpt lat="44.66633" lon="1.11993">
        <ele>310</ele>
        <time>2012-07-15T10:36:59Z</time>
      </trkpt>
      <trkpt lat="44.66629" lon="1.12035">
        <ele>314</ele>
        <time>2012-07-15T10:37:06Z</time>
      </trkpt>
      <trkpt lat="44.66627" lon="1.12046">
        <ele>314</ele>
        <time>2012-07-15T10:37:13Z</time>
      </trkpt>
      <trkpt lat="44.66616" lon="1.12083">
        <ele>314</ele>
        <time>2012-07-15T10:37:22Z</time>
      </trkpt>
      <trkpt lat="44.66618" lon="1.12111">
        <ele>315</ele>
        <time>2012-07-15T10:37:28Z</time>
      </trkpt>
      <trkpt lat="44.66617" lon="1.12143">
        <ele>318</ele>
        <time>2012-07-15T10:37:35Z</time>
      </trkpt>
      <trkpt lat="44.66614" lon="1.12156">
        <ele>321</ele>
        <time>2012-07-15T10:37:42Z</time>
      </trkpt>
      <trkpt lat="44.66605" lon="1.12191">
        <ele>323</ele>
        <time>2012-07-15T10:37:49Z</time>
      </trkpt>
      <trkpt lat="44.66601" lon="1.12204">
        <ele>324</ele>
        <time>2012-07-15T10:37:56Z</time>
      </trkpt>
      <trkpt lat="44.6659" lon="1.12232">
        <ele>325</ele>
        <time>2012-07-15T10:38:03Z</time>
      </trkpt>
      <trkpt lat="44.66587" lon="1.12255">
        <ele>326</ele>
        <time>2012-07-15T10:38:10Z</time>
      </trkpt>
      <trkpt lat="44.66578" lon="1.12281">
        <ele>326</ele>
        <time>2012-07-15T10:38:16Z</time>
      </trkpt>
      <trkpt lat="44.66565" lon="1.12306">
        <ele>326</ele>
        <time>2012-07-15T10:38:26Z</time>
      </trkpt>
      <trkpt lat="44.66555" lon="1.12329">
        <ele>326</ele>
        <time>2012-07-15T10:38:32Z</time>
      </trkpt>
      <trkpt lat="44.66547" lon="1.12384">
        <ele>326</ele>
        <time>2012-07-15T10:38:40Z</time>
      </trkpt>
      <trkpt lat="44.66536" lon="1.12431">
        <ele>326</ele>
        <time>2012-07-15T10:38:47Z</time>
      </trkpt>
      <trkpt lat="44.66527" lon="1.12462">
        <ele>326</ele>
        <time>2012-07-15T10:38:54Z</time>
      </trkpt>
      <trkpt lat="44.66516" lon="1.12508">
        <ele>324</ele>
        <time>2012-07-15T10:39:02Z</time>
      </trkpt>
      <trkpt lat="44.66476" lon="1.12585">
        <ele>322</ele>
        <time>2012-07-15T10:39:10Z</time>
      </trkpt>
      <trkpt lat="44.66471" lon="1.12613">
        <ele>320</ele>
        <time>2012-07-15T10:39:18Z</time>
      </trkpt>
      <trkpt lat="44.66463" lon="1.12664">
        <ele>317</ele>
        <time>2012-07-15T10:39:24Z</time>
      </trkpt>
      <trkpt lat="44.66451" lon="1.12724">
        <ele>316</ele>
        <time>2012-07-15T10:39:30Z</time>
      </trkpt>
      <trkpt lat="44.66448" lon="1.12747">
        <ele>316</ele>
        <time>2012-07-15T10:39:37Z</time>
      </trkpt>
      <trkpt lat="44.66439" lon="1.12775">
        <ele>314</ele>
        <time>2012-07-15T10:39:43Z</time>
      </trkpt>
      <trkpt lat="44.6643" lon="1.12806">
        <ele>311</ele>
        <time>2012-07-15T10:39:49Z</time>
      </trkpt>
      <trkpt lat="44.66417" lon="1.12851">
        <ele>309</ele>
        <time>2012-07-15T10:39:55Z</time>
      </trkpt>
      <trkpt lat="44.6641" lon="1.1287">
        <ele>309</ele>
        <time>2012-07-15T10:40:02Z</time>
      </trkpt>
      <trkpt lat="44.66397" lon="1.12912">
        <ele>309</ele>
        <time>2012-07-15T10:40:09Z</time>
      </trkpt>
      <trkpt lat="44.66392" lon="1.1293">
        <ele>309</ele>
        <time>2012-07-15T10:40:16Z</time>
      </trkpt>
      <trkpt lat="44.66388" lon="1.12955">
        <ele>309</ele>
        <time>2012-07-15T10:40:22Z</time>
      </trkpt>
      <trkpt lat="44.66384" lon="1.12979">
        <ele>309</ele>
        <time>2012-07-15T10:40:28Z</time>
      </trkpt>
      <trkpt lat="44.66375" lon="1.13007">
        <ele>311</ele>
        <time>2012-07-15T10:40:35Z</time>
      </trkpt>
      <trkpt lat="44.66363" lon="1.13029">
        <ele>314</ele>
        <time>2012-07-15T10:40:41Z</time>
      </trkpt>
      <trkpt lat="44.66351" lon="1.13057">
        <ele>317</ele>
        <time>2012-07-15T10:40:48Z</time>
      </trkpt>
      <trkpt lat="44.66342" lon="1.13088">
        <ele>320</ele>
        <time>2012-07-15T10:40:55Z</time>
      </trkpt>
      <trkpt lat="44.66335" lon="1.13112">
        <ele>320</ele>
        <time>2012-07-15T10:41:01Z</time>
      </trkpt>
      <trkpt lat="44.66317" lon="1.13153">
        <ele>320</ele>
        <time>2012-07-15T10:41:08Z</time>
      </trkpt>
      <trkpt lat="44.66313" lon="1.13167">
        <ele>320</ele>
        <time>2012-07-15T10:41:14Z</time>
      </trkpt>
      <trkpt lat="44.66302" lon="1.13203">
        <ele>319</ele>
        <time>2012-07-15T10:41:22Z</time>
      </trkpt>
      <trkpt lat="44.66295" lon="1.13231">
        <ele>319</ele>
        <time>2012-07-15T10:41:29Z</time>
      </trkpt>
      <trkpt lat="44.66291" lon="1.13254">
        <ele>319</ele>
        <time>2012-07-15T10:41:36Z</time>
      </trkpt>
      <trkpt lat="44.66283" lon="1.13283">
        <ele>319</ele>
        <time>2012-07-15T10:41:44Z</time>
      </trkpt>
      <trkpt lat="44.66276" lon="1.13321">
        <ele>318</ele>
        <time>2012-07-15T10:41:50Z</time>
      </trkpt>
      <trkpt lat="44.66273" lon="1.13338">
        <ele>318</ele>
        <time>2012-07-15T10:41:57Z</time>
      </trkpt>
      <trkpt lat="44.6627" lon="1.13359">
        <ele>318</ele>
        <time>2012-07-15T10:42:04Z</time>
      </trkpt>
      <trkpt lat="44.66267" lon="1.13381">
        <ele>319</ele>
        <time>2012-07-15T10:42:10Z</time>
      </trkpt>
      <trkpt lat="44.66264" lon="1.13409">
        <ele>321</ele>
        <time>2012-07-15T10:42:17Z</time>
      </trkpt>
      <trkpt lat="44.66264" lon="1.13418">
        <ele>323</ele>
        <time>2012-07-15T10:42:24Z</time>
      </trkpt>
      <trkpt lat="44.66267" lon="1.13445">
        <ele>327</ele>
        <time>2012-07-15T10:42:32Z</time>
      </trkpt>
      <trkpt lat="44.66266" lon="1.13468">
        <ele>330</ele>
        <time>2012-07-15T10:42:39Z</time>
      </trkpt>
      <trkpt lat="44.66264" lon="1.1349">
        <ele>331</ele>
        <time>2012-07-15T10:42:46Z</time>
      </trkpt>
      <trkpt lat="44.66261" lon="1.13511">
        <ele>334</ele>
        <time>2012-07-15T10:42:53Z</time>
      </trkpt>
      <trkpt lat="44.66259" lon="1.13532">
        <ele>337</ele>
        <time>2012-07-15T10:42:59Z</time>
      </trkpt>
      <trkpt lat="44.66259" lon="1.13554">
        <ele>340</ele>
        <time>2012-07-15T10:43:06Z</time>
      </trkpt>
      <trkpt lat="44.66258" lon="1.13577">
        <ele>341</ele>
        <time>2012-07-15T10:43:13Z</time>
      </trkpt>
      <trkpt lat="44.66254" lon="1.136">
        <ele>341</ele>
        <time>2012-07-15T10:43:20Z</time>
      </trkpt>
      <trkpt lat="44.66249" lon="1.13624">
        <ele>341</ele>
        <time>2012-07-15T10:43:28Z</time>
      </trkpt>
      <trkpt lat="44.66248" lon="1.13648">
        <ele>341</ele>
        <time>2012-07-15T10:43:35Z</time>
      </trkpt>
      <trkpt lat="44.66241" lon="1.13672">
        <ele>341</ele>
        <time>2012-07-15T10:43:42Z</time>
      </trkpt>
      <trkpt lat="44.66238" lon="1.13701">
        <ele>341</ele>
        <time>2012-07-15T10:43:50Z</time>
      </trkpt>
      <trkpt lat="44.66232" lon="1.13723">
        <ele>341</ele>
        <time>2012-07-15T10:43:57Z</time>
      </trkpt>
      <trkpt lat="44.66228" lon="1.13748">
        <ele>341</ele>
        <time>2012-07-15T10:44:04Z</time>
      </trkpt>
      <trkpt lat="44.66216" lon="1.13775">
        <ele>341</ele>
        <time>2012-07-15T10:44:12Z</time>
      </trkpt>
      <trkpt lat="44.66208" lon="1.13798">
        <ele>341</ele>
        <time>2012-07-15T10:44:19Z</time>
      </trkpt>
      <trkpt lat="44.66196" lon="1.13823">
        <ele>341</ele>
        <time>2012-07-15T10:44:27Z</time>
      </trkpt>
      <trkpt lat="44.66184" lon="1.13846">
        <ele>341</ele>
        <time>2012-07-15T10:44:34Z</time>
      </trkpt>
      <trkpt lat="44.66171" lon="1.13867">
        <ele>340</ele>
        <time>2012-07-15T10:44:41Z</time>
      </trkpt>
      <trkpt lat="44.66159" lon="1.13886">
        <ele>338</ele>
        <time>2012-07-15T10:44:48Z</time>
      </trkpt>
      <trkpt lat="44.66146" lon="1.13914">
        <ele>336</ele>
        <time>2012-07-15T10:44:56Z</time>
      </trkpt>
      <trkpt lat="44.66137" lon="1.13937">
        <ele>336</ele>
        <time>2012-07-15T10:45:03Z</time>
      </trkpt>
      <trkpt lat="44.66123" lon="1.13972">
        <ele>336</ele>
        <time>2012-07-15T10:45:10Z</time>
      </trkpt>
      <trkpt lat="44.66116" lon="1.13984">
        <ele>340</ele>
        <time>2012-07-15T10:45:18Z</time>
      </trkpt>
      <trkpt lat="44.66105" lon="1.14013">
        <ele>343</ele>
        <time>2012-07-15T10:45:24Z</time>
      </trkpt>
      <trkpt lat="44.66098" lon="1.14028">
        <ele>347</ele>
        <time>2012-07-15T10:45:32Z</time>
      </trkpt>
      <trkpt lat="44.66087" lon="1.14047">
        <ele>350</ele>
        <time>2012-07-15T10:45:38Z</time>
      </trkpt>
      <trkpt lat="44.66076" lon="1.14065">
        <ele>353</ele>
        <time>2012-07-15T10:45:44Z</time>
      </trkpt>
      <trkpt lat="44.66066" lon="1.14088">
        <ele>356</ele>
        <time>2012-07-15T10:45:53Z</time>
      </trkpt>
      <trkpt lat="44.66058" lon="1.14117">
        <ele>356</ele>
        <time>2012-07-15T10:46:00Z</time>
      </trkpt>
      <trkpt lat="44.66042" lon="1.1414">
        <ele>356</ele>
        <time>2012-07-15T10:46:08Z</time>
      </trkpt>
      <trkpt lat="44.66038" lon="1.14162">
        <ele>356</ele>
        <time>2012-07-15T10:46:13Z</time>
      </trkpt>
      <trkpt lat="44.66047" lon="1.14166">
        <ele>356</ele>
        <time>2012-07-15T10:46:20Z</time>
      </trkpt>
      <trkpt lat="44.66068" lon="1.1418">
        <ele>354</ele>
        <time>2012-07-15T10:46:27Z</time>
      </trkpt>
      <trkpt lat="44.66096" lon="1.14205">
        <ele>351</ele>
        <time>2012-07-15T10:46:33Z</time>
      </trkpt>
      <trkpt lat="44.66127" lon="1.14235">
        <ele>348</ele>
        <time>2012-07-15T10:46:39Z</time>
      </trkpt>
      <trkpt lat="44.66171" lon="1.14287">
        <ele>345</ele>
        <time>2012-07-15T10:46:45Z</time>
      </trkpt>
      <trkpt lat="44.66188" lon="1.1432">
        <ele>342</ele>
        <time>2012-07-15T10:46:52Z</time>
      </trkpt>
      <trkpt lat="44.66218" lon="1.14365">
        <ele>339</ele>
        <time>2012-07-15T10:46:58Z</time>
      </trkpt>
      <trkpt lat="44.66248" lon="1.14406">
        <ele>336</ele>
        <time>2012-07-15T10:47:05Z</time>
      </trkpt>
      <trkpt lat="44.66263" lon="1.14466">
        <ele>334</ele>
        <time>2012-07-15T10:47:11Z</time>
      </trkpt>
      <trkpt lat="44.66264" lon="1.14492">
        <ele>334</ele>
        <time>2012-07-15T10:47:18Z</time>
      </trkpt>
      <trkpt lat="44.66275" lon="1.14533">
        <ele>336</ele>
        <time>2012-07-15T10:47:24Z</time>
      </trkpt>
      <trkpt lat="44.66282" lon="1.14584">
        <ele>337</ele>
        <time>2012-07-15T10:47:31Z</time>
      </trkpt>
      <trkpt lat="44.66288" lon="1.14637">
        <ele>335</ele>
        <time>2012-07-15T10:47:38Z</time>
      </trkpt>
      <trkpt lat="44.66301" lon="1.14709">
        <ele>332</ele>
        <time>2012-07-15T10:47:44Z</time>
      </trkpt>
      <trkpt lat="44.66306" lon="1.14729">
        <ele>330</ele>
        <time>2012-07-15T10:47:50Z</time>
      </trkpt>
      <trkpt lat="44.66308" lon="1.1475">
        <ele>326</ele>
        <time>2012-07-15T10:47:57Z</time>
      </trkpt>
      <trkpt lat="44.66308" lon="1.14754">
        <ele>323</ele>
        <time>2012-07-15T10:48:06Z</time>
      </trkpt>
      <trkpt lat="44.66306" lon="1.14751">
        <ele>323</ele>
        <time>2012-07-15T10:48:14Z</time>
      </trkpt>
      <trkpt lat="44.66306" lon="1.14748">
        <ele>323</ele>
        <time>2012-07-15T10:48:22Z</time>
      </trkpt>
      <trkpt lat="44.66306" lon="1.14746">
        <ele>326</ele>
        <time>2012-07-15T10:48:30Z</time>
      </trkpt>
      <trkpt lat="44.66305" lon="1.14744">
        <ele>331</ele>
        <time>2012-07-15T10:48:40Z</time>
      </trkpt>
      <trkpt lat="44.66306" lon="1.14744">
        <ele>331</ele>
        <time>2012-07-15T10:48:56Z</time>
      </trkpt>
      <trkpt lat="44.66307" lon="1.14746">
        <ele>331</ele>
        <time>2012-07-15T10:49:04Z</time>
      </trkpt>
      <trkpt lat="44.66318" lon="1.14747">
        <ele>331</ele>
        <time>2012-07-15T10:49:12Z</time>
      </trkpt>
      <trkpt lat="44.66333" lon="1.14751">
        <ele>331</ele>
        <time>2012-07-15T10:49:20Z</time>
      </trkpt>
      <trkpt lat="44.66351" lon="1.1475">
        <ele>329</ele>
        <time>2012-07-15T10:49:26Z</time>
      </trkpt>
      <trkpt lat="44.66379" lon="1.14738">
        <ele>327</ele>
        <time>2012-07-15T10:49:33Z</time>
      </trkpt>
      <trkpt lat="44.66402" lon="1.14725">
        <ele>325</ele>
        <time>2012-07-15T10:49:39Z</time>
      </trkpt>
      <trkpt lat="44.66435" lon="1.14707">
        <ele>325</ele>
        <time>2012-07-15T10:49:46Z</time>
      </trkpt>
      <trkpt lat="44.66459" lon="1.14694">
        <ele>328</ele>
        <time>2012-07-15T10:49:52Z</time>
      </trkpt>
      <trkpt lat="44.66482" lon="1.14681">
        <ele>335</ele>
        <time>2012-07-15T10:49:59Z</time>
      </trkpt>
      <trkpt lat="44.6651" lon="1.14681">
        <ele>348</ele>
        <time>2012-07-15T10:50:08Z</time>
      </trkpt>
      <trkpt lat="44.6654" lon="1.14692">
        <ele>350</ele>
        <time>2012-07-15T10:50:15Z</time>
      </trkpt>
      <trkpt lat="44.66571" lon="1.14702">
        <ele>349</ele>
        <time>2012-07-15T10:50:21Z</time>
      </trkpt>
      <trkpt lat="44.66602" lon="1.14711">
        <ele>345</ele>
        <time>2012-07-15T10:50:28Z</time>
      </trkpt>
      <trkpt lat="44.66633" lon="1.14717">
        <ele>339</ele>
        <time>2012-07-15T10:50:35Z</time>
      </trkpt>
      <trkpt lat="44.66662" lon="1.14723">
        <ele>333</ele>
        <time>2012-07-15T10:50:41Z</time>
      </trkpt>
      <trkpt lat="44.6669" lon="1.14723">
        <ele>328</ele>
        <time>2012-07-15T10:50:48Z</time>
      </trkpt>
      <trkpt lat="44.66711" lon="1.14727">
        <ele>325</ele>
        <time>2012-07-15T10:50:55Z</time>
      </trkpt>
      <trkpt lat="44.66733" lon="1.14731">
        <ele>322</ele>
        <time>2012-07-15T10:51:01Z</time>
      </trkpt>
      <trkpt lat="44.6675" lon="1.14748">
        <ele>321</ele>
        <time>2012-07-15T10:51:11Z</time>
      </trkpt>
      <trkpt lat="44.66755" lon="1.14774">
        <ele>321</ele>
        <time>2012-07-15T10:51:18Z</time>
      </trkpt>
      <trkpt lat="44.66753" lon="1.14796">
        <ele>322</ele>
        <time>2012-07-15T10:51:27Z</time>
      </trkpt>
      <trkpt lat="44.66753" lon="1.14818">
        <ele>322</ele>
        <time>2012-07-15T10:51:33Z</time>
      </trkpt>
      <trkpt lat="44.66759" lon="1.14777">
        <ele>324</ele>
        <time>2012-07-15T10:51:42Z</time>
      </trkpt>
      <trkpt lat="44.6677" lon="1.14766">
        <ele>327</ele>
        <time>2012-07-15T10:51:50Z</time>
      </trkpt>
      <trkpt lat="44.66791" lon="1.1474">
        <ele>330</ele>
        <time>2012-07-15T10:51:57Z</time>
      </trkpt>
      <trkpt lat="44.66817" lon="1.14738">
        <ele>330</ele>
        <time>2012-07-15T10:52:04Z</time>
      </trkpt>
      <trkpt lat="44.66845" lon="1.14734">
        <ele>333</ele>
        <time>2012-07-15T10:52:11Z</time>
      </trkpt>
      <trkpt lat="44.66876" lon="1.1476">
        <ele>333</ele>
        <time>2012-07-15T10:52:19Z</time>
      </trkpt>
      <trkpt lat="44.66908" lon="1.14808">
        <ele>333</ele>
        <time>2012-07-15T10:52:26Z</time>
      </trkpt>
      <trkpt lat="44.6692" lon="1.14829">
        <ele>330</ele>
        <time>2012-07-15T10:52:33Z</time>
      </trkpt>
      <trkpt lat="44.6694" lon="1.14829">
        <ele>327</ele>
        <time>2012-07-15T10:52:42Z</time>
      </trkpt>
      <trkpt lat="44.66959" lon="1.14788">
        <ele>327</ele>
        <time>2012-07-15T10:52:50Z</time>
      </trkpt>
      <trkpt lat="44.66992" lon="1.14745">
        <ele>327</ele>
        <time>2012-07-15T10:52:57Z</time>
      </trkpt>
      <trkpt lat="44.6703" lon="1.14706">
        <ele>325</ele>
        <time>2012-07-15T10:53:04Z</time>
      </trkpt>
      <trkpt lat="44.67062" lon="1.14684">
        <ele>323</ele>
        <time>2012-07-15T10:53:11Z</time>
      </trkpt>
      <trkpt lat="44.67078" lon="1.14675">
        <ele>323</ele>
        <time>2012-07-15T10:53:21Z</time>
      </trkpt>
      <trkpt lat="44.67082" lon="1.14677">
        <ele>324</ele>
        <time>2012-07-15T10:53:32Z</time>
      </trkpt>
      <trkpt lat="44.67083" lon="1.14675">
        <ele>328</ele>
        <time>2012-07-15T10:53:40Z</time>
      </trkpt>
      <trkpt lat="44.67087" lon="1.14674">
        <ele>333</ele>
        <time>2012-07-15T10:53:50Z</time>
      </trkpt>
      <trkpt lat="44.67095" lon="1.14672">
        <ele>333</ele>
        <time>2012-07-15T10:53:58Z</time>
      </trkpt>
      <trkpt lat="44.67114" lon="1.14635">
        <ele>332</ele>
        <time>2012-07-15T10:54:05Z</time>
      </trkpt>
      <trkpt lat="44.67126" lon="1.14633">
        <ele>329</ele>
        <time>2012-07-15T10:54:13Z</time>
      </trkpt>
      <trkpt lat="44.67156" lon="1.14637">
        <ele>321</ele>
        <time>2012-07-15T10:54:20Z</time>
      </trkpt>
      <trkpt lat="44.67194" lon="1.14663">
        <ele>315</ele>
        <time>2012-07-15T10:54:28Z</time>
      </trkpt>
      <trkpt lat="44.6722" lon="1.14689">
        <ele>312</ele>
        <time>2012-07-15T10:54:35Z</time>
      </trkpt>
      <trkpt lat="44.67249" lon="1.14717">
        <ele>310</ele>
        <time>2012-07-15T10:54:43Z</time>
      </trkpt>
      <trkpt lat="44.67277" lon="1.14741">
        <ele>310</ele>
        <time>2012-07-15T10:54:50Z</time>
      </trkpt>
      <trkpt lat="44.67302" lon="1.14755">
        <ele>309</ele>
        <time>2012-07-15T10:54:57Z</time>
      </trkpt>
      <trkpt lat="44.67324" lon="1.14766">
        <ele>309</ele>
        <time>2012-07-15T10:55:04Z</time>
      </trkpt>
      <trkpt lat="44.67365" lon="1.14784">
        <ele>309</ele>
        <time>2012-07-15T10:55:11Z</time>
      </trkpt>
      <trkpt lat="44.67391" lon="1.14798">
        <ele>309</ele>
        <time>2012-07-15T10:55:18Z</time>
      </trkpt>
      <trkpt lat="44.67438" lon="1.1484">
        <ele>308</ele>
        <time>2012-07-15T10:55:26Z</time>
      </trkpt>
      <trkpt lat="44.6748" lon="1.14887">
        <ele>307</ele>
        <time>2012-07-15T10:55:33Z</time>
      </trkpt>
      <trkpt lat="44.67537" lon="1.14906">
        <ele>307</ele>
        <time>2012-07-15T10:55:40Z</time>
      </trkpt>
      <trkpt lat="44.67584" lon="1.14892">
        <ele>306</ele>
        <time>2012-07-15T10:55:46Z</time>
      </trkpt>
      <trkpt lat="44.67649" lon="1.14901">
        <ele>303</ele>
        <time>2012-07-15T10:55:54Z</time>
      </trkpt>
      <trkpt lat="44.67708" lon="1.14936">
        <ele>303</ele>
        <time>2012-07-15T10:56:00Z</time>
      </trkpt>
      <trkpt lat="44.67741" lon="1.14993">
        <ele>303</ele>
        <time>2012-07-15T10:56:08Z</time>
      </trkpt>
      <trkpt lat="44.67747" lon="1.15037">
        <ele>301</ele>
        <time>2012-07-15T10:56:15Z</time>
      </trkpt>
      <trkpt lat="44.67737" lon="1.15087">
        <ele>301</ele>
        <time>2012-07-15T10:56:22Z</time>
      </trkpt>
      <trkpt lat="44.67719" lon="1.15141">
        <ele>301</ele>
        <time>2012-07-15T10:56:29Z</time>
      </trkpt>
      <trkpt lat="44.67701" lon="1.15196">
        <ele>301</ele>
        <time>2012-07-15T10:56:35Z</time>
      </trkpt>
      <trkpt lat="44.6768" lon="1.1525">
        <ele>301</ele>
        <time>2012-07-15T10:56:41Z</time>
      </trkpt>
      <trkpt lat="44.67646" lon="1.15332">
        <ele>299</ele>
        <time>2012-07-15T10:56:47Z</time>
      </trkpt>
      <trkpt lat="44.67645" lon="1.15374">
        <ele>296</ele>
        <time>2012-07-15T10:56:53Z</time>
      </trkpt>
      <trkpt lat="44.67644" lon="1.15438">
        <ele>293</ele>
        <time>2012-07-15T10:57:00Z</time>
      </trkpt>
      <trkpt lat="44.67641" lon="1.15497">
        <ele>290</ele>
        <time>2012-07-15T10:57:06Z</time>
      </trkpt>
      <trkpt lat="44.67634" lon="1.15541">
        <ele>287</ele>
        <time>2012-07-15T10:57:12Z</time>
      </trkpt>
      <trkpt lat="44.67617" lon="1.15594">
        <ele>284</ele>
        <time>2012-07-15T10:57:19Z</time>
      </trkpt>
      <trkpt lat="44.67656" lon="1.15644">
        <ele>280</ele>
        <time>2012-07-15T10:57:26Z</time>
      </trkpt>
      <trkpt lat="44.67689" lon="1.15711">
        <ele>273</ele>
        <time>2012-07-15T10:57:33Z</time>
      </trkpt>
      <trkpt lat="44.67719" lon="1.15743">
        <ele>263</ele>
        <time>2012-07-15T10:57:41Z</time>
      </trkpt>
      <trkpt lat="44.67722" lon="1.15803">
        <ele>259</ele>
        <time>2012-07-15T10:57:49Z</time>
      </trkpt>
      <trkpt lat="44.67727" lon="1.15816">
        <ele>254</ele>
        <time>2012-07-15T10:57:57Z</time>
      </trkpt>
      <trkpt lat="44.67742" lon="1.15852">
        <ele>250</ele>
        <time>2012-07-15T10:58:02Z</time>
      </trkpt>
      <trkpt lat="44.67757" lon="1.15924">
        <ele>247</ele>
        <time>2012-07-15T10:58:10Z</time>
      </trkpt>
      <trkpt lat="44.67813" lon="1.15909">
        <ele>246</ele>
        <time>2012-07-15T10:58:19Z</time>
      </trkpt>
      <trkpt lat="44.67829" lon="1.15897">
        <ele>244</ele>
        <time>2012-07-15T10:58:25Z</time>
      </trkpt>
      <trkpt lat="44.67865" lon="1.15867">
        <ele>240</ele>
        <time>2012-07-15T10:58:33Z</time>
      </trkpt>
      <trkpt lat="44.67872" lon="1.15795">
        <ele>236</ele>
        <time>2012-07-15T10:58:40Z</time>
      </trkpt>
      <trkpt lat="44.67897" lon="1.1575">
        <ele>234</ele>
        <time>2012-07-15T10:58:47Z</time>
      </trkpt>
      <trkpt lat="44.67926" lon="1.15737">
        <ele>231</ele>
        <time>2012-07-15T10:58:54Z</time>
      </trkpt>
      <trkpt lat="44.67987" lon="1.15717">
        <ele>225</ele>
        <time>2012-07-15T10:59:01Z</time>
      </trkpt>
      <trkpt lat="44.68037" lon="1.15701">
        <ele>221</ele>
        <time>2012-07-15T10:59:07Z</time>
      </trkpt>
      <trkpt lat="44.68085" lon="1.15681">
        <ele>218</ele>
        <time>2012-07-15T10:59:14Z</time>
      </trkpt>
      <trkpt lat="44.68128" lon="1.1568">
        <ele>220</ele>
        <time>2012-07-15T10:59:21Z</time>
      </trkpt>
      <trkpt lat="44.68171" lon="1.15673">
        <ele>223</ele>
        <time>2012-07-15T10:59:27Z</time>
      </trkpt>
      <trkpt lat="44.68223" lon="1.15665">
        <ele>226</ele>
        <time>2012-07-15T10:59:34Z</time>
      </trkpt>
      <trkpt lat="44.68262" lon="1.15641">
        <ele>230</ele>
        <time>2012-07-15T10:59:41Z</time>
      </trkpt>
      <trkpt lat="44.68353" lon="1.15624">
        <ele>231</ele>
        <time>2012-07-15T10:59:48Z</time>
      </trkpt>
      <trkpt lat="44.68372" lon="1.15616">
        <ele>229</ele>
        <time>2012-07-15T10:59:55Z</time>
      </trkpt>
      <trkpt lat="44.68437" lon="1.156">
        <ele>226</ele>
        <time>2012-07-15T11:00:01Z</time>
      </trkpt>
      <trkpt lat="44.68462" lon="1.15604">
        <ele>223</ele>
        <time>2012-07-15T11:00:08Z</time>
      </trkpt>
      <trkpt lat="44.68502" lon="1.15613">
        <ele>220</ele>
        <time>2012-07-15T11:00:14Z</time>
      </trkpt>
      <trkpt lat="44.68563" lon="1.15634">
        <ele>217</ele>
        <time>2012-07-15T11:00:21Z</time>
      </trkpt>
      <trkpt lat="44.68572" lon="1.15693">
        <ele>215</ele>
        <time>2012-07-15T11:00:30Z</time>
      </trkpt>
      <trkpt lat="44.68572" lon="1.15712">
        <ele>215</ele>
        <time>2012-07-15T11:00:36Z</time>
      </trkpt>
      <trkpt lat="44.68584" lon="1.15753">
        <ele>215</ele>
        <time>2012-07-15T11:00:43Z</time>
      </trkpt>
      <trkpt lat="44.68596" lon="1.15769">
        <ele>216</ele>
        <time>2012-07-15T11:00:53Z</time>
      </trkpt>
      <trkpt lat="44.68617" lon="1.15801">
        <ele>216</ele>
        <time>2012-07-15T11:00:58Z</time>
      </trkpt>
      <trkpt lat="44.68632" lon="1.15839">
        <ele>215</ele>
        <time>2012-07-15T11:01:05Z</time>
      </trkpt>
      <trkpt lat="44.68645" lon="1.1588">
        <ele>212</ele>
        <time>2012-07-15T11:01:12Z</time>
      </trkpt>
      <trkpt lat="44.68649" lon="1.15888">
        <ele>212</ele>
        <time>2012-07-15T11:01:19Z</time>
      </trkpt>
      <trkpt lat="44.68661" lon="1.15913">
        <ele>213</ele>
        <time>2012-07-15T11:01:27Z</time>
      </trkpt>
      <trkpt lat="44.68674" lon="1.15951">
        <ele>218</ele>
        <time>2012-07-15T11:01:36Z</time>
      </trkpt>
      <trkpt lat="44.68678" lon="1.15961">
        <ele>220</ele>
        <time>2012-07-15T11:01:43Z</time>
      </trkpt>
      <trkpt lat="44.68687" lon="1.15984">
        <ele>222</ele>
        <time>2012-07-15T11:01:50Z</time>
      </trkpt>
      <trkpt lat="44.68707" lon="1.16014">
        <ele>225</ele>
        <time>2012-07-15T11:01:57Z</time>
      </trkpt>
      <trkpt lat="44.68739" lon="1.16045">
        <ele>229</ele>
        <time>2012-07-15T11:02:04Z</time>
      </trkpt>
      <trkpt lat="44.68763" lon="1.16074">
        <ele>230</ele>
        <time>2012-07-15T11:02:11Z</time>
      </trkpt>
      <trkpt lat="44.68773" lon="1.16086">
        <ele>228</ele>
        <time>2012-07-15T11:02:18Z</time>
      </trkpt>
      <trkpt lat="44.68776" lon="1.16122">
        <ele>221</ele>
        <time>2012-07-15T11:02:25Z</time>
      </trkpt>
      <trkpt lat="44.6879" lon="1.16162">
        <ele>215</ele>
        <time>2012-07-15T11:02:33Z</time>
      </trkpt>
      <trkpt lat="44.6883" lon="1.16192">
        <ele>208</ele>
        <time>2012-07-15T11:02:41Z</time>
      </trkpt>
      <trkpt lat="44.68837" lon="1.16199">
        <ele>205</ele>
        <time>2012-07-15T11:02:48Z</time>
      </trkpt>
      <trkpt lat="44.68855" lon="1.16209">
        <ele>200</ele>
        <time>2012-07-15T11:02:57Z</time>
      </trkpt>
      <trkpt lat="44.68873" lon="1.16218">
        <ele>200</ele>
        <time>2012-07-15T11:03:04Z</time>
      </trkpt>
      <trkpt lat="44.68893" lon="1.16225">
        <ele>200</ele>
        <time>2012-07-15T11:03:11Z</time>
      </trkpt>
      <trkpt lat="44.68904" lon="1.16227">
        <ele>200</ele>
        <time>2012-07-15T11:03:18Z</time>
      </trkpt>
      <trkpt lat="44.68915" lon="1.16231">
        <ele>200</ele>
        <time>2012-07-15T11:03:25Z</time>
      </trkpt>
      <trkpt lat="44.68919" lon="1.16233">
        <ele>203</ele>
        <time>2012-07-15T11:03:32Z</time>
      </trkpt>
      <trkpt lat="44.68945" lon="1.16243">
        <ele>207</ele>
        <time>2012-07-15T11:03:40Z</time>
      </trkpt>
      <trkpt lat="44.68948" lon="1.16262">
        <ele>211</ele>
        <time>2012-07-15T11:03:48Z</time>
      </trkpt>
      <trkpt lat="44.6895" lon="1.16288">
        <ele>215</ele>
        <time>2012-07-15T11:03:57Z</time>
      </trkpt>
      <trkpt lat="44.6896" lon="1.16322">
        <ele>215</ele>
        <time>2012-07-15T11:04:05Z</time>
      </trkpt>
      <trkpt lat="44.68976" lon="1.16348">
        <ele>215</ele>
        <time>2012-07-15T11:04:13Z</time>
      </trkpt>
      <trkpt lat="44.68994" lon="1.16366">
        <ele>215</ele>
        <time>2012-07-15T11:04:20Z</time>
      </trkpt>
      <trkpt lat="44.69012" lon="1.16378">
        <ele>216</ele>
        <time>2012-07-15T11:04:27Z</time>
      </trkpt>
      <trkpt lat="44.6903" lon="1.16382">
        <ele>218</ele>
        <time>2012-07-15T11:04:34Z</time>
      </trkpt>
      <trkpt lat="44.6905" lon="1.16391">
        <ele>221</ele>
        <time>2012-07-15T11:04:41Z</time>
      </trkpt>
      <trkpt lat="44.69069" lon="1.16403">
        <ele>222</ele>
        <time>2012-07-15T11:04:48Z</time>
      </trkpt>
      <trkpt lat="44.69082" lon="1.16418">
        <ele>224</ele>
        <time>2012-07-15T11:04:55Z</time>
      </trkpt>
      <trkpt lat="44.69097" lon="1.16436">
        <ele>225</ele>
        <time>2012-07-15T11:05:02Z</time>
      </trkpt>
      <trkpt lat="44.69113" lon="1.16454">
        <ele>225</ele>
        <time>2012-07-15T11:05:09Z</time>
      </trkpt>
      <trkpt lat="44.69127" lon="1.16473">
        <ele>225</ele>
        <time>2012-07-15T11:05:16Z</time>
      </trkpt>
      <trkpt lat="44.69143" lon="1.16494">
        <ele>225</ele>
        <time>2012-07-15T11:05:23Z</time>
      </trkpt>
      <trkpt lat="44.69155" lon="1.16517">
        <ele>225</ele>
        <time>2012-07-15T11:05:30Z</time>
      </trkpt>
      <trkpt lat="44.69167" lon="1.16544">
        <ele>225</ele>
        <time>2012-07-15T11:05:38Z</time>
      </trkpt>
      <trkpt lat="44.69177" lon="1.16569">
        <ele>227</ele>
        <time>2012-07-15T11:05:45Z</time>
      </trkpt>
      <trkpt lat="44.69189" lon="1.16593">
        <ele>230</ele>
        <time>2012-07-15T11:05:52Z</time>
      </trkpt>
      <trkpt lat="44.69205" lon="1.16614">
        <ele>233</ele>
        <time>2012-07-15T11:05:59Z</time>
      </trkpt>
      <trkpt lat="44.69221" lon="1.16634">
        <ele>234</ele>
        <time>2012-07-15T11:06:06Z</time>
      </trkpt>
      <trkpt lat="44.69236" lon="1.16657">
        <ele>235</ele>
        <time>2012-07-15T11:06:13Z</time>
      </trkpt>
      <trkpt lat="44.69249" lon="1.16689">
        <ele>236</ele>
        <time>2012-07-15T11:06:20Z</time>
      </trkpt>
      <trkpt lat="44.69265" lon="1.16736">
        <ele>236</ele>
        <time>2012-07-15T11:06:27Z</time>
      </trkpt>
      <trkpt lat="44.69281" lon="1.16792">
        <ele>236</ele>
        <time>2012-07-15T11:06:34Z</time>
      </trkpt>
      <trkpt lat="44.69308" lon="1.16848">
        <ele>236</ele>
        <time>2012-07-15T11:06:42Z</time>
      </trkpt>
      <trkpt lat="44.69272" lon="1.16913">
        <ele>232</ele>
        <time>2012-07-15T11:06:52Z</time>
      </trkpt>
      <trkpt lat="44.69285" lon="1.16943">
        <ele>229</ele>
        <time>2012-07-15T11:06:59Z</time>
      </trkpt>
      <trkpt lat="44.69321" lon="1.17013">
        <ele>226</ele>
        <time>2012-07-15T11:07:06Z</time>
      </trkpt>
      <trkpt lat="44.69345" lon="1.17103">
        <ele>218</ele>
        <time>2012-07-15T11:07:14Z</time>
      </trkpt>
      <trkpt lat="44.69372" lon="1.17124">
        <ele>211</ele>
        <time>2012-07-15T11:07:23Z</time>
      </trkpt>
      <trkpt lat="44.69397" lon="1.17163">
        <ele>208</ele>
        <time>2012-07-15T11:07:30Z</time>
      </trkpt>
      <trkpt lat="44.69396" lon="1.17178">
        <ele>207</ele>
        <time>2012-07-15T11:07:38Z</time>
      </trkpt>
      <trkpt lat="44.69391" lon="1.17204">
        <ele>207</ele>
        <time>2012-07-15T11:07:45Z</time>
      </trkpt>
      <trkpt lat="44.6939" lon="1.17231">
        <ele>209</ele>
        <time>2012-07-15T11:07:52Z</time>
      </trkpt>
      <trkpt lat="44.69397" lon="1.17259">
        <ele>213</ele>
        <time>2012-07-15T11:07:59Z</time>
      </trkpt>
      <trkpt lat="44.69407" lon="1.1728">
        <ele>213</ele>
        <time>2012-07-15T11:08:07Z</time>
      </trkpt>
      <trkpt lat="44.69407" lon="1.17309">
        <ele>216</ele>
        <time>2012-07-15T11:08:15Z</time>
      </trkpt>
      <trkpt lat="44.69414" lon="1.17339">
        <ele>218</ele>
        <time>2012-07-15T11:08:24Z</time>
      </trkpt>
      <trkpt lat="44.69425" lon="1.17353">
        <ele>220</ele>
        <time>2012-07-15T11:08:32Z</time>
      </trkpt>
      <trkpt lat="44.69435" lon="1.17365">
        <ele>222</ele>
        <time>2012-07-15T11:08:39Z</time>
      </trkpt>
      <trkpt lat="44.69448" lon="1.1737">
        <ele>223</ele>
        <time>2012-07-15T11:08:47Z</time>
      </trkpt>
      <trkpt lat="44.69457" lon="1.17353">
        <ele>224</ele>
        <time>2012-07-15T11:08:55Z</time>
      </trkpt>
      <trkpt lat="44.6945" lon="1.17333">
        <ele>224</ele>
        <time>2012-07-15T11:09:04Z</time>
      </trkpt>
      <trkpt lat="44.69417" lon="1.17305">
        <ele>224</ele>
        <time>2012-07-15T11:09:11Z</time>
      </trkpt>
      <trkpt lat="44.69408" lon="1.17317">
        <ele>224</ele>
        <time>2012-07-15T11:09:19Z</time>
      </trkpt>
      <trkpt lat="44.69418" lon="1.17344">
        <ele>227</ele>
        <time>2012-07-15T11:09:27Z</time>
      </trkpt>
      <trkpt lat="44.69418" lon="1.17375">
        <ele>229</ele>
        <time>2012-07-15T11:09:36Z</time>
      </trkpt>
      <trkpt lat="44.69397" lon="1.17395">
        <ele>231</ele>
        <time>2012-07-15T11:09:44Z</time>
      </trkpt>
      <trkpt lat="44.69374" lon="1.17423">
        <ele>234</ele>
        <time>2012-07-15T11:09:53Z</time>
      </trkpt>
      <trkpt lat="44.69395" lon="1.17431">
        <ele>235</ele>
        <time>2012-07-15T11:10:02Z</time>
      </trkpt>
      <trkpt lat="44.6941" lon="1.17425">
        <ele>235</ele>
        <time>2012-07-15T11:10:11Z</time>
      </trkpt>
      <trkpt lat="44.69428" lon="1.17445">
        <ele>231</ele>
        <time>2012-07-15T11:10:19Z</time>
      </trkpt>
      <trkpt lat="44.69437" lon="1.17484">
        <ele>225</ele>
        <time>2012-07-15T11:10:26Z</time>
      </trkpt>
      <trkpt lat="44.69448" lon="1.1753">
        <ele>221</ele>
        <time>2012-07-15T11:10:32Z</time>
      </trkpt>
      <trkpt lat="44.69467" lon="1.17561">
        <ele>221</ele>
        <time>2012-07-15T11:10:40Z</time>
      </trkpt>
      <trkpt lat="44.69488" lon="1.1758">
        <ele>221</ele>
        <time>2012-07-15T11:10:46Z</time>
      </trkpt>
      <trkpt lat="44.69496" lon="1.17611">
        <ele>221</ele>
        <time>2012-07-15T11:10:53Z</time>
      </trkpt>
      <trkpt lat="44.69493" lon="1.17642">
        <ele>221</ele>
        <time>2012-07-15T11:10:59Z</time>
      </trkpt>
      <trkpt lat="44.69482" lon="1.1768">
        <ele>223</ele>
        <time>2012-07-15T11:11:05Z</time>
      </trkpt>
      <trkpt lat="44.69477" lon="1.17705">
        <ele>225</ele>
        <time>2012-07-15T11:11:11Z</time>
      </trkpt>
      <trkpt lat="44.69471" lon="1.17727">
        <ele>227</ele>
        <time>2012-07-15T11:11:17Z</time>
      </trkpt>
      <trkpt lat="44.69468" lon="1.17742">
        <ele>230</ele>
        <time>2012-07-15T11:11:23Z</time>
      </trkpt>
      <trkpt lat="44.69463" lon="1.17761">
        <ele>233</ele>
        <time>2012-07-15T11:11:29Z</time>
      </trkpt>
      <trkpt lat="44.6946" lon="1.1778">
        <ele>236</ele>
        <time>2012-07-15T11:11:35Z</time>
      </trkpt>
      <trkpt lat="44.69458" lon="1.17798">
        <ele>239</ele>
        <time>2012-07-15T11:11:41Z</time>
      </trkpt>
      <trkpt lat="44.69453" lon="1.17816">
        <ele>239</ele>
        <time>2012-07-15T11:11:48Z</time>
      </trkpt>
      <trkpt lat="44.6945" lon="1.17834">
        <ele>242</ele>
        <time>2012-07-15T11:11:54Z</time>
      </trkpt>
      <trkpt lat="44.69445" lon="1.1785">
        <ele>245</ele>
        <time>2012-07-15T11:12:01Z</time>
      </trkpt>
      <trkpt lat="44.69442" lon="1.17865">
        <ele>245</ele>
        <time>2012-07-15T11:12:09Z</time>
      </trkpt>
      <trkpt lat="44.69436" lon="1.17881">
        <ele>245</ele>
        <time>2012-07-15T11:12:16Z</time>
      </trkpt>
      <trkpt lat="44.69422" lon="1.17899">
        <ele>245</ele>
        <time>2012-07-15T11:12:24Z</time>
      </trkpt>
      <trkpt lat="44.69417" lon="1.17913">
        <ele>245</ele>
        <time>2012-07-15T11:12:31Z</time>
      </trkpt>
      <trkpt lat="44.69413" lon="1.1792">
        <ele>245</ele>
        <time>2012-07-15T11:12:38Z</time>
      </trkpt>
      <trkpt lat="44.69402" lon="1.17931">
        <ele>247</ele>
        <time>2012-07-15T11:12:44Z</time>
      </trkpt>
      <trkpt lat="44.69401" lon="1.17953">
        <ele>252</ele>
        <time>2012-07-15T11:12:52Z</time>
      </trkpt>
      <trkpt lat="44.69392" lon="1.1797">
        <ele>257</ele>
        <time>2012-07-15T11:13:00Z</time>
      </trkpt>
      <trkpt lat="44.69384" lon="1.17984">
        <ele>261</ele>
        <time>2012-07-15T11:13:06Z</time>
      </trkpt>
      <trkpt lat="44.69382" lon="1.17998">
        <ele>264</ele>
        <time>2012-07-15T11:13:12Z</time>
      </trkpt>
      <trkpt lat="44.6938" lon="1.18011">
        <ele>265</ele>
        <time>2012-07-15T11:13:19Z</time>
      </trkpt>
      <trkpt lat="44.69376" lon="1.18024">
        <ele>265</ele>
        <time>2012-07-15T11:13:25Z</time>
      </trkpt>
      <trkpt lat="44.69373" lon="1.18036">
        <ele>265</ele>
        <time>2012-07-15T11:13:31Z</time>
      </trkpt>
      <trkpt lat="44.6937" lon="1.18051">
        <ele>265</ele>
        <time>2012-07-15T11:13:37Z</time>
      </trkpt>
      <trkpt lat="44.69364" lon="1.18066">
        <ele>265</ele>
        <time>2012-07-15T11:13:45Z</time>
      </trkpt>
      <trkpt lat="44.6936" lon="1.1808">
        <ele>265</ele>
        <time>2012-07-15T11:13:50Z</time>
      </trkpt>
      <trkpt lat="44.69357" lon="1.18093">
        <ele>265</ele>
        <time>2012-07-15T11:13:56Z</time>
      </trkpt>
      <trkpt lat="44.69351" lon="1.18115">
        <ele>265</ele>
        <time>2012-07-15T11:14:03Z</time>
      </trkpt>
      <trkpt lat="44.69348" lon="1.18124">
        <ele>267</ele>
        <time>2012-07-15T11:14:09Z</time>
      </trkpt>
      <trkpt lat="44.69344" lon="1.18137">
        <ele>269</ele>
        <time>2012-07-15T11:14:15Z</time>
      </trkpt>
      <trkpt lat="44.69339" lon="1.18152">
        <ele>269</ele>
        <time>2012-07-15T11:14:21Z</time>
      </trkpt>
      <trkpt lat="44.69334" lon="1.18165">
        <ele>269</ele>
        <time>2012-07-15T11:14:28Z</time>
      </trkpt>
      <trkpt lat="44.69331" lon="1.18179">
        <ele>269</ele>
        <time>2012-07-15T11:14:34Z</time>
      </trkpt>
      <trkpt lat="44.69327" lon="1.18194">
        <ele>270</ele>
        <time>2012-07-15T11:14:40Z</time>
      </trkpt>
      <trkpt lat="44.69317" lon="1.18216">
        <ele>273</ele>
        <time>2012-07-15T11:14:46Z</time>
      </trkpt>
      <trkpt lat="44.69312" lon="1.18223">
        <ele>275</ele>
        <time>2012-07-15T11:14:53Z</time>
      </trkpt>
      <trkpt lat="44.69299" lon="1.18235">
        <ele>275</ele>
        <time>2012-07-15T11:15:00Z</time>
      </trkpt>
      <trkpt lat="44.69292" lon="1.18246">
        <ele>275</ele>
        <time>2012-07-15T11:15:06Z</time>
      </trkpt>
      <trkpt lat="44.69284" lon="1.18257">
        <ele>276</ele>
        <time>2012-07-15T11:15:13Z</time>
      </trkpt>
      <trkpt lat="44.69278" lon="1.18265">
        <ele>278</ele>
        <time>2012-07-15T11:15:19Z</time>
      </trkpt>
      <trkpt lat="44.6927" lon="1.18278">
        <ele>281</ele>
        <time>2012-07-15T11:15:25Z</time>
      </trkpt>
      <trkpt lat="44.69263" lon="1.18296">
        <ele>286</ele>
        <time>2012-07-15T11:15:32Z</time>
      </trkpt>
      <trkpt lat="44.69255" lon="1.18312">
        <ele>290</ele>
        <time>2012-07-15T11:15:38Z</time>
      </trkpt>
      <trkpt lat="44.69246" lon="1.18325">
        <ele>293</ele>
        <time>2012-07-15T11:15:44Z</time>
      </trkpt>
      <trkpt lat="44.69231" lon="1.18334">
        <ele>296</ele>
        <time>2012-07-15T11:15:50Z</time>
      </trkpt>
      <trkpt lat="44.6922" lon="1.18337">
        <ele>296</ele>
        <time>2012-07-15T11:15:56Z</time>
      </trkpt>
      <trkpt lat="44.69212" lon="1.1834">
        <ele>297</ele>
        <time>2012-07-15T11:16:03Z</time>
      </trkpt>
      <trkpt lat="44.69198" lon="1.18343">
        <ele>300</ele>
        <time>2012-07-15T11:16:09Z</time>
      </trkpt>
      <trkpt lat="44.69183" lon="1.18347">
        <ele>300</ele>
        <time>2012-07-15T11:16:15Z</time>
      </trkpt>
      <trkpt lat="44.69168" lon="1.18344">
        <ele>300</ele>
        <time>2012-07-15T11:16:23Z</time>
      </trkpt>
      <trkpt lat="44.69152" lon="1.18343">
        <ele>300</ele>
        <time>2012-07-15T11:16:31Z</time>
      </trkpt>
      <trkpt lat="44.69141" lon="1.18342">
        <ele>300</ele>
        <time>2012-07-15T11:16:37Z</time>
      </trkpt>
      <trkpt lat="44.69137" lon="1.18341">
        <ele>300</ele>
        <time>2012-07-15T11:16:43Z</time>
      </trkpt>
      <trkpt lat="44.69125" lon="1.18338">
        <ele>300</ele>
        <time>2012-07-15T11:16:49Z</time>
      </trkpt>
      <trkpt lat="44.69114" lon="1.18336">
        <ele>300</ele>
        <time>2012-07-15T11:16:55Z</time>
      </trkpt>
      <trkpt lat="44.69105" lon="1.18334">
        <ele>300</ele>
        <time>2012-07-15T11:17:02Z</time>
      </trkpt>
      <trkpt lat="44.69093" lon="1.1833">
        <ele>300</ele>
        <time>2012-07-15T11:17:08Z</time>
      </trkpt>
      <trkpt lat="44.69085" lon="1.18328">
        <ele>300</ele>
        <time>2012-07-15T11:17:14Z</time>
      </trkpt>
      <trkpt lat="44.69075" lon="1.18325">
        <ele>300</ele>
        <time>2012-07-15T11:17:21Z</time>
      </trkpt>
      <trkpt lat="44.69065" lon="1.18321">
        <ele>300</ele>
        <time>2012-07-15T11:17:27Z</time>
      </trkpt>
      <trkpt lat="44.69057" lon="1.18314">
        <ele>300</ele>
        <time>2012-07-15T11:17:33Z</time>
      </trkpt>
      <trkpt lat="44.69047" lon="1.18306">
        <ele>300</ele>
        <time>2012-07-15T11:17:40Z</time>
      </trkpt>
      <trkpt lat="44.69037" lon="1.18296">
        <ele>302</ele>
        <time>2012-07-15T11:17:48Z</time>
      </trkpt>
      <trkpt lat="44.69029" lon="1.18288">
        <ele>303</ele>
        <time>2012-07-15T11:17:54Z</time>
      </trkpt>
      <trkpt lat="44.69027" lon="1.18288">
        <ele>307</ele>
        <time>2012-07-15T11:18:02Z</time>
      </trkpt>
      <trkpt lat="44.69025" lon="1.18286">
        <ele>310</ele>
        <time>2012-07-15T11:18:10Z</time>
      </trkpt>
      <trkpt lat="44.69019" lon="1.18281">
        <ele>310</ele>
        <time>2012-07-15T11:18:18Z</time>
      </trkpt>
      <trkpt lat="44.69007" lon="1.18272">
        <ele>310</ele>
        <time>2012-07-15T11:18:24Z</time>
      </trkpt>
      <trkpt lat="44.68993" lon="1.18259">
        <ele>310</ele>
        <time>2012-07-15T11:18:31Z</time>
      </trkpt>
      <trkpt lat="44.68986" lon="1.18253">
        <ele>310</ele>
        <time>2012-07-15T11:18:36Z</time>
      </trkpt>
      <trkpt lat="44.68973" lon="1.18241">
        <ele>310</ele>
        <time>2012-07-15T11:18:42Z</time>
      </trkpt>
      <trkpt lat="44.68958" lon="1.18233">
        <ele>310</ele>
        <time>2012-07-15T11:18:49Z</time>
      </trkpt>
      <trkpt lat="44.68933" lon="1.18219">
        <ele>310</ele>
        <time>2012-07-15T11:18:55Z</time>
      </trkpt>
      <trkpt lat="44.68924" lon="1.18216">
        <ele>310</ele>
        <time>2012-07-15T11:19:01Z</time>
      </trkpt>
      <trkpt lat="44.68904" lon="1.18208">
        <ele>310</ele>
        <time>2012-07-15T11:19:07Z</time>
      </trkpt>
      <trkpt lat="44.68887" lon="1.18203">
        <ele>310</ele>
        <time>2012-07-15T11:19:14Z</time>
      </trkpt>
      <trkpt lat="44.68863" lon="1.18212">
        <ele>312</ele>
        <time>2012-07-15T11:19:21Z</time>
      </trkpt>
      <trkpt lat="44.68838" lon="1.18219">
        <ele>315</ele>
        <time>2012-07-15T11:19:27Z</time>
      </trkpt>
      <trkpt lat="44.68819" lon="1.18221">
        <ele>319</ele>
        <time>2012-07-15T11:19:33Z</time>
      </trkpt>
      <trkpt lat="44.68802" lon="1.18234">
        <ele>322</ele>
        <time>2012-07-15T11:19:40Z</time>
      </trkpt>
      <trkpt lat="44.68784" lon="1.18245">
        <ele>322</ele>
        <time>2012-07-15T11:19:47Z</time>
      </trkpt>
      <trkpt lat="44.6876" lon="1.1826">
        <ele>322</ele>
        <time>2012-07-15T11:19:53Z</time>
      </trkpt>
      <trkpt lat="44.68755" lon="1.18263">
        <ele>322</ele>
        <time>2012-07-15T11:19:59Z</time>
      </trkpt>
      <trkpt lat="44.68744" lon="1.18265">
        <ele>322</ele>
        <time>2012-07-15T11:20:05Z</time>
      </trkpt>
      <trkpt lat="44.68733" lon="1.18269">
        <ele>322</ele>
        <time>2012-07-15T11:20:12Z</time>
      </trkpt>
      <trkpt lat="44.68721" lon="1.18272">
        <ele>323</ele>
        <time>2012-07-15T11:20:18Z</time>
      </trkpt>
      <trkpt lat="44.68705" lon="1.18277">
        <ele>325</ele>
        <time>2012-07-15T11:20:24Z</time>
      </trkpt>
      <trkpt lat="44.68698" lon="1.18282">
        <ele>325</ele>
        <time>2012-07-15T11:20:30Z</time>
      </trkpt>
      <trkpt lat="44.68687" lon="1.18288">
        <ele>325</ele>
        <time>2012-07-15T11:20:37Z</time>
      </trkpt>
      <trkpt lat="44.68672" lon="1.18302">
        <ele>325</ele>
        <time>2012-07-15T11:20:43Z</time>
      </trkpt>
      <trkpt lat="44.68666" lon="1.18308">
        <ele>325</ele>
        <time>2012-07-15T11:20:49Z</time>
      </trkpt>
      <trkpt lat="44.68644" lon="1.18321">
        <ele>325</ele>
        <time>2012-07-15T11:20:55Z</time>
      </trkpt>
      <trkpt lat="44.68626" lon="1.18328">
        <ele>325</ele>
        <time>2012-07-15T11:21:02Z</time>
      </trkpt>
      <trkpt lat="44.68603" lon="1.18332">
        <ele>325</ele>
        <time>2012-07-15T11:21:08Z</time>
      </trkpt>
      <trkpt lat="44.68592" lon="1.18331">
        <ele>327</ele>
        <time>2012-07-15T11:21:14Z</time>
      </trkpt>
      <trkpt lat="44.68575" lon="1.18324">
        <ele>330</ele>
        <time>2012-07-15T11:21:21Z</time>
      </trkpt>
      <trkpt lat="44.68548" lon="1.18313">
        <ele>333</ele>
        <time>2012-07-15T11:21:27Z</time>
      </trkpt>
      <trkpt lat="44.68539" lon="1.18307">
        <ele>334</ele>
        <time>2012-07-15T11:21:33Z</time>
      </trkpt>
      <trkpt lat="44.6852" lon="1.18292">
        <ele>334</ele>
        <time>2012-07-15T11:21:39Z</time>
      </trkpt>
      <trkpt lat="44.68493" lon="1.18268">
        <ele>333</ele>
        <time>2012-07-15T11:21:46Z</time>
      </trkpt>
      <trkpt lat="44.68456" lon="1.18229">
        <ele>330</ele>
        <time>2012-07-15T11:21:52Z</time>
      </trkpt>
      <trkpt lat="44.68451" lon="1.18222">
        <ele>328</ele>
        <time>2012-07-15T11:21:58Z</time>
      </trkpt>
      <trkpt lat="44.68425" lon="1.18206">
        <ele>324</ele>
        <time>2012-07-15T11:22:05Z</time>
      </trkpt>
      <trkpt lat="44.68381" lon="1.18219">
        <ele>322</ele>
        <time>2012-07-15T11:22:13Z</time>
      </trkpt>
      <trkpt lat="44.68337" lon="1.18226">
        <ele>322</ele>
        <time>2012-07-15T11:22:19Z</time>
      </trkpt>
      <trkpt lat="44.68325" lon="1.18235">
        <ele>322</ele>
        <time>2012-07-15T11:22:28Z</time>
      </trkpt>
      <trkpt lat="44.6832" lon="1.18259">
        <ele>322</ele>
        <time>2012-07-15T11:22:35Z</time>
      </trkpt>
      <trkpt lat="44.6831" lon="1.18281">
        <ele>323</ele>
        <time>2012-07-15T11:22:42Z</time>
      </trkpt>
      <trkpt lat="44.68304" lon="1.18305">
        <ele>325</ele>
        <time>2012-07-15T11:22:49Z</time>
      </trkpt>
      <trkpt lat="44.68296" lon="1.18327">
        <ele>326</ele>
        <time>2012-07-15T11:22:55Z</time>
      </trkpt>
      <trkpt lat="44.68289" lon="1.18353">
        <ele>329</ele>
        <time>2012-07-15T11:23:02Z</time>
      </trkpt>
      <trkpt lat="44.68283" lon="1.18389">
        <ele>332</ele>
        <time>2012-07-15T11:23:08Z</time>
      </trkpt>
      <trkpt lat="44.68283" lon="1.18402">
        <ele>334</ele>
        <time>2012-07-15T11:23:14Z</time>
      </trkpt>
      <trkpt lat="44.68284" lon="1.18428">
        <ele>337</ele>
        <time>2012-07-15T11:23:20Z</time>
      </trkpt>
      <trkpt lat="44.68288" lon="1.18466">
        <ele>337</ele>
        <time>2012-07-15T11:23:27Z</time>
      </trkpt>
      <trkpt lat="44.68289" lon="1.1848">
        <ele>337</ele>
        <time>2012-07-15T11:23:33Z</time>
      </trkpt>
      <trkpt lat="44.68293" lon="1.1851">
        <ele>337</ele>
        <time>2012-07-15T11:23:39Z</time>
      </trkpt>
      <trkpt lat="44.68295" lon="1.18545">
        <ele>337</ele>
        <time>2012-07-15T11:23:46Z</time>
      </trkpt>
      <trkpt lat="44.68287" lon="1.18604">
        <ele>338</ele>
        <time>2012-07-15T11:23:52Z</time>
      </trkpt>
      <trkpt lat="44.68288" lon="1.18685">
        <ele>338</ele>
        <time>2012-07-15T11:23:59Z</time>
      </trkpt>
      <trkpt lat="44.68288" lon="1.18706">
        <ele>338</ele>
        <time>2012-07-15T11:24:05Z</time>
      </trkpt>
      <trkpt lat="44.68277" lon="1.1876">
        <ele>338</ele>
        <time>2012-07-15T11:24:13Z</time>
      </trkpt>
      <trkpt lat="44.68269" lon="1.18799">
        <ele>338</ele>
        <time>2012-07-15T11:24:19Z</time>
      </trkpt>
      <trkpt lat="44.68255" lon="1.18834">
        <ele>342</ele>
        <time>2012-07-15T11:24:27Z</time>
      </trkpt>
      <trkpt lat="44.68236" lon="1.18871">
        <ele>344</ele>
        <time>2012-07-15T11:24:34Z</time>
      </trkpt>
      <trkpt lat="44.6822" lon="1.18913">
        <ele>345</ele>
        <time>2012-07-15T11:24:40Z</time>
      </trkpt>
      <trkpt lat="44.68204" lon="1.18962">
        <ele>345</ele>
        <time>2012-07-15T11:24:46Z</time>
      </trkpt>
      <trkpt lat="44.68203" lon="1.19011">
        <ele>343</ele>
        <time>2012-07-15T11:24:54Z</time>
      </trkpt>
      <trkpt lat="44.68214" lon="1.19063">
        <ele>340</ele>
        <time>2012-07-15T11:25:00Z</time>
      </trkpt>
      <trkpt lat="44.68217" lon="1.19078">
        <ele>338</ele>
        <time>2012-07-15T11:25:06Z</time>
      </trkpt>
      <trkpt lat="44.68224" lon="1.19114">
        <ele>333</ele>
        <time>2012-07-15T11:25:13Z</time>
      </trkpt>
      <trkpt lat="44.68229" lon="1.19194">
        <ele>326</ele>
        <time>2012-07-15T11:25:20Z</time>
      </trkpt>
      <trkpt lat="44.68236" lon="1.1923">
        <ele>322</ele>
        <time>2012-07-15T11:25:27Z</time>
      </trkpt>
      <trkpt lat="44.6824" lon="1.19296">
        <ele>318</ele>
        <time>2012-07-15T11:25:33Z</time>
      </trkpt>
      <trkpt lat="44.68245" lon="1.1938">
        <ele>315</ele>
        <time>2012-07-15T11:25:40Z</time>
      </trkpt>
      <trkpt lat="44.68268" lon="1.19439">
        <ele>311</ele>
        <time>2012-07-15T11:25:47Z</time>
      </trkpt>
      <trkpt lat="44.68286" lon="1.19492">
        <ele>307</ele>
        <time>2012-07-15T11:25:54Z</time>
      </trkpt>
      <trkpt lat="44.68296" lon="1.19532">
        <ele>306</ele>
        <time>2012-07-15T11:26:00Z</time>
      </trkpt>
      <trkpt lat="44.68311" lon="1.19593">
        <ele>304</ele>
        <time>2012-07-15T11:26:07Z</time>
      </trkpt>
      <trkpt lat="44.68325" lon="1.1965">
        <ele>301</ele>
        <time>2012-07-15T11:26:13Z</time>
      </trkpt>
      <trkpt lat="44.68339" lon="1.19715">
        <ele>300</ele>
        <time>2012-07-15T11:26:20Z</time>
      </trkpt>
      <trkpt lat="44.6835" lon="1.1976">
        <ele>299</ele>
        <time>2012-07-15T11:26:26Z</time>
      </trkpt>
      <trkpt lat="44.68385" lon="1.19786">
        <ele>296</ele>
        <time>2012-07-15T11:26:34Z</time>
      </trkpt>
      <trkpt lat="44.6839" lon="1.19788">
        <ele>291</ele>
        <time>2012-07-15T11:26:43Z</time>
      </trkpt>
      <trkpt lat="44.68392" lon="1.19791">
        <ele>290</ele>
        <time>2012-07-15T11:26:50Z</time>
      </trkpt>
      <trkpt lat="44.68402" lon="1.19793">
        <ele>290</ele>
        <time>2012-07-15T11:26:56Z</time>
      </trkpt>
      <trkpt lat="44.68438" lon="1.19818">
        <ele>290</ele>
        <time>2012-07-15T11:27:05Z</time>
      </trkpt>
      <trkpt lat="44.68457" lon="1.19872">
        <ele>288</ele>
        <time>2012-07-15T11:27:12Z</time>
      </trkpt>
      <trkpt lat="44.68444" lon="1.19928">
        <ele>288</ele>
        <time>2012-07-15T11:27:20Z</time>
      </trkpt>
      <trkpt lat="44.68451" lon="1.19983">
        <ele>288</ele>
        <time>2012-07-15T11:27:27Z</time>
      </trkpt>
      <trkpt lat="44.68465" lon="1.20033">
        <ele>288</ele>
        <time>2012-07-15T11:27:33Z</time>
      </trkpt>
      <trkpt lat="44.68477" lon="1.20093">
        <ele>287</ele>
        <time>2012-07-15T11:27:40Z</time>
      </trkpt>
      <trkpt lat="44.68487" lon="1.20143">
        <ele>287</ele>
        <time>2012-07-15T11:27:46Z</time>
      </trkpt>
      <trkpt lat="44.68494" lon="1.20203">
        <ele>287</ele>
        <time>2012-07-15T11:27:53Z</time>
      </trkpt>
      <trkpt lat="44.68496" lon="1.20255">
        <ele>287</ele>
        <time>2012-07-15T11:27:59Z</time>
      </trkpt>
      <trkpt lat="44.68507" lon="1.20345">
        <ele>287</ele>
        <time>2012-07-15T11:28:06Z</time>
      </trkpt>
      <trkpt lat="44.6851" lon="1.20373">
        <ele>287</ele>
        <time>2012-07-15T11:28:12Z</time>
      </trkpt>
      <trkpt lat="44.68538" lon="1.20448">
        <ele>283</ele>
        <time>2012-07-15T11:28:20Z</time>
      </trkpt>
      <trkpt lat="44.68596" lon="1.20505">
        <ele>279</ele>
        <time>2012-07-15T11:28:28Z</time>
      </trkpt>
      <trkpt lat="44.68609" lon="1.20539">
        <ele>275</ele>
        <time>2012-07-15T11:28:36Z</time>
      </trkpt>
      <trkpt lat="44.68613" lon="1.20599">
        <ele>272</ele>
        <time>2012-07-15T11:28:43Z</time>
      </trkpt>
      <trkpt lat="44.68647" lon="1.2063">
        <ele>268</ele>
        <time>2012-07-15T11:28:51Z</time>
      </trkpt>
      <trkpt lat="44.68661" lon="1.20654">
        <ele>263</ele>
        <time>2012-07-15T11:29:01Z</time>
      </trkpt>
      <trkpt lat="44.68684" lon="1.2066">
        <ele>260</ele>
        <time>2012-07-15T11:29:08Z</time>
      </trkpt>
      <trkpt lat="44.68711" lon="1.20649">
        <ele>258</ele>
        <time>2012-07-15T11:29:14Z</time>
      </trkpt>
      <trkpt lat="44.68761" lon="1.20644">
        <ele>255</ele>
        <time>2012-07-15T11:29:22Z</time>
      </trkpt>
      <trkpt lat="44.68829" lon="1.20687">
        <ele>252</ele>
        <time>2012-07-15T11:29:29Z</time>
      </trkpt>
      <trkpt lat="44.68858" lon="1.20698">
        <ele>249</ele>
        <time>2012-07-15T11:29:36Z</time>
      </trkpt>
      <trkpt lat="44.689" lon="1.20706">
        <ele>247</ele>
        <time>2012-07-15T11:29:42Z</time>
      </trkpt>
      <trkpt lat="44.68944" lon="1.20711">
        <ele>247</ele>
        <time>2012-07-15T11:29:49Z</time>
      </trkpt>
      <trkpt lat="44.68972" lon="1.20716">
        <ele>247</ele>
        <time>2012-07-15T11:29:56Z</time>
      </trkpt>
      <trkpt lat="44.68986" lon="1.20712">
        <ele>247</ele>
        <time>2012-07-15T11:30:04Z</time>
      </trkpt>
      <trkpt lat="44.69009" lon="1.20705">
        <ele>247</ele>
        <time>2012-07-15T11:30:11Z</time>
      </trkpt>
      <trkpt lat="44.69054" lon="1.20701">
        <ele>247</ele>
        <time>2012-07-15T11:30:18Z</time>
      </trkpt>
      <trkpt lat="44.69122" lon="1.20685">
        <ele>247</ele>
        <time>2012-07-15T11:30:25Z</time>
      </trkpt>
      <trkpt lat="44.69168" lon="1.20654">
        <ele>246</ele>
        <time>2012-07-15T11:30:32Z</time>
      </trkpt>
      <trkpt lat="44.69194" lon="1.20645">
        <ele>243</ele>
        <time>2012-07-15T11:30:39Z</time>
      </trkpt>
      <trkpt lat="44.69255" lon="1.20623">
        <ele>240</ele>
        <time>2012-07-15T11:30:46Z</time>
      </trkpt>
      <trkpt lat="44.69276" lon="1.20614">
        <ele>238</ele>
        <time>2012-07-15T11:30:52Z</time>
      </trkpt>
      <trkpt lat="44.69321" lon="1.20586">
        <ele>234</ele>
        <time>2012-07-15T11:30:59Z</time>
      </trkpt>
      <trkpt lat="44.69397" lon="1.20562">
        <ele>230</ele>
        <time>2012-07-15T11:31:06Z</time>
      </trkpt>
      <trkpt lat="44.69415" lon="1.20572">
        <ele>227</ele>
        <time>2012-07-15T11:31:15Z</time>
      </trkpt>
      <trkpt lat="44.69431" lon="1.20583">
        <ele>225</ele>
        <time>2012-07-15T11:31:21Z</time>
      </trkpt>
      <trkpt lat="44.69442" lon="1.20588">
        <ele>225</ele>
        <time>2012-07-15T11:31:28Z</time>
      </trkpt>
      <trkpt lat="44.69453" lon="1.20593">
        <ele>229</ele>
        <time>2012-07-15T11:31:37Z</time>
      </trkpt>
      <trkpt lat="44.6947" lon="1.206">
        <ele>232</ele>
        <time>2012-07-15T11:31:44Z</time>
      </trkpt>
      <trkpt lat="44.69474" lon="1.20603">
        <ele>235</ele>
        <time>2012-07-15T11:31:51Z</time>
      </trkpt>
      <trkpt lat="44.69482" lon="1.20608">
        <ele>244</ele>
        <time>2012-07-15T11:32:00Z</time>
      </trkpt>
      <trkpt lat="44.69482" lon="1.20597">
        <ele>247</ele>
        <time>2012-07-15T11:32:08Z</time>
      </trkpt>
      <trkpt lat="44.69479" lon="1.20599">
        <ele>250</ele>
        <time>2012-07-15T11:32:16Z</time>
      </trkpt>
      <trkpt lat="44.69481" lon="1.20598">
        <ele>258</ele>
        <time>2012-07-15T11:32:42Z</time>
      </trkpt>
      <trkpt lat="44.69483" lon="1.20597">
        <ele>258</ele>
        <time>2012-07-15T11:32:50Z</time>
      </trkpt>
      <trkpt lat="44.69486" lon="1.20598">
        <ele>258</ele>
        <time>2012-07-15T11:32:59Z</time>
      </trkpt>
      <trkpt lat="44.69486" lon="1.20599">
        <ele>258</ele>
        <time>2012-07-15T11:33:18Z</time>
      </trkpt>
      <trkpt lat="44.69485" lon="1.20601">
        <ele>263</ele>
        <time>2012-07-15T11:33:36Z</time>
      </trkpt>
      <trkpt lat="44.69487" lon="1.206">
        <ele>263</ele>
        <time>2012-07-15T11:33:55Z</time>
      </trkpt>
      <trkpt lat="44.69489" lon="1.20599">
        <ele>263</ele>
        <time>2012-07-15T11:34:02Z</time>
      </trkpt>
      <trkpt lat="44.69492" lon="1.20595">
        <ele>261</ele>
        <time>2012-07-15T11:34:19Z</time>
      </trkpt>
      <trkpt lat="44.69491" lon="1.20596">
        <ele>261</ele>
        <time>2012-07-15T11:34:29Z</time>
      </trkpt>
      <trkpt lat="44.6949" lon="1.20595">
        <ele>261</ele>
        <time>2012-07-15T11:34:45Z</time>
      </trkpt>
      <trkpt lat="44.69491" lon="1.20597">
        <ele>261</ele>
        <time>2012-07-15T11:35:02Z</time>
      </trkpt>
      <trkpt lat="44.6949" lon="1.20599">
        <ele>266</ele>
        <time>2012-07-15T11:35:13Z</time>
      </trkpt>
      <trkpt lat="44.69489" lon="1.20601">
        <ele>273</ele>
        <time>2012-07-15T11:35:30Z</time>
      </trkpt>
      <trkpt lat="44.69492" lon="1.20596">
        <ele>278</ele>
        <time>2012-07-15T11:35:39Z</time>
      </trkpt>
      <trkpt lat="44.6949" lon="1.20594">
        <ele>280</ele>
        <time>2012-07-15T11:35:58Z</time>
      </trkpt>
      <trkpt lat="44.69481" lon="1.20577">
        <ele>278</ele>
        <time>2012-07-15T11:36:05Z</time>
      </trkpt>
      <trkpt lat="44.69472" lon="1.20552">
        <ele>275</ele>
        <time>2012-07-15T11:36:12Z</time>
      </trkpt>
      <trkpt lat="44.69467" lon="1.2053">
        <ele>269</ele>
        <time>2012-07-15T11:36:20Z</time>
      </trkpt>
      <trkpt lat="44.69462" lon="1.20487">
        <ele>264</ele>
        <time>2012-07-15T11:36:27Z</time>
      </trkpt>
      <trkpt lat="44.69462" lon="1.20462">
        <ele>258</ele>
        <time>2012-07-15T11:36:34Z</time>
      </trkpt>
      <trkpt lat="44.69463" lon="1.20453">
        <ele>256</ele>
        <time>2012-07-15T11:36:41Z</time>
      </trkpt>
      <trkpt lat="44.6946" lon="1.20424">
        <ele>252</ele>
        <time>2012-07-15T11:36:49Z</time>
      </trkpt>
      <trkpt lat="44.69457" lon="1.20401">
        <ele>250</ele>
        <time>2012-07-15T11:36:55Z</time>
      </trkpt>
      <trkpt lat="44.69453" lon="1.20371">
        <ele>249</ele>
        <time>2012-07-15T11:37:02Z</time>
      </trkpt>
      <trkpt lat="44.69439" lon="1.20319">
        <ele>249</ele>
        <time>2012-07-15T11:37:10Z</time>
      </trkpt>
      <trkpt lat="44.69437" lon="1.20304">
        <ele>249</ele>
        <time>2012-07-15T11:37:17Z</time>
      </trkpt>
      <trkpt lat="44.69433" lon="1.20266">
        <ele>250</ele>
        <time>2012-07-15T11:37:25Z</time>
      </trkpt>
      <trkpt lat="44.69426" lon="1.20221">
        <ele>255</ele>
        <time>2012-07-15T11:37:35Z</time>
      </trkpt>
      <trkpt lat="44.69426" lon="1.20205">
        <ele>256</ele>
        <time>2012-07-15T11:37:40Z</time>
      </trkpt>
      <trkpt lat="44.69426" lon="1.20192">
        <ele>259</ele>
        <time>2012-07-15T11:37:45Z</time>
      </trkpt>
      <trkpt lat="44.69424" lon="1.20165">
        <ele>261</ele>
        <time>2012-07-15T11:37:52Z</time>
      </trkpt>
      <trkpt lat="44.69427" lon="1.20141">
        <ele>263</ele>
        <time>2012-07-15T11:37:58Z</time>
      </trkpt>
      <trkpt lat="44.69436" lon="1.20119">
        <ele>264</ele>
        <time>2012-07-15T11:38:03Z</time>
      </trkpt>
      <trkpt lat="44.69438" lon="1.20107">
        <ele>266</ele>
        <time>2012-07-15T11:38:10Z</time>
      </trkpt>
      <trkpt lat="44.69447" lon="1.20077">
        <ele>266</ele>
        <time>2012-07-15T11:38:16Z</time>
      </trkpt>
      <trkpt lat="44.69462" lon="1.20036">
        <ele>266</ele>
        <time>2012-07-15T11:38:24Z</time>
      </trkpt>
      <trkpt lat="44.69489" lon="1.19982">
        <ele>266</ele>
        <time>2012-07-15T11:38:31Z</time>
      </trkpt>
      <trkpt lat="44.69498" lon="1.1996">
        <ele>265</ele>
        <time>2012-07-15T11:38:38Z</time>
      </trkpt>
      <trkpt lat="44.69517" lon="1.19923">
        <ele>264</ele>
        <time>2012-07-15T11:38:45Z</time>
      </trkpt>
      <trkpt lat="44.69525" lon="1.19907">
        <ele>264</ele>
        <time>2012-07-15T11:38:52Z</time>
      </trkpt>
      <trkpt lat="44.69537" lon="1.1988">
        <ele>264</ele>
        <time>2012-07-15T11:38:59Z</time>
      </trkpt>
      <trkpt lat="44.69543" lon="1.19837">
        <ele>264</ele>
        <time>2012-07-15T11:39:07Z</time>
      </trkpt>
      <trkpt lat="44.69546" lon="1.198">
        <ele>264</ele>
        <time>2012-07-15T11:39:14Z</time>
      </trkpt>
      <trkpt lat="44.69549" lon="1.19764">
        <ele>264</ele>
        <time>2012-07-15T11:39:21Z</time>
      </trkpt>
      <trkpt lat="44.69553" lon="1.19714">
        <ele>264</ele>
        <time>2012-07-15T11:39:28Z</time>
      </trkpt>
      <trkpt lat="44.69554" lon="1.19693">
        <ele>264</ele>
        <time>2012-07-15T11:39:35Z</time>
      </trkpt>
      <trkpt lat="44.69558" lon="1.1965">
        <ele>264</ele>
        <time>2012-07-15T11:39:42Z</time>
      </trkpt>
      <trkpt lat="44.69571" lon="1.19603">
        <ele>264</ele>
        <time>2012-07-15T11:39:49Z</time>
      </trkpt>
      <trkpt lat="44.69589" lon="1.19551">
        <ele>264</ele>
        <time>2012-07-15T11:39:56Z</time>
      </trkpt>
      <trkpt lat="44.69605" lon="1.19495">
        <ele>264</ele>
        <time>2012-07-15T11:40:03Z</time>
      </trkpt>
      <trkpt lat="44.69623" lon="1.19452">
        <ele>264</ele>
        <time>2012-07-15T11:40:10Z</time>
      </trkpt>
      <trkpt lat="44.69639" lon="1.19413">
        <ele>266</ele>
        <time>2012-07-15T11:40:17Z</time>
      </trkpt>
      <trkpt lat="44.69648" lon="1.19373">
        <ele>268</ele>
        <time>2012-07-15T11:40:24Z</time>
      </trkpt>
      <trkpt lat="44.69661" lon="1.19328">
        <ele>269</ele>
        <time>2012-07-15T11:40:31Z</time>
      </trkpt>
      <trkpt lat="44.69678" lon="1.19283">
        <ele>270</ele>
        <time>2012-07-15T11:40:38Z</time>
      </trkpt>
      <trkpt lat="44.69685" lon="1.19222">
        <ele>271</ele>
        <time>2012-07-15T11:40:46Z</time>
      </trkpt>
      <trkpt lat="44.6969" lon="1.19162">
        <ele>271</ele>
        <time>2012-07-15T11:40:53Z</time>
      </trkpt>
      <trkpt lat="44.69701" lon="1.19121">
        <ele>271</ele>
        <time>2012-07-15T11:41:00Z</time>
      </trkpt>
      <trkpt lat="44.69709" lon="1.19089">
        <ele>271</ele>
        <time>2012-07-15T11:41:07Z</time>
      </trkpt>
      <trkpt lat="44.69727" lon="1.1903">
        <ele>270</ele>
        <time>2012-07-15T11:41:14Z</time>
      </trkpt>
      <trkpt lat="44.69745" lon="1.18963">
        <ele>269</ele>
        <time>2012-07-15T11:41:21Z</time>
      </trkpt>
      <trkpt lat="44.69753" lon="1.18912">
        <ele>269</ele>
        <time>2012-07-15T11:41:28Z</time>
      </trkpt>
      <trkpt lat="44.6976" lon="1.18872">
        <ele>269</ele>
        <time>2012-07-15T11:41:35Z</time>
      </trkpt>
      <trkpt lat="44.69772" lon="1.18859">
        <ele>269</ele>
        <time>2012-07-15T11:41:43Z</time>
      </trkpt>
      <trkpt lat="44.69782" lon="1.18867">
        <ele>269</ele>
        <time>2012-07-15T11:41:52Z</time>
      </trkpt>
      <trkpt lat="44.69797" lon="1.18891">
        <ele>269</ele>
        <time>2012-07-15T11:41:59Z</time>
      </trkpt>
      <trkpt lat="44.69815" lon="1.18938">
        <ele>270</ele>
        <time>2012-07-15T11:42:08Z</time>
      </trkpt>
      <trkpt lat="44.69827" lon="1.18982">
        <ele>273</ele>
        <time>2012-07-15T11:42:15Z</time>
      </trkpt>
      <trkpt lat="44.69835" lon="1.19027">
        <ele>276</ele>
        <time>2012-07-15T11:42:22Z</time>
      </trkpt>
      <trkpt lat="44.69844" lon="1.19072">
        <ele>279</ele>
        <time>2012-07-15T11:42:29Z</time>
      </trkpt>
      <trkpt lat="44.69847" lon="1.1911">
        <ele>282</ele>
        <time>2012-07-15T11:42:36Z</time>
      </trkpt>
      <trkpt lat="44.69852" lon="1.19148">
        <ele>282</ele>
        <time>2012-07-15T11:42:45Z</time>
      </trkpt>
      <trkpt lat="44.69866" lon="1.19197">
        <ele>280</ele>
        <time>2012-07-15T11:42:52Z</time>
      </trkpt>
      <trkpt lat="44.69893" lon="1.19253">
        <ele>274</ele>
        <time>2012-07-15T11:42:59Z</time>
      </trkpt>
      <trkpt lat="44.69923" lon="1.19313">
        <ele>270</ele>
        <time>2012-07-15T11:43:06Z</time>
      </trkpt>
      <trkpt lat="44.69938" lon="1.1935">
        <ele>268</ele>
        <time>2012-07-15T11:43:13Z</time>
      </trkpt>
      <trkpt lat="44.69951" lon="1.19379">
        <ele>268</ele>
        <time>2012-07-15T11:43:20Z</time>
      </trkpt>
      <trkpt lat="44.69964" lon="1.19408">
        <ele>268</ele>
        <time>2012-07-15T11:43:27Z</time>
      </trkpt>
      <trkpt lat="44.69977" lon="1.19444">
        <ele>270</ele>
        <time>2012-07-15T11:43:34Z</time>
      </trkpt>
      <trkpt lat="44.69986" lon="1.19469">
        <ele>273</ele>
        <time>2012-07-15T11:43:41Z</time>
      </trkpt>
      <trkpt lat="44.70004" lon="1.19513">
        <ele>275</ele>
        <time>2012-07-15T11:43:48Z</time>
      </trkpt>
      <trkpt lat="44.70028" lon="1.19553">
        <ele>275</ele>
        <time>2012-07-15T11:43:55Z</time>
      </trkpt>
      <trkpt lat="44.70065" lon="1.19601">
        <ele>274</ele>
        <time>2012-07-15T11:44:02Z</time>
      </trkpt>
      <trkpt lat="44.70115" lon="1.1965">
        <ele>271</ele>
        <time>2012-07-15T11:44:09Z</time>
      </trkpt>
      <trkpt lat="44.70151" lon="1.19681">
        <ele>268</ele>
        <time>2012-07-15T11:44:16Z</time>
      </trkpt>
      <trkpt lat="44.70173" lon="1.19711">
        <ele>265</ele>
        <time>2012-07-15T11:44:24Z</time>
      </trkpt>
      <trkpt lat="44.70189" lon="1.1975">
        <ele>265</ele>
        <time>2012-07-15T11:44:31Z</time>
      </trkpt>
      <trkpt lat="44.702" lon="1.19821">
        <ele>267</ele>
        <time>2012-07-15T11:44:39Z</time>
      </trkpt>
      <trkpt lat="44.70197" lon="1.19841">
        <ele>270</ele>
        <time>2012-07-15T11:44:46Z</time>
      </trkpt>
      <trkpt lat="44.70188" lon="1.1987">
        <ele>273</ele>
        <time>2012-07-15T11:44:53Z</time>
      </trkpt>
      <trkpt lat="44.70186" lon="1.19906">
        <ele>274</ele>
        <time>2012-07-15T11:45:03Z</time>
      </trkpt>
      <trkpt lat="44.70194" lon="1.19925">
        <ele>274</ele>
        <time>2012-07-15T11:45:10Z</time>
      </trkpt>
      <trkpt lat="44.70203" lon="1.19941">
        <ele>275</ele>
        <time>2012-07-15T11:45:17Z</time>
      </trkpt>
      <trkpt lat="44.70211" lon="1.19961">
        <ele>277</ele>
        <time>2012-07-15T11:45:25Z</time>
      </trkpt>
      <trkpt lat="44.70229" lon="1.1999">
        <ele>280</ele>
        <time>2012-07-15T11:45:32Z</time>
      </trkpt>
      <trkpt lat="44.70234" lon="1.20002">
        <ele>282</ele>
        <time>2012-07-15T11:45:39Z</time>
      </trkpt>
      <trkpt lat="44.70248" lon="1.20019">
        <ele>283</ele>
        <time>2012-07-15T11:45:47Z</time>
      </trkpt>
      <trkpt lat="44.70264" lon="1.20034">
        <ele>283</ele>
        <time>2012-07-15T11:45:55Z</time>
      </trkpt>
      <trkpt lat="44.70282" lon="1.20049">
        <ele>283</ele>
        <time>2012-07-15T11:46:02Z</time>
      </trkpt>
      <trkpt lat="44.70309" lon="1.20052">
        <ele>285</ele>
        <time>2012-07-15T11:46:13Z</time>
      </trkpt>
      <trkpt lat="44.70334" lon="1.20041">
        <ele>288</ele>
        <time>2012-07-15T11:46:22Z</time>
      </trkpt>
      <trkpt lat="44.70355" lon="1.20069">
        <ele>288</ele>
        <time>2012-07-15T11:46:30Z</time>
      </trkpt>
      <trkpt lat="44.7037" lon="1.20094">
        <ele>290</ele>
        <time>2012-07-15T11:46:37Z</time>
      </trkpt>
      <trkpt lat="44.70394" lon="1.20057">
        <ele>292</ele>
        <time>2012-07-15T11:46:46Z</time>
      </trkpt>
      <trkpt lat="44.70402" lon="1.20042">
        <ele>292</ele>
        <time>2012-07-15T11:46:53Z</time>
      </trkpt>
      <trkpt lat="44.70462" lon="1.19944">
        <ele>291</ele>
        <time>2012-07-15T11:47:02Z</time>
      </trkpt>
      <trkpt lat="44.70483" lon="1.19898">
        <ele>286</ele>
        <time>2012-07-15T11:47:10Z</time>
      </trkpt>
      <trkpt lat="44.70528" lon="1.19768">
        <ele>278</ele>
        <time>2012-07-15T11:47:17Z</time>
      </trkpt>
      <trkpt lat="44.70541" lon="1.1973">
        <ele>270</ele>
        <time>2012-07-15T11:47:24Z</time>
      </trkpt>
      <trkpt lat="44.7056" lon="1.19654">
        <ele>264</ele>
        <time>2012-07-15T11:47:32Z</time>
      </trkpt>
      <trkpt lat="44.70591" lon="1.19608">
        <ele>261</ele>
        <time>2012-07-15T11:47:40Z</time>
      </trkpt>
      <trkpt lat="44.70617" lon="1.19514">
        <ele>258</ele>
        <time>2012-07-15T11:47:49Z</time>
      </trkpt>
      <trkpt lat="44.70649" lon="1.1944">
        <ele>257</ele>
        <time>2012-07-15T11:47:57Z</time>
      </trkpt>
      <trkpt lat="44.70681" lon="1.19382">
        <ele>255</ele>
        <time>2012-07-15T11:48:03Z</time>
      </trkpt>
      <trkpt lat="44.70704" lon="1.19338">
        <ele>254</ele>
        <time>2012-07-15T11:48:09Z</time>
      </trkpt>
      <trkpt lat="44.70728" lon="1.19298">
        <ele>252</ele>
        <time>2012-07-15T11:48:15Z</time>
      </trkpt>
      <trkpt lat="44.70755" lon="1.19267">
        <ele>251</ele>
        <time>2012-07-15T11:48:21Z</time>
      </trkpt>
      <trkpt lat="44.70781" lon="1.19238">
        <ele>251</ele>
        <time>2012-07-15T11:48:27Z</time>
      </trkpt>
      <trkpt lat="44.70804" lon="1.19209">
        <ele>251</ele>
        <time>2012-07-15T11:48:33Z</time>
      </trkpt>
      <trkpt lat="44.70817" lon="1.19191">
        <ele>251</ele>
        <time>2012-07-15T11:48:39Z</time>
      </trkpt>
      <trkpt lat="44.70845" lon="1.19162">
        <ele>251</ele>
        <time>2012-07-15T11:48:45Z</time>
      </trkpt>
      <trkpt lat="44.70859" lon="1.19138">
        <ele>251</ele>
        <time>2012-07-15T11:48:51Z</time>
      </trkpt>
      <trkpt lat="44.70864" lon="1.19118">
        <ele>251</ele>
        <time>2012-07-15T11:48:57Z</time>
      </trkpt>
      <trkpt lat="44.70869" lon="1.19086">
        <ele>251</ele>
        <time>2012-07-15T11:49:03Z</time>
      </trkpt>
      <trkpt lat="44.70876" lon="1.19056">
        <ele>251</ele>
        <time>2012-07-15T11:49:09Z</time>
      </trkpt>
      <trkpt lat="44.7089" lon="1.19028">
        <ele>251</ele>
        <time>2012-07-15T11:49:16Z</time>
      </trkpt>
      <trkpt lat="44.70887" lon="1.1899">
        <ele>254</ele>
        <time>2012-07-15T11:49:24Z</time>
      </trkpt>
      <trkpt lat="44.70877" lon="1.18948">
        <ele>254</ele>
        <time>2012-07-15T11:49:31Z</time>
      </trkpt>
      <trkpt lat="44.70871" lon="1.18909">
        <ele>254</ele>
        <time>2012-07-15T11:49:36Z</time>
      </trkpt>
      <trkpt lat="44.70867" lon="1.1886">
        <ele>254</ele>
        <time>2012-07-15T11:49:42Z</time>
      </trkpt>
      <trkpt lat="44.70871" lon="1.18816">
        <ele>254</ele>
        <time>2012-07-15T11:49:48Z</time>
      </trkpt>
      <trkpt lat="44.70893" lon="1.18786">
        <ele>254</ele>
        <time>2012-07-15T11:49:55Z</time>
      </trkpt>
      <trkpt lat="44.70906" lon="1.18746">
        <ele>254</ele>
        <time>2012-07-15T11:50:02Z</time>
      </trkpt>
      <trkpt lat="44.70913" lon="1.18712">
        <ele>254</ele>
        <time>2012-07-15T11:50:08Z</time>
      </trkpt>
      <trkpt lat="44.70916" lon="1.18666">
        <ele>254</ele>
        <time>2012-07-15T11:50:16Z</time>
      </trkpt>
      <trkpt lat="44.70922" lon="1.186">
        <ele>254</ele>
        <time>2012-07-15T11:50:22Z</time>
      </trkpt>
      <trkpt lat="44.70926" lon="1.1856">
        <ele>254</ele>
        <time>2012-07-15T11:50:30Z</time>
      </trkpt>
      <trkpt lat="44.70901" lon="1.18514">
        <ele>251</ele>
        <time>2012-07-15T11:50:36Z</time>
      </trkpt>
      <trkpt lat="44.70866" lon="1.1847">
        <ele>248</ele>
        <time>2012-07-15T11:50:42Z</time>
      </trkpt>
      <trkpt lat="44.70834" lon="1.18424">
        <ele>245</ele>
        <time>2012-07-15T11:50:48Z</time>
      </trkpt>
      <trkpt lat="44.70821" lon="1.18405">
        <ele>242</ele>
        <time>2012-07-15T11:50:54Z</time>
      </trkpt>
      <trkpt lat="44.70809" lon="1.18394">
        <ele>239</ele>
        <time>2012-07-15T11:51:01Z</time>
      </trkpt>
      <trkpt lat="44.70787" lon="1.18386">
        <ele>236</ele>
        <time>2012-07-15T11:51:07Z</time>
      </trkpt>
      <trkpt lat="44.70768" lon="1.18382">
        <ele>236</ele>
        <time>2012-07-15T11:51:13Z</time>
      </trkpt>
      <trkpt lat="44.70751" lon="1.18373">
        <ele>236</ele>
        <time>2012-07-15T11:51:19Z</time>
      </trkpt>
      <trkpt lat="44.70737" lon="1.18359">
        <ele>236</ele>
        <time>2012-07-15T11:51:25Z</time>
      </trkpt>
      <trkpt lat="44.70727" lon="1.18344">
        <ele>236</ele>
        <time>2012-07-15T11:51:31Z</time>
      </trkpt>
      <trkpt lat="44.70715" lon="1.18325">
        <ele>236</ele>
        <time>2012-07-15T11:51:37Z</time>
      </trkpt>
      <trkpt lat="44.70708" lon="1.18308">
        <ele>236</ele>
        <time>2012-07-15T11:51:44Z</time>
      </trkpt>
      <trkpt lat="44.70698" lon="1.18281">
        <ele>238</ele>
        <time>2012-07-15T11:51:50Z</time>
      </trkpt>
      <trkpt lat="44.70686" lon="1.18274">
        <ele>242</ele>
        <time>2012-07-15T11:51:57Z</time>
      </trkpt>
      <trkpt lat="44.7067" lon="1.18274">
        <ele>245</ele>
        <time>2012-07-15T11:52:04Z</time>
      </trkpt>
      <trkpt lat="44.70663" lon="1.18272">
        <ele>245</ele>
        <time>2012-07-15T11:52:11Z</time>
      </trkpt>
      <trkpt lat="44.70678" lon="1.18273">
        <ele>245</ele>
        <time>2012-07-15T11:52:18Z</time>
      </trkpt>
      <trkpt lat="44.70704" lon="1.18283">
        <ele>245</ele>
        <time>2012-07-15T11:52:24Z</time>
      </trkpt>
      <trkpt lat="44.70706" lon="1.18293">
        <ele>245</ele>
        <time>2012-07-15T11:52:29Z</time>
      </trkpt>
      <trkpt lat="44.70728" lon="1.18348">
        <ele>244</ele>
        <time>2012-07-15T11:52:36Z</time>
      </trkpt>
      <trkpt lat="44.70769" lon="1.18379">
        <ele>240</ele>
        <time>2012-07-15T11:52:44Z</time>
      </trkpt>
      <trkpt lat="44.7081" lon="1.18391">
        <ele>238</ele>
        <time>2012-07-15T11:52:50Z</time>
      </trkpt>
      <trkpt lat="44.70825" lon="1.18386">
        <ele>233</ele>
        <time>2012-07-15T11:52:58Z</time>
      </trkpt>
      <trkpt lat="44.70822" lon="1.18375">
        <ele>230</ele>
        <time>2012-07-15T11:53:04Z</time>
      </trkpt>
      <trkpt lat="44.70806" lon="1.1835">
        <ele>226</ele>
        <time>2012-07-15T11:53:11Z</time>
      </trkpt>
      <trkpt lat="44.70796" lon="1.18332">
        <ele>221</ele>
        <time>2012-07-15T11:53:17Z</time>
      </trkpt>
      <trkpt lat="44.70787" lon="1.18307">
        <ele>215</ele>
        <time>2012-07-15T11:53:23Z</time>
      </trkpt>
      <trkpt lat="44.70782" lon="1.18261">
        <ele>208</ele>
        <time>2012-07-15T11:53:30Z</time>
      </trkpt>
      <trkpt lat="44.70784" lon="1.18237">
        <ele>202</ele>
        <time>2012-07-15T11:53:36Z</time>
      </trkpt>
      <trkpt lat="44.708" lon="1.18184">
        <ele>194</ele>
        <time>2012-07-15T11:53:44Z</time>
      </trkpt>
      <trkpt lat="44.70817" lon="1.18148">
        <ele>189</ele>
        <time>2012-07-15T11:53:50Z</time>
      </trkpt>
      <trkpt lat="44.70856" lon="1.18134">
        <ele>185</ele>
        <time>2012-07-15T11:53:57Z</time>
      </trkpt>
      <trkpt lat="44.70878" lon="1.18125">
        <ele>182</ele>
        <time>2012-07-15T11:54:04Z</time>
      </trkpt>
      <trkpt lat="44.70911" lon="1.18123">
        <ele>177</ele>
        <time>2012-07-15T11:54:10Z</time>
      </trkpt>
      <trkpt lat="44.7092" lon="1.18122">
        <ele>169</ele>
        <time>2012-07-15T11:54:18Z</time>
      </trkpt>
      <trkpt lat="44.70938" lon="1.18116">
        <ele>163</ele>
        <time>2012-07-15T11:54:25Z</time>
      </trkpt>
      <trkpt lat="44.70949" lon="1.18105">
        <ele>160</ele>
        <time>2012-07-15T11:54:30Z</time>
      </trkpt>
      <trkpt lat="44.70961" lon="1.18094">
        <ele>157</ele>
        <time>2012-07-15T11:54:38Z</time>
      </trkpt>
      <trkpt lat="44.70972" lon="1.18086">
        <ele>157</ele>
        <time>2012-07-15T11:54:44Z</time>
      </trkpt>
      <trkpt lat="44.70986" lon="1.18083">
        <ele>157</ele>
        <time>2012-07-15T11:54:50Z</time>
      </trkpt>
      <trkpt lat="44.71013" lon="1.18078">
        <ele>155</ele>
        <time>2012-07-15T11:54:58Z</time>
      </trkpt>
      <trkpt lat="44.71041" lon="1.18074">
        <ele>155</ele>
        <time>2012-07-15T11:55:04Z</time>
      </trkpt>
      <trkpt lat="44.71069" lon="1.18064">
        <ele>155</ele>
        <time>2012-07-15T11:55:10Z</time>
      </trkpt>
      <trkpt lat="44.71095" lon="1.18047">
        <ele>155</ele>
        <time>2012-07-15T11:55:16Z</time>
      </trkpt>
      <trkpt lat="44.71119" lon="1.18026">
        <ele>155</ele>
        <time>2012-07-15T11:55:23Z</time>
      </trkpt>
      <trkpt lat="44.71153" lon="1.17999">
        <ele>155</ele>
        <time>2012-07-15T11:55:29Z</time>
      </trkpt>
      <trkpt lat="44.71179" lon="1.17973">
        <ele>153</ele>
        <time>2012-07-15T11:55:35Z</time>
      </trkpt>
      <trkpt lat="44.71232" lon="1.17958">
        <ele>153</ele>
        <time>2012-07-15T11:55:44Z</time>
      </trkpt>
      <trkpt lat="44.71246" lon="1.17957">
        <ele>153</ele>
        <time>2012-07-15T11:55:49Z</time>
      </trkpt>
      <trkpt lat="44.71278" lon="1.17965">
        <ele>153</ele>
        <time>2012-07-15T11:55:55Z</time>
      </trkpt>
      <trkpt lat="44.71297" lon="1.1797">
        <ele>153</ele>
        <time>2012-07-15T11:56:01Z</time>
      </trkpt>
      <trkpt lat="44.71331" lon="1.17983">
        <ele>153</ele>
        <time>2012-07-15T11:56:07Z</time>
      </trkpt>
      <trkpt lat="44.71344" lon="1.17992">
        <ele>153</ele>
        <time>2012-07-15T11:56:13Z</time>
      </trkpt>
      <trkpt lat="44.71383" lon="1.18022">
        <ele>153</ele>
        <time>2012-07-15T11:56:19Z</time>
      </trkpt>
      <trkpt lat="44.71436" lon="1.1803">
        <ele>153</ele>
        <time>2012-07-15T11:56:26Z</time>
      </trkpt>
      <trkpt lat="44.71481" lon="1.18011">
        <ele>153</ele>
        <time>2012-07-15T11:56:33Z</time>
      </trkpt>
      <trkpt lat="44.71543" lon="1.17983">
        <ele>150</ele>
        <time>2012-07-15T11:56:40Z</time>
      </trkpt>
      <trkpt lat="44.7156" lon="1.1797">
        <ele>147</ele>
        <time>2012-07-15T11:56:46Z</time>
      </trkpt>
      <trkpt lat="44.71585" lon="1.17945">
        <ele>144</ele>
        <time>2012-07-15T11:56:52Z</time>
      </trkpt>
      <trkpt lat="44.71593" lon="1.17922">
        <ele>141</ele>
        <time>2012-07-15T11:56:59Z</time>
      </trkpt>
      <trkpt lat="44.71586" lon="1.17905">
        <ele>141</ele>
        <time>2012-07-15T11:57:06Z</time>
      </trkpt>
      <trkpt lat="44.71574" lon="1.17886">
        <ele>142</ele>
        <time>2012-07-15T11:57:12Z</time>
      </trkpt>
      <trkpt lat="44.7155" lon="1.17859">
        <ele>143</ele>
        <time>2012-07-15T11:57:19Z</time>
      </trkpt>
      <trkpt lat="44.71544" lon="1.17852">
        <ele>145</ele>
        <time>2012-07-15T11:57:25Z</time>
      </trkpt>
      <trkpt lat="44.71532" lon="1.1784">
        <ele>149</ele>
        <time>2012-07-15T11:57:33Z</time>
      </trkpt>
      <trkpt lat="44.71519" lon="1.17832">
        <ele>152</ele>
        <time>2012-07-15T11:57:40Z</time>
      </trkpt>
      <trkpt lat="44.71506" lon="1.17824">
        <ele>155</ele>
        <time>2012-07-15T11:57:46Z</time>
      </trkpt>
      <trkpt lat="44.71495" lon="1.17818">
        <ele>156</ele>
        <time>2012-07-15T11:57:52Z</time>
      </trkpt>
      <trkpt lat="44.71485" lon="1.17813">
        <ele>157</ele>
        <time>2012-07-15T11:57:59Z</time>
      </trkpt>
      <trkpt lat="44.7147" lon="1.17808">
        <ele>158</ele>
        <time>2012-07-15T11:58:05Z</time>
      </trkpt>
      <trkpt lat="44.71463" lon="1.17806">
        <ele>159</ele>
        <time>2012-07-15T11:58:11Z</time>
      </trkpt>
      <trkpt lat="44.71454" lon="1.178">
        <ele>162</ele>
        <time>2012-07-15T11:58:18Z</time>
      </trkpt>
      <trkpt lat="44.71444" lon="1.17796">
        <ele>164</ele>
        <time>2012-07-15T11:58:24Z</time>
      </trkpt>
      <trkpt lat="44.71434" lon="1.17792">
        <ele>166</ele>
        <time>2012-07-15T11:58:31Z</time>
      </trkpt>
      <trkpt lat="44.71416" lon="1.17782">
        <ele>166</ele>
        <time>2012-07-15T11:58:37Z</time>
      </trkpt>
      <trkpt lat="44.71411" lon="1.17778">
        <ele>166</ele>
        <time>2012-07-15T11:58:43Z</time>
      </trkpt>
      <trkpt lat="44.71403" lon="1.1777">
        <ele>166</ele>
        <time>2012-07-15T11:58:49Z</time>
      </trkpt>
      <trkpt lat="44.71389" lon="1.17756">
        <ele>166</ele>
        <time>2012-07-15T11:58:56Z</time>
      </trkpt>
      <trkpt lat="44.71383" lon="1.17751">
        <ele>166</ele>
        <time>2012-07-15T11:59:02Z</time>
      </trkpt>
      <trkpt lat="44.71375" lon="1.17738">
        <ele>168</ele>
        <time>2012-07-15T11:59:08Z</time>
      </trkpt>
      <trkpt lat="44.71367" lon="1.17727">
        <ele>171</ele>
        <time>2012-07-15T11:59:14Z</time>
      </trkpt>
      <trkpt lat="44.71354" lon="1.17711">
        <ele>174</ele>
        <time>2012-07-15T11:59:21Z</time>
      </trkpt>
      <trkpt lat="44.7135" lon="1.17705">
        <ele>176</ele>
        <time>2012-07-15T11:59:27Z</time>
      </trkpt>
      <trkpt lat="44.71343" lon="1.17689">
        <ele>180</ele>
        <time>2012-07-15T11:59:34Z</time>
      </trkpt>
      <trkpt lat="44.71341" lon="1.17676">
        <ele>183</ele>
        <time>2012-07-15T11:59:40Z</time>
      </trkpt>
      <trkpt lat="44.71339" lon="1.17657">
        <ele>186</ele>
        <time>2012-07-15T11:59:47Z</time>
      </trkpt>
      <trkpt lat="44.71341" lon="1.1765">
        <ele>188</ele>
        <time>2012-07-15T11:59:53Z</time>
      </trkpt>
      <trkpt lat="44.71342" lon="1.17634">
        <ele>191</ele>
        <time>2012-07-15T11:59:59Z</time>
      </trkpt>
      <trkpt lat="44.71344" lon="1.17621">
        <ele>195</ele>
        <time>2012-07-15T12:00:07Z</time>
      </trkpt>
      <trkpt lat="44.71343" lon="1.17609">
        <ele>197</ele>
        <time>2012-07-15T12:00:12Z</time>
      </trkpt>
      <trkpt lat="44.71343" lon="1.17591">
        <ele>200</ele>
        <time>2012-07-15T12:00:19Z</time>
      </trkpt>
      <trkpt lat="44.71344" lon="1.17582">
        <ele>202</ele>
        <time>2012-07-15T12:00:25Z</time>
      </trkpt>
      <trkpt lat="44.71344" lon="1.17569">
        <ele>202</ele>
        <time>2012-07-15T12:00:31Z</time>
      </trkpt>
      <trkpt lat="44.71341" lon="1.17549">
        <ele>202</ele>
        <time>2012-07-15T12:00:38Z</time>
      </trkpt>
      <trkpt lat="44.71339" lon="1.17543">
        <ele>203</ele>
        <time>2012-07-15T12:00:44Z</time>
      </trkpt>
      <trkpt lat="44.71334" lon="1.17527">
        <ele>204</ele>
        <time>2012-07-15T12:00:50Z</time>
      </trkpt>
      <trkpt lat="44.71332" lon="1.17515">
        <ele>205</ele>
        <time>2012-07-15T12:00:56Z</time>
      </trkpt>
      <trkpt lat="44.71324" lon="1.17496">
        <ele>206</ele>
        <time>2012-07-15T12:01:03Z</time>
      </trkpt>
      <trkpt lat="44.71321" lon="1.17489">
        <ele>206</ele>
        <time>2012-07-15T12:01:09Z</time>
      </trkpt>
      <trkpt lat="44.71314" lon="1.17475">
        <ele>207</ele>
        <time>2012-07-15T12:01:15Z</time>
      </trkpt>
      <trkpt lat="44.71308" lon="1.17464">
        <ele>208</ele>
        <time>2012-07-15T12:01:21Z</time>
      </trkpt>
      <trkpt lat="44.71299" lon="1.17445">
        <ele>209</ele>
        <time>2012-07-15T12:01:28Z</time>
      </trkpt>
      <trkpt lat="44.71298" lon="1.17439">
        <ele>211</ele>
        <time>2012-07-15T12:01:34Z</time>
      </trkpt>
      <trkpt lat="44.71296" lon="1.17423">
        <ele>212</ele>
        <time>2012-07-15T12:01:40Z</time>
      </trkpt>
      <trkpt lat="44.71297" lon="1.17406">
        <ele>215</ele>
        <time>2012-07-15T12:01:48Z</time>
      </trkpt>
      <trkpt lat="44.71299" lon="1.17393">
        <ele>217</ele>
        <time>2012-07-15T12:01:54Z</time>
      </trkpt>
      <trkpt lat="44.71302" lon="1.17372">
        <ele>218</ele>
        <time>2012-07-15T12:02:01Z</time>
      </trkpt>
      <trkpt lat="44.71302" lon="1.17366">
        <ele>218</ele>
        <time>2012-07-15T12:02:07Z</time>
      </trkpt>
      <trkpt lat="44.71305" lon="1.17348">
        <ele>218</ele>
        <time>2012-07-15T12:02:13Z</time>
      </trkpt>
      <trkpt lat="44.71304" lon="1.17328">
        <ele>218</ele>
        <time>2012-07-15T12:02:19Z</time>
      </trkpt>
      <trkpt lat="44.71305" lon="1.17301">
        <ele>218</ele>
        <time>2012-07-15T12:02:26Z</time>
      </trkpt>
      <trkpt lat="44.71305" lon="1.17291">
        <ele>218</ele>
        <time>2012-07-15T12:02:32Z</time>
      </trkpt>
      <trkpt lat="44.71305" lon="1.1727">
        <ele>218</ele>
        <time>2012-07-15T12:02:38Z</time>
      </trkpt>
      <trkpt lat="44.71305" lon="1.17252">
        <ele>218</ele>
        <time>2012-07-15T12:02:44Z</time>
      </trkpt>
      <trkpt lat="44.71297" lon="1.17227">
        <ele>218</ele>
        <time>2012-07-15T12:02:51Z</time>
      </trkpt>
      <trkpt lat="44.71256" lon="1.17229">
        <ele>218</ele>
        <time>2012-07-15T12:03:00Z</time>
      </trkpt>
      <trkpt lat="44.71245" lon="1.17241">
        <ele>218</ele>
        <time>2012-07-15T12:03:07Z</time>
      </trkpt>
      <trkpt lat="44.7124" lon="1.17255">
        <ele>217</ele>
        <time>2012-07-15T12:03:15Z</time>
      </trkpt>
      <trkpt lat="44.71228" lon="1.17261">
        <ele>218</ele>
        <time>2012-07-15T12:03:22Z</time>
      </trkpt>
      <trkpt lat="44.7122" lon="1.17261">
        <ele>221</ele>
        <time>2012-07-15T12:03:29Z</time>
      </trkpt>
      <trkpt lat="44.71212" lon="1.17262">
        <ele>222</ele>
        <time>2012-07-15T12:03:35Z</time>
      </trkpt>
      <trkpt lat="44.71201" lon="1.17266">
        <ele>222</ele>
        <time>2012-07-15T12:03:43Z</time>
      </trkpt>
      <trkpt lat="44.71191" lon="1.17272">
        <ele>222</ele>
        <time>2012-07-15T12:03:49Z</time>
      </trkpt>
      <trkpt lat="44.71178" lon="1.17281">
        <ele>224</ele>
        <time>2012-07-15T12:03:56Z</time>
      </trkpt>
      <trkpt lat="44.71174" lon="1.17284">
        <ele>226</ele>
        <time>2012-07-15T12:04:02Z</time>
      </trkpt>
      <trkpt lat="44.71166" lon="1.1729">
        <ele>226</ele>
        <time>2012-07-15T12:04:08Z</time>
      </trkpt>
      <trkpt lat="44.71159" lon="1.17297">
        <ele>226</ele>
        <time>2012-07-15T12:04:15Z</time>
      </trkpt>
      <trkpt lat="44.71149" lon="1.17304">
        <ele>226</ele>
        <time>2012-07-15T12:04:21Z</time>
      </trkpt>
      <trkpt lat="44.71138" lon="1.17311">
        <ele>226</ele>
        <time>2012-07-15T12:04:27Z</time>
      </trkpt>
      <trkpt lat="44.71129" lon="1.17316">
        <ele>229</ele>
        <time>2012-07-15T12:04:33Z</time>
      </trkpt>
      <trkpt lat="44.71119" lon="1.17321">
        <ele>231</ele>
        <time>2012-07-15T12:04:40Z</time>
      </trkpt>
      <trkpt lat="44.71107" lon="1.17326">
        <ele>233</ele>
        <time>2012-07-15T12:04:46Z</time>
      </trkpt>
      <trkpt lat="44.71098" lon="1.1733">
        <ele>236</ele>
        <time>2012-07-15T12:04:52Z</time>
      </trkpt>
      <trkpt lat="44.7109" lon="1.17332">
        <ele>238</ele>
        <time>2012-07-15T12:04:59Z</time>
      </trkpt>
      <trkpt lat="44.7108" lon="1.17335">
        <ele>240</ele>
        <time>2012-07-15T12:05:05Z</time>
      </trkpt>
      <trkpt lat="44.71074" lon="1.17338">
        <ele>242</ele>
        <time>2012-07-15T12:05:16Z</time>
      </trkpt>
      <trkpt lat="44.71067" lon="1.1734">
        <ele>242</ele>
        <time>2012-07-15T12:05:25Z</time>
      </trkpt>
      <trkpt lat="44.71053" lon="1.17343">
        <ele>242</ele>
        <time>2012-07-15T12:05:33Z</time>
      </trkpt>
      <trkpt lat="44.71043" lon="1.17345">
        <ele>242</ele>
        <time>2012-07-15T12:05:38Z</time>
      </trkpt>
      <trkpt lat="44.71032" lon="1.17349">
        <ele>243</ele>
        <time>2012-07-15T12:05:45Z</time>
      </trkpt>
      <trkpt lat="44.71022" lon="1.17352">
        <ele>243</ele>
        <time>2012-07-15T12:05:51Z</time>
      </trkpt>
      <trkpt lat="44.71014" lon="1.17354">
        <ele>244</ele>
        <time>2012-07-15T12:05:56Z</time>
      </trkpt>
      <trkpt lat="44.71003" lon="1.17357">
        <ele>246</ele>
        <time>2012-07-15T12:06:02Z</time>
      </trkpt>
      <trkpt lat="44.70995" lon="1.17357">
        <ele>247</ele>
        <time>2012-07-15T12:06:10Z</time>
      </trkpt>
      <trkpt lat="44.70977" lon="1.17362">
        <ele>248</ele>
        <time>2012-07-15T12:06:18Z</time>
      </trkpt>
      <trkpt lat="44.70972" lon="1.17363">
        <ele>248</ele>
        <time>2012-07-15T12:06:24Z</time>
      </trkpt>
      <trkpt lat="44.70961" lon="1.17366">
        <ele>248</ele>
        <time>2012-07-15T12:06:30Z</time>
      </trkpt>
      <trkpt lat="44.70951" lon="1.1737">
        <ele>248</ele>
        <time>2012-07-15T12:06:37Z</time>
      </trkpt>
      <trkpt lat="44.70941" lon="1.17373">
        <ele>248</ele>
        <time>2012-07-15T12:06:43Z</time>
      </trkpt>
      <trkpt lat="44.70931" lon="1.17377">
        <ele>249</ele>
        <time>2012-07-15T12:06:50Z</time>
      </trkpt>
      <trkpt lat="44.7092" lon="1.17383">
        <ele>249</ele>
        <time>2012-07-15T12:06:56Z</time>
      </trkpt>
      <trkpt lat="44.70912" lon="1.17388">
        <ele>252</ele>
        <time>2012-07-15T12:07:02Z</time>
      </trkpt>
      <trkpt lat="44.70899" lon="1.17391">
        <ele>253</ele>
        <time>2012-07-15T12:07:10Z</time>
      </trkpt>
      <trkpt lat="44.70886" lon="1.17396">
        <ele>253</ele>
        <time>2012-07-15T12:07:17Z</time>
      </trkpt>
      <trkpt lat="44.7087" lon="1.17408">
        <ele>254</ele>
        <time>2012-07-15T12:07:24Z</time>
      </trkpt>
      <trkpt lat="44.70852" lon="1.17418">
        <ele>254</ele>
        <time>2012-07-15T12:07:31Z</time>
      </trkpt>
      <trkpt lat="44.70827" lon="1.17431">
        <ele>254</ele>
        <time>2012-07-15T12:07:37Z</time>
      </trkpt>
      <trkpt lat="44.70807" lon="1.17424">
        <ele>254</ele>
        <time>2012-07-15T12:07:46Z</time>
      </trkpt>
      <trkpt lat="44.70805" lon="1.17407">
        <ele>254</ele>
        <time>2012-07-15T12:07:52Z</time>
      </trkpt>
      <trkpt lat="44.70796" lon="1.17369">
        <ele>254</ele>
        <time>2012-07-15T12:07:59Z</time>
      </trkpt>
      <trkpt lat="44.70792" lon="1.17323">
        <ele>254</ele>
        <time>2012-07-15T12:08:05Z</time>
      </trkpt>
      <trkpt lat="44.70791" lon="1.17262">
        <ele>254</ele>
        <time>2012-07-15T12:08:11Z</time>
      </trkpt>
      <trkpt lat="44.70796" lon="1.17208">
        <ele>253</ele>
        <time>2012-07-15T12:08:18Z</time>
      </trkpt>
      <trkpt lat="44.70801" lon="1.17155">
        <ele>251</ele>
        <time>2012-07-15T12:08:24Z</time>
      </trkpt>
      <trkpt lat="44.70798" lon="1.17092">
        <ele>249</ele>
        <time>2012-07-15T12:08:30Z</time>
      </trkpt>
      <trkpt lat="44.70808" lon="1.17036">
        <ele>249</ele>
        <time>2012-07-15T12:08:37Z</time>
      </trkpt>
      <trkpt lat="44.70819" lon="1.17">
        <ele>249</ele>
        <time>2012-07-15T12:08:44Z</time>
      </trkpt>
      <trkpt lat="44.70829" lon="1.16975">
        <ele>250</ele>
        <time>2012-07-15T12:08:51Z</time>
      </trkpt>
      <trkpt lat="44.70849" lon="1.16956">
        <ele>251</ele>
        <time>2012-07-15T12:08:59Z</time>
      </trkpt>
      <trkpt lat="44.70854" lon="1.16952">
        <ele>252</ele>
        <time>2012-07-15T12:09:05Z</time>
      </trkpt>
      <trkpt lat="44.70866" lon="1.16941">
        <ele>255</ele>
        <time>2012-07-15T12:09:11Z</time>
      </trkpt>
      <trkpt lat="44.70875" lon="1.16932">
        <ele>259</ele>
        <time>2012-07-15T12:09:18Z</time>
      </trkpt>
      <trkpt lat="44.70877" lon="1.16913">
        <ele>263</ele>
        <time>2012-07-15T12:09:27Z</time>
      </trkpt>
      <trkpt lat="44.70864" lon="1.16888">
        <ele>264</ele>
        <time>2012-07-15T12:09:35Z</time>
      </trkpt>
      <trkpt lat="44.70856" lon="1.16875">
        <ele>264</ele>
        <time>2012-07-15T12:09:41Z</time>
      </trkpt>
      <trkpt lat="44.70846" lon="1.16853">
        <ele>264</ele>
        <time>2012-07-15T12:09:48Z</time>
      </trkpt>
      <trkpt lat="44.70825" lon="1.1683">
        <ele>263</ele>
        <time>2012-07-15T12:09:55Z</time>
      </trkpt>
      <trkpt lat="44.70814" lon="1.16797">
        <ele>262</ele>
        <time>2012-07-15T12:10:03Z</time>
      </trkpt>
      <trkpt lat="44.70799" lon="1.1677">
        <ele>261</ele>
        <time>2012-07-15T12:10:10Z</time>
      </trkpt>
      <trkpt lat="44.70778" lon="1.1672">
        <ele>261</ele>
        <time>2012-07-15T12:10:17Z</time>
      </trkpt>
      <trkpt lat="44.70772" lon="1.16701">
        <ele>260</ele>
        <time>2012-07-15T12:10:23Z</time>
      </trkpt>
      <trkpt lat="44.70769" lon="1.16651">
        <ele>259</ele>
        <time>2012-07-15T12:10:31Z</time>
      </trkpt>
      <trkpt lat="44.70773" lon="1.16596">
        <ele>259</ele>
        <time>2012-07-15T12:10:37Z</time>
      </trkpt>
      <trkpt lat="44.70773" lon="1.1655">
        <ele>259</ele>
        <time>2012-07-15T12:10:44Z</time>
      </trkpt>
      <trkpt lat="44.70767" lon="1.16508">
        <ele>259</ele>
        <time>2012-07-15T12:10:50Z</time>
      </trkpt>
      <trkpt lat="44.70774" lon="1.16442">
        <ele>259</ele>
        <time>2012-07-15T12:10:58Z</time>
      </trkpt>
      <trkpt lat="44.70779" lon="1.16416">
        <ele>259</ele>
        <time>2012-07-15T12:11:04Z</time>
      </trkpt>
      <trkpt lat="44.70793" lon="1.16356">
        <ele>256</ele>
        <time>2012-07-15T12:11:10Z</time>
      </trkpt>
      <trkpt lat="44.70812" lon="1.163">
        <ele>253</ele>
        <time>2012-07-15T12:11:17Z</time>
      </trkpt>
      <trkpt lat="44.70828" lon="1.16221">
        <ele>249</ele>
        <time>2012-07-15T12:11:24Z</time>
      </trkpt>
      <trkpt lat="44.70847" lon="1.16172">
        <ele>246</ele>
        <time>2012-07-15T12:11:31Z</time>
      </trkpt>
      <trkpt lat="44.70871" lon="1.16125">
        <ele>243</ele>
        <time>2012-07-15T12:11:37Z</time>
      </trkpt>
      <trkpt lat="44.70892" lon="1.16078">
        <ele>243</ele>
        <time>2012-07-15T12:11:44Z</time>
      </trkpt>
      <trkpt lat="44.70903" lon="1.16062">
        <ele>243</ele>
        <time>2012-07-15T12:11:50Z</time>
      </trkpt>
      <trkpt lat="44.70937" lon="1.16031">
        <ele>243</ele>
        <time>2012-07-15T12:11:57Z</time>
      </trkpt>
      <trkpt lat="44.70966" lon="1.16">
        <ele>242</ele>
        <time>2012-07-15T12:12:04Z</time>
      </trkpt>
      <trkpt lat="44.70971" lon="1.15979">
        <ele>239</ele>
        <time>2012-07-15T12:12:10Z</time>
      </trkpt>
      <trkpt lat="44.70983" lon="1.15955">
        <ele>239</ele>
        <time>2012-07-15T12:12:18Z</time>
      </trkpt>
      <trkpt lat="44.70992" lon="1.15929">
        <ele>239</ele>
        <time>2012-07-15T12:12:26Z</time>
      </trkpt>
      <trkpt lat="44.71012" lon="1.15887">
        <ele>238</ele>
        <time>2012-07-15T12:12:32Z</time>
      </trkpt>
      <trkpt lat="44.71028" lon="1.15861">
        <ele>235</ele>
        <time>2012-07-15T12:12:39Z</time>
      </trkpt>
      <trkpt lat="44.71047" lon="1.15826">
        <ele>227</ele>
        <time>2012-07-15T12:12:47Z</time>
      </trkpt>
      <trkpt lat="44.71061" lon="1.15783">
        <ele>221</ele>
        <time>2012-07-15T12:12:53Z</time>
      </trkpt>
      <trkpt lat="44.71066" lon="1.15729">
        <ele>213</ele>
        <time>2012-07-15T12:13:01Z</time>
      </trkpt>
      <trkpt lat="44.71066" lon="1.15674">
        <ele>204</ele>
        <time>2012-07-15T12:13:07Z</time>
      </trkpt>
      <trkpt lat="44.71068" lon="1.15613">
        <ele>195</ele>
        <time>2012-07-15T12:13:14Z</time>
      </trkpt>
      <trkpt lat="44.71072" lon="1.15586">
        <ele>189</ele>
        <time>2012-07-15T12:13:21Z</time>
      </trkpt>
      <trkpt lat="44.71079" lon="1.15535">
        <ele>182</ele>
        <time>2012-07-15T12:13:27Z</time>
      </trkpt>
      <trkpt lat="44.71088" lon="1.15491">
        <ele>175</ele>
        <time>2012-07-15T12:13:34Z</time>
      </trkpt>
      <trkpt lat="44.71089" lon="1.15436">
        <ele>169</ele>
        <time>2012-07-15T12:13:40Z</time>
      </trkpt>
      <trkpt lat="44.71087" lon="1.15398">
        <ele>163</ele>
        <time>2012-07-15T12:13:47Z</time>
      </trkpt>
      <trkpt lat="44.71084" lon="1.15377">
        <ele>157</ele>
        <time>2012-07-15T12:13:53Z</time>
      </trkpt>
      <trkpt lat="44.71086" lon="1.15362">
        <ele>152</ele>
        <time>2012-07-15T12:14:03Z</time>
      </trkpt>
      <trkpt lat="44.71088" lon="1.15319">
        <ele>150</ele>
        <time>2012-07-15T12:14:09Z</time>
      </trkpt>
      <trkpt lat="44.71077" lon="1.1526">
        <ele>146</ele>
        <time>2012-07-15T12:14:16Z</time>
      </trkpt>
      <trkpt lat="44.71069" lon="1.15246">
        <ele>144</ele>
        <time>2012-07-15T12:14:23Z</time>
      </trkpt>
      <trkpt lat="44.71059" lon="1.15239">
        <ele>144</ele>
        <time>2012-07-15T12:14:31Z</time>
      </trkpt>
      <trkpt lat="44.71046" lon="1.15239">
        <ele>144</ele>
        <time>2012-07-15T12:14:38Z</time>
      </trkpt>
      <trkpt lat="44.71036" lon="1.15239">
        <ele>144</ele>
        <time>2012-07-15T12:14:45Z</time>
      </trkpt>
      <trkpt lat="44.71026" lon="1.15239">
        <ele>145</ele>
        <time>2012-07-15T12:14:51Z</time>
      </trkpt>
      <trkpt lat="44.71019" lon="1.15241">
        <ele>148</ele>
        <time>2012-07-15T12:15:00Z</time>
      </trkpt>
      <trkpt lat="44.71009" lon="1.15241">
        <ele>150</ele>
        <time>2012-07-15T12:15:06Z</time>
      </trkpt>
      <trkpt lat="44.71" lon="1.15237">
        <ele>153</ele>
        <time>2012-07-15T12:15:13Z</time>
      </trkpt>
      <trkpt lat="44.7099" lon="1.15231">
        <ele>154</ele>
        <time>2012-07-15T12:15:20Z</time>
      </trkpt>
      <trkpt lat="44.70983" lon="1.15227">
        <ele>154</ele>
        <time>2012-07-15T12:15:27Z</time>
      </trkpt>
      <trkpt lat="44.70974" lon="1.15222">
        <ele>155</ele>
        <time>2012-07-15T12:15:33Z</time>
      </trkpt>
      <trkpt lat="44.70966" lon="1.15214">
        <ele>158</ele>
        <time>2012-07-15T12:15:40Z</time>
      </trkpt>
      <trkpt lat="44.70961" lon="1.15204">
        <ele>161</ele>
        <time>2012-07-15T12:15:48Z</time>
      </trkpt>
      <trkpt lat="44.70956" lon="1.15194">
        <ele>164</ele>
        <time>2012-07-15T12:15:54Z</time>
      </trkpt>
      <trkpt lat="44.70952" lon="1.15187">
        <ele>167</ele>
        <time>2012-07-15T12:16:01Z</time>
      </trkpt>
      <trkpt lat="44.70948" lon="1.15175">
        <ele>170</ele>
        <time>2012-07-15T12:16:07Z</time>
      </trkpt>
      <trkpt lat="44.70941" lon="1.15165">
        <ele>172</ele>
        <time>2012-07-15T12:16:15Z</time>
      </trkpt>
      <trkpt lat="44.7093" lon="1.15156">
        <ele>174</ele>
        <time>2012-07-15T12:16:22Z</time>
      </trkpt>
      <trkpt lat="44.70927" lon="1.15154">
        <ele>176</ele>
        <time>2012-07-15T12:16:28Z</time>
      </trkpt>
      <trkpt lat="44.70915" lon="1.15147">
        <ele>177</ele>
        <time>2012-07-15T12:16:36Z</time>
      </trkpt>
      <trkpt lat="44.7091" lon="1.15147">
        <ele>179</ele>
        <time>2012-07-15T12:16:42Z</time>
      </trkpt>
      <trkpt lat="44.70902" lon="1.15141">
        <ele>183</ele>
        <time>2012-07-15T12:16:50Z</time>
      </trkpt>
      <trkpt lat="44.70897" lon="1.15138">
        <ele>184</ele>
        <time>2012-07-15T12:16:58Z</time>
      </trkpt>
      <trkpt lat="44.70892" lon="1.15149">
        <ele>184</ele>
        <time>2012-07-15T12:17:05Z</time>
      </trkpt>
      <trkpt lat="44.70885" lon="1.15158">
        <ele>187</ele>
        <time>2012-07-15T12:17:11Z</time>
      </trkpt>
      <trkpt lat="44.70878" lon="1.15167">
        <ele>190</ele>
        <time>2012-07-15T12:17:18Z</time>
      </trkpt>
      <trkpt lat="44.70868" lon="1.15177">
        <ele>191</ele>
        <time>2012-07-15T12:17:24Z</time>
      </trkpt>
      <trkpt lat="44.70857" lon="1.15183">
        <ele>191</ele>
        <time>2012-07-15T12:17:31Z</time>
      </trkpt>
      <trkpt lat="44.70847" lon="1.15188">
        <ele>191</ele>
        <time>2012-07-15T12:17:38Z</time>
      </trkpt>
      <trkpt lat="44.70828" lon="1.15187">
        <ele>191</ele>
        <time>2012-07-15T12:17:45Z</time>
      </trkpt>
      <trkpt lat="44.70806" lon="1.15186">
        <ele>191</ele>
        <time>2012-07-15T12:17:52Z</time>
      </trkpt>
      <trkpt lat="44.70784" lon="1.15181">
        <ele>191</ele>
        <time>2012-07-15T12:17:58Z</time>
      </trkpt>
      <trkpt lat="44.70773" lon="1.15149">
        <ele>191</ele>
        <time>2012-07-15T12:18:07Z</time>
      </trkpt>
      <trkpt lat="44.70771" lon="1.15101">
        <ele>188</ele>
        <time>2012-07-15T12:18:13Z</time>
      </trkpt>
      <trkpt lat="44.7076" lon="1.15078">
        <ele>182</ele>
        <time>2012-07-15T12:18:20Z</time>
      </trkpt>
      <trkpt lat="44.70738" lon="1.15066">
        <ele>177</ele>
        <time>2012-07-15T12:18:27Z</time>
      </trkpt>
      <trkpt lat="44.70721" lon="1.15058">
        <ele>172</ele>
        <time>2012-07-15T12:18:34Z</time>
      </trkpt>
      <trkpt lat="44.7071" lon="1.1505">
        <ele>167</ele>
        <time>2012-07-15T12:18:40Z</time>
      </trkpt>
      <trkpt lat="44.70697" lon="1.15043">
        <ele>161</ele>
        <time>2012-07-15T12:18:48Z</time>
      </trkpt>
      <trkpt lat="44.70685" lon="1.15037">
        <ele>158</ele>
        <time>2012-07-15T12:18:55Z</time>
      </trkpt>
      <trkpt lat="44.70669" lon="1.15032">
        <ele>158</ele>
        <time>2012-07-15T12:19:01Z</time>
      </trkpt>
      <trkpt lat="44.70658" lon="1.15027">
        <ele>161</ele>
        <time>2012-07-15T12:19:08Z</time>
      </trkpt>
      <trkpt lat="44.70646" lon="1.15022">
        <ele>164</ele>
        <time>2012-07-15T12:19:14Z</time>
      </trkpt>
      <trkpt lat="44.70634" lon="1.1502">
        <ele>165</ele>
        <time>2012-07-15T12:19:21Z</time>
      </trkpt>
      <trkpt lat="44.70618" lon="1.1502">
        <ele>166</ele>
        <time>2012-07-15T12:19:27Z</time>
      </trkpt>
      <trkpt lat="44.70607" lon="1.15021">
        <ele>167</ele>
        <time>2012-07-15T12:19:33Z</time>
      </trkpt>
      <trkpt lat="44.70602" lon="1.15021">
        <ele>167</ele>
        <time>2012-07-15T12:19:39Z</time>
      </trkpt>
      <trkpt lat="44.70596" lon="1.1502">
        <ele>167</ele>
        <time>2012-07-15T12:19:49Z</time>
      </trkpt>
      <trkpt lat="44.70581" lon="1.15026">
        <ele>167</ele>
        <time>2012-07-15T12:19:55Z</time>
      </trkpt>
      <trkpt lat="44.70573" lon="1.15027">
        <ele>167</ele>
        <time>2012-07-15T12:20:01Z</time>
      </trkpt>
      <trkpt lat="44.70549" lon="1.15026">
        <ele>166</ele>
        <time>2012-07-15T12:20:08Z</time>
      </trkpt>
      <trkpt lat="44.70544" lon="1.15025">
        <ele>164</ele>
        <time>2012-07-15T12:20:14Z</time>
      </trkpt>
      <trkpt lat="44.70525" lon="1.1502">
        <ele>162</ele>
        <time>2012-07-15T12:20:21Z</time>
      </trkpt>
      <trkpt lat="44.70518" lon="1.15017">
        <ele>160</ele>
        <time>2012-07-15T12:20:27Z</time>
      </trkpt>
      <trkpt lat="44.70491" lon="1.15021">
        <ele>158</ele>
        <time>2012-07-15T12:20:36Z</time>
      </trkpt>
      <trkpt lat="44.70466" lon="1.1502">
        <ele>158</ele>
        <time>2012-07-15T12:20:44Z</time>
      </trkpt>
      <trkpt lat="44.70456" lon="1.15022">
        <ele>158</ele>
        <time>2012-07-15T12:20:51Z</time>
      </trkpt>
      <trkpt lat="44.70438" lon="1.15024">
        <ele>158</ele>
        <time>2012-07-15T12:20:57Z</time>
      </trkpt>
      <trkpt lat="44.70421" lon="1.1501">
        <ele>158</ele>
        <time>2012-07-15T12:21:06Z</time>
      </trkpt>
      <trkpt lat="44.70415" lon="1.14981">
        <ele>158</ele>
        <time>2012-07-15T12:21:13Z</time>
      </trkpt>
      <trkpt lat="44.70407" lon="1.14957">
        <ele>156</ele>
        <time>2012-07-15T12:21:20Z</time>
      </trkpt>
      <trkpt lat="44.70393" lon="1.14922">
        <ele>155</ele>
        <time>2012-07-15T12:21:27Z</time>
      </trkpt>
      <trkpt lat="44.70387" lon="1.14911">
        <ele>155</ele>
        <time>2012-07-15T12:21:33Z</time>
      </trkpt>
      <trkpt lat="44.70368" lon="1.14878">
        <ele>155</ele>
        <time>2012-07-15T12:21:40Z</time>
      </trkpt>
      <trkpt lat="44.70359" lon="1.14869">
        <ele>155</ele>
        <time>2012-07-15T12:21:46Z</time>
      </trkpt>
      <trkpt lat="44.70347" lon="1.14857">
        <ele>155</ele>
        <time>2012-07-15T12:21:53Z</time>
      </trkpt>
      <trkpt lat="44.70333" lon="1.14844">
        <ele>157</ele>
        <time>2012-07-15T12:21:59Z</time>
      </trkpt>
      <trkpt lat="44.70324" lon="1.14833">
        <ele>157</ele>
        <time>2012-07-15T12:22:06Z</time>
      </trkpt>
      <trkpt lat="44.70314" lon="1.14833">
        <ele>157</ele>
        <time>2012-07-15T12:22:14Z</time>
      </trkpt>
      <trkpt lat="44.70305" lon="1.14854">
        <ele>157</ele>
        <time>2012-07-15T12:22:21Z</time>
      </trkpt>
      <trkpt lat="44.70296" lon="1.14875">
        <ele>160</ele>
        <time>2012-07-15T12:22:27Z</time>
      </trkpt>
      <trkpt lat="44.70289" lon="1.1489">
        <ele>163</ele>
        <time>2012-07-15T12:22:34Z</time>
      </trkpt>
      <trkpt lat="44.70276" lon="1.14904">
        <ele>166</ele>
        <time>2012-07-15T12:22:40Z</time>
      </trkpt>
      <trkpt lat="44.70264" lon="1.1491">
        <ele>170</ele>
        <time>2012-07-15T12:22:48Z</time>
      </trkpt>
      <trkpt lat="44.70245" lon="1.14917">
        <ele>173</ele>
        <time>2012-07-15T12:22:54Z</time>
      </trkpt>
      <trkpt lat="44.70225" lon="1.14922">
        <ele>177</ele>
        <time>2012-07-15T12:23:01Z</time>
      </trkpt>
      <trkpt lat="44.70205" lon="1.14931">
        <ele>178</ele>
        <time>2012-07-15T12:23:08Z</time>
      </trkpt>
      <trkpt lat="44.70182" lon="1.14941">
        <ele>179</ele>
        <time>2012-07-15T12:23:14Z</time>
      </trkpt>
      <trkpt lat="44.70162" lon="1.14949">
        <ele>180</ele>
        <time>2012-07-15T12:23:21Z</time>
      </trkpt>
      <trkpt lat="44.70128" lon="1.14959">
        <ele>182</ele>
        <time>2012-07-15T12:23:28Z</time>
      </trkpt>
      <trkpt lat="44.70118" lon="1.14962">
        <ele>183</ele>
        <time>2012-07-15T12:23:34Z</time>
      </trkpt>
      <trkpt lat="44.70092" lon="1.1497">
        <ele>183</ele>
        <time>2012-07-15T12:23:41Z</time>
      </trkpt>
      <trkpt lat="44.70067" lon="1.14979">
        <ele>183</ele>
        <time>2012-07-15T12:23:47Z</time>
      </trkpt>
      <trkpt lat="44.70045" lon="1.14986">
        <ele>183</ele>
        <time>2012-07-15T12:23:54Z</time>
      </trkpt>
      <trkpt lat="44.7001" lon="1.15003">
        <ele>183</ele>
        <time>2012-07-15T12:24:01Z</time>
      </trkpt>
      <trkpt lat="44.69997" lon="1.15011">
        <ele>183</ele>
        <time>2012-07-15T12:24:07Z</time>
      </trkpt>
      <trkpt lat="44.69927" lon="1.15058">
        <ele>183</ele>
        <time>2012-07-15T12:24:14Z</time>
      </trkpt>
      <trkpt lat="44.69901" lon="1.15075">
        <ele>183</ele>
        <time>2012-07-15T12:24:20Z</time>
      </trkpt>
      <trkpt lat="44.69862" lon="1.151">
        <ele>183</ele>
        <time>2012-07-15T12:24:27Z</time>
      </trkpt>
      <trkpt lat="44.69823" lon="1.15154">
        <ele>182</ele>
        <time>2012-07-15T12:24:35Z</time>
      </trkpt>
      <trkpt lat="44.69799" lon="1.15194">
        <ele>182</ele>
        <time>2012-07-15T12:24:41Z</time>
      </trkpt>
      <trkpt lat="44.69767" lon="1.1522">
        <ele>182</ele>
        <time>2012-07-15T12:24:49Z</time>
      </trkpt>
      <trkpt lat="44.69756" lon="1.15229">
        <ele>182</ele>
        <time>2012-07-15T12:24:55Z</time>
      </trkpt>
      <trkpt lat="44.6973" lon="1.15251">
        <ele>185</ele>
        <time>2012-07-15T12:25:02Z</time>
      </trkpt>
      <trkpt lat="44.69698" lon="1.15283">
        <ele>187</ele>
        <time>2012-07-15T12:25:08Z</time>
      </trkpt>
      <trkpt lat="44.69678" lon="1.15302">
        <ele>189</ele>
        <time>2012-07-15T12:25:14Z</time>
      </trkpt>
      <trkpt lat="44.69638" lon="1.15331">
        <ele>191</ele>
        <time>2012-07-15T12:25:22Z</time>
      </trkpt>
      <trkpt lat="44.69627" lon="1.1534">
        <ele>193</ele>
        <time>2012-07-15T12:25:28Z</time>
      </trkpt>
      <trkpt lat="44.696" lon="1.15366">
        <ele>196</ele>
        <time>2012-07-15T12:25:35Z</time>
      </trkpt>
      <trkpt lat="44.69569" lon="1.15389">
        <ele>198</ele>
        <time>2012-07-15T12:25:41Z</time>
      </trkpt>
      <trkpt lat="44.69545" lon="1.15409">
        <ele>198</ele>
        <time>2012-07-15T12:25:48Z</time>
      </trkpt>
      <trkpt lat="44.69516" lon="1.15441">
        <ele>197</ele>
        <time>2012-07-15T12:25:56Z</time>
      </trkpt>
      <trkpt lat="44.69486" lon="1.15459">
        <ele>196</ele>
        <time>2012-07-15T12:26:05Z</time>
      </trkpt>
      <trkpt lat="44.69464" lon="1.15452">
        <ele>193</ele>
        <time>2012-07-15T12:26:12Z</time>
      </trkpt>
      <trkpt lat="44.69444" lon="1.15449">
        <ele>191</ele>
        <time>2012-07-15T12:26:19Z</time>
      </trkpt>
      <trkpt lat="44.69426" lon="1.15453">
        <ele>191</ele>
        <time>2012-07-15T12:26:26Z</time>
      </trkpt>
      <trkpt lat="44.69407" lon="1.15469">
        <ele>191</ele>
        <time>2012-07-15T12:26:34Z</time>
      </trkpt>
      <trkpt lat="44.69393" lon="1.15481">
        <ele>191</ele>
        <time>2012-07-15T12:26:41Z</time>
      </trkpt>
      <trkpt lat="44.69387" lon="1.15487">
        <ele>193</ele>
        <time>2012-07-15T12:26:47Z</time>
      </trkpt>
      <trkpt lat="44.69373" lon="1.15501">
        <ele>195</ele>
        <time>2012-07-15T12:26:54Z</time>
      </trkpt>
      <trkpt lat="44.69361" lon="1.15517">
        <ele>196</ele>
        <time>2012-07-15T12:27:00Z</time>
      </trkpt>
      <trkpt lat="44.6935" lon="1.1553">
        <ele>196</ele>
        <time>2012-07-15T12:27:07Z</time>
      </trkpt>
      <trkpt lat="44.69337" lon="1.15545">
        <ele>196</ele>
        <time>2012-07-15T12:27:14Z</time>
      </trkpt>
      <trkpt lat="44.69323" lon="1.15561">
        <ele>197</ele>
        <time>2012-07-15T12:27:22Z</time>
      </trkpt>
      <trkpt lat="44.6931" lon="1.15574">
        <ele>198</ele>
        <time>2012-07-15T12:27:29Z</time>
      </trkpt>
      <trkpt lat="44.69294" lon="1.15588">
        <ele>201</ele>
        <time>2012-07-15T12:27:35Z</time>
      </trkpt>
      <trkpt lat="44.69283" lon="1.15599">
        <ele>203</ele>
        <time>2012-07-15T12:27:42Z</time>
      </trkpt>
      <trkpt lat="44.69269" lon="1.15613">
        <ele>203</ele>
        <time>2012-07-15T12:27:49Z</time>
      </trkpt>
      <trkpt lat="44.69254" lon="1.15625">
        <ele>204</ele>
        <time>2012-07-15T12:27:55Z</time>
      </trkpt>
      <trkpt lat="44.69241" lon="1.15633">
        <ele>204</ele>
        <time>2012-07-15T12:28:02Z</time>
      </trkpt>
      <trkpt lat="44.69225" lon="1.15641">
        <ele>205</ele>
        <time>2012-07-15T12:28:09Z</time>
      </trkpt>
      <trkpt lat="44.69208" lon="1.15651">
        <ele>206</ele>
        <time>2012-07-15T12:28:15Z</time>
      </trkpt>
      <trkpt lat="44.6919" lon="1.15659">
        <ele>207</ele>
        <time>2012-07-15T12:28:22Z</time>
      </trkpt>
      <trkpt lat="44.69165" lon="1.15666">
        <ele>208</ele>
        <time>2012-07-15T12:28:29Z</time>
      </trkpt>
      <trkpt lat="44.6914" lon="1.15667">
        <ele>208</ele>
        <time>2012-07-15T12:28:35Z</time>
      </trkpt>
      <trkpt lat="44.69117" lon="1.15666">
        <ele>208</ele>
        <time>2012-07-15T12:28:42Z</time>
      </trkpt>
      <trkpt lat="44.69088" lon="1.15667">
        <ele>208</ele>
        <time>2012-07-15T12:28:49Z</time>
      </trkpt>
      <trkpt lat="44.69048" lon="1.15668">
        <ele>208</ele>
        <time>2012-07-15T12:28:56Z</time>
      </trkpt>
      <trkpt lat="44.69042" lon="1.15676">
        <ele>208</ele>
        <time>2012-07-15T12:29:04Z</time>
      </trkpt>
      <trkpt lat="44.69065" lon="1.15716">
        <ele>208</ele>
        <time>2012-07-15T12:29:12Z</time>
      </trkpt>
      <trkpt lat="44.691" lon="1.15728">
        <ele>206</ele>
        <time>2012-07-15T12:29:20Z</time>
      </trkpt>
      <trkpt lat="44.69075" lon="1.15775">
        <ele>201</ele>
        <time>2012-07-15T12:29:29Z</time>
      </trkpt>
      <trkpt lat="44.69067" lon="1.15789">
        <ele>199</ele>
        <time>2012-07-15T12:29:35Z</time>
      </trkpt>
      <trkpt lat="44.69034" lon="1.15798">
        <ele>197</ele>
        <time>2012-07-15T12:29:43Z</time>
      </trkpt>
      <trkpt lat="44.69026" lon="1.158">
        <ele>195</ele>
        <time>2012-07-15T12:29:49Z</time>
      </trkpt>
      <trkpt lat="44.69006" lon="1.1581">
        <ele>195</ele>
        <time>2012-07-15T12:29:58Z</time>
      </trkpt>
      <trkpt lat="44.69003" lon="1.15817">
        <ele>195</ele>
        <time>2012-07-15T12:30:05Z</time>
      </trkpt>
      <trkpt lat="44.6899" lon="1.15826">
        <ele>197</ele>
        <time>2012-07-15T12:30:13Z</time>
      </trkpt>
      <trkpt lat="44.68974" lon="1.15839">
        <ele>198</ele>
        <time>2012-07-15T12:30:20Z</time>
      </trkpt>
      <trkpt lat="44.68969" lon="1.15842">
        <ele>198</ele>
        <time>2012-07-15T12:30:26Z</time>
      </trkpt>
      <trkpt lat="44.68956" lon="1.1585">
        <ele>199</ele>
        <time>2012-07-15T12:30:33Z</time>
      </trkpt>
      <trkpt lat="44.68945" lon="1.15857">
        <ele>202</ele>
        <time>2012-07-15T12:30:40Z</time>
      </trkpt>
      <trkpt lat="44.68933" lon="1.15873">
        <ele>205</ele>
        <time>2012-07-15T12:30:47Z</time>
      </trkpt>
      <trkpt lat="44.68925" lon="1.15877">
        <ele>208</ele>
        <time>2012-07-15T12:30:54Z</time>
      </trkpt>
      <trkpt lat="44.6891" lon="1.15886">
        <ele>210</ele>
        <time>2012-07-15T12:31:01Z</time>
      </trkpt>
      <trkpt lat="44.68904" lon="1.1589">
        <ele>213</ele>
        <time>2012-07-15T12:31:08Z</time>
      </trkpt>
      <trkpt lat="44.68887" lon="1.15899">
        <ele>214</ele>
        <time>2012-07-15T12:31:15Z</time>
      </trkpt>
      <trkpt lat="44.68883" lon="1.15903">
        <ele>215</ele>
        <time>2012-07-15T12:31:21Z</time>
      </trkpt>
      <trkpt lat="44.68867" lon="1.1592">
        <ele>217</ele>
        <time>2012-07-15T12:31:28Z</time>
      </trkpt>
      <trkpt lat="44.68845" lon="1.15941">
        <ele>217</ele>
        <time>2012-07-15T12:31:35Z</time>
      </trkpt>
      <trkpt lat="44.68828" lon="1.15958">
        <ele>217</ele>
        <time>2012-07-15T12:31:42Z</time>
      </trkpt>
      <trkpt lat="44.68823" lon="1.15964">
        <ele>217</ele>
        <time>2012-07-15T12:31:48Z</time>
      </trkpt>
      <trkpt lat="44.68808" lon="1.15976">
        <ele>217</ele>
        <time>2012-07-15T12:31:55Z</time>
      </trkpt>
      <trkpt lat="44.68791" lon="1.16001">
        <ele>216</ele>
        <time>2012-07-15T12:32:04Z</time>
      </trkpt>
      <trkpt lat="44.68786" lon="1.16029">
        <ele>216</ele>
        <time>2012-07-15T12:32:11Z</time>
      </trkpt>
      <trkpt lat="44.68778" lon="1.16088">
        <ele>215</ele>
        <time>2012-07-15T12:32:18Z</time>
      </trkpt>
      <trkpt lat="44.68773" lon="1.16085">
        <ele>211</ele>
        <time>2012-07-15T12:32:28Z</time>
      </trkpt>
      <trkpt lat="44.68773" lon="1.16083">
        <ele>200</ele>
        <time>2012-07-15T12:32:49Z</time>
      </trkpt>
      <trkpt lat="44.68774" lon="1.16083">
        <ele>200</ele>
        <time>2012-07-15T12:32:57Z</time>
      </trkpt>
      <trkpt lat="44.68772" lon="1.16074">
        <ele>200</ele>
        <time>2012-07-15T12:33:05Z</time>
      </trkpt>
      <trkpt lat="44.68767" lon="1.16068">
        <ele>199</ele>
        <time>2012-07-15T12:33:12Z</time>
      </trkpt>
      <trkpt lat="44.68762" lon="1.16061">
        <ele>199</ele>
        <time>2012-07-15T12:33:18Z</time>
      </trkpt>
      <trkpt lat="44.68754" lon="1.16052">
        <ele>199</ele>
        <time>2012-07-15T12:33:25Z</time>
      </trkpt>
      <trkpt lat="44.68745" lon="1.16046">
        <ele>201</ele>
        <time>2012-07-15T12:33:33Z</time>
      </trkpt>
      <trkpt lat="44.68736" lon="1.16035">
        <ele>203</ele>
        <time>2012-07-15T12:33:40Z</time>
      </trkpt>
      <trkpt lat="44.68727" lon="1.16023">
        <ele>206</ele>
        <time>2012-07-15T12:33:47Z</time>
      </trkpt>
      <trkpt lat="44.68723" lon="1.16019">
        <ele>208</ele>
        <time>2012-07-15T12:33:53Z</time>
      </trkpt>
      <trkpt lat="44.6871" lon="1.16009">
        <ele>211</ele>
        <time>2012-07-15T12:34:00Z</time>
      </trkpt>
      <trkpt lat="44.68684" lon="1.15982">
        <ele>215</ele>
        <time>2012-07-15T12:34:08Z</time>
      </trkpt>
      <trkpt lat="44.68681" lon="1.15967">
        <ele>217</ele>
        <time>2012-07-15T12:34:14Z</time>
      </trkpt>
      <trkpt lat="44.68667" lon="1.15924">
        <ele>219</ele>
        <time>2012-07-15T12:34:21Z</time>
      </trkpt>
      <trkpt lat="44.68643" lon="1.15857">
        <ele>218</ele>
        <time>2012-07-15T12:34:28Z</time>
      </trkpt>
      <trkpt lat="44.68623" lon="1.15794">
        <ele>215</ele>
        <time>2012-07-15T12:34:35Z</time>
      </trkpt>
      <trkpt lat="44.68575" lon="1.15715">
        <ele>211</ele>
        <time>2012-07-15T12:34:42Z</time>
      </trkpt>
      <trkpt lat="44.6857" lon="1.15675">
        <ele>208</ele>
        <time>2012-07-15T12:34:49Z</time>
      </trkpt>
      <trkpt lat="44.68548" lon="1.15619">
        <ele>206</ele>
        <time>2012-07-15T12:34:56Z</time>
      </trkpt>
      <trkpt lat="44.6853" lon="1.15615">
        <ele>203</ele>
        <time>2012-07-15T12:35:03Z</time>
      </trkpt>
      <trkpt lat="44.68504" lon="1.15613">
        <ele>203</ele>
        <time>2012-07-15T12:35:10Z</time>
      </trkpt>
      <trkpt lat="44.68463" lon="1.15604">
        <ele>203</ele>
        <time>2012-07-15T12:35:17Z</time>
      </trkpt>
      <trkpt lat="44.68449" lon="1.15603">
        <ele>204</ele>
        <time>2012-07-15T12:35:24Z</time>
      </trkpt>
      <trkpt lat="44.68419" lon="1.15617">
        <ele>208</ele>
        <time>2012-07-15T12:35:32Z</time>
      </trkpt>
      <trkpt lat="44.68384" lon="1.15622">
        <ele>214</ele>
        <time>2012-07-15T12:35:39Z</time>
      </trkpt>
      <trkpt lat="44.68362" lon="1.15631">
        <ele>218</ele>
        <time>2012-07-15T12:35:46Z</time>
      </trkpt>
      <trkpt lat="44.68353" lon="1.15634">
        <ele>220</ele>
        <time>2012-07-15T12:35:52Z</time>
      </trkpt>
      <trkpt lat="44.68315" lon="1.15649">
        <ele>224</ele>
        <time>2012-07-15T12:36:00Z</time>
      </trkpt>
      <trkpt lat="44.68302" lon="1.15654">
        <ele>226</ele>
        <time>2012-07-15T12:36:06Z</time>
      </trkpt>
      <trkpt lat="44.68279" lon="1.15663">
        <ele>232</ele>
        <time>2012-07-15T12:36:13Z</time>
      </trkpt>
      <trkpt lat="44.68246" lon="1.15679">
        <ele>237</ele>
        <time>2012-07-15T12:36:20Z</time>
      </trkpt>
      <trkpt lat="44.68221" lon="1.15685">
        <ele>243</ele>
        <time>2012-07-15T12:36:27Z</time>
      </trkpt>
      <trkpt lat="44.68187" lon="1.15692">
        <ele>249</ele>
        <time>2012-07-15T12:36:34Z</time>
      </trkpt>
      <trkpt lat="44.68171" lon="1.15691">
        <ele>249</ele>
        <time>2012-07-15T12:36:41Z</time>
      </trkpt>
      <trkpt lat="44.6814" lon="1.15686">
        <ele>241</ele>
        <time>2012-07-15T12:36:48Z</time>
      </trkpt>
      <trkpt lat="44.6813" lon="1.15682">
        <ele>229</ele>
        <time>2012-07-15T12:36:55Z</time>
      </trkpt>
      <trkpt lat="44.681" lon="1.15679">
        <ele>220</ele>
        <time>2012-07-15T12:37:02Z</time>
      </trkpt>
      <trkpt lat="44.68081" lon="1.15681">
        <ele>215</ele>
        <time>2012-07-15T12:37:09Z</time>
      </trkpt>
      <trkpt lat="44.68068" lon="1.1569">
        <ele>215</ele>
        <time>2012-07-15T12:37:16Z</time>
      </trkpt>
      <trkpt lat="44.68048" lon="1.15707">
        <ele>217</ele>
        <time>2012-07-15T12:37:23Z</time>
      </trkpt>
      <trkpt lat="44.68018" lon="1.15724">
        <ele>220</ele>
        <time>2012-07-15T12:37:30Z</time>
      </trkpt>
      <trkpt lat="44.67997" lon="1.15736">
        <ele>223</ele>
        <time>2012-07-15T12:37:37Z</time>
      </trkpt>
      <trkpt lat="44.67974" lon="1.15748">
        <ele>225</ele>
        <time>2012-07-15T12:37:44Z</time>
      </trkpt>
      <trkpt lat="44.67952" lon="1.15759">
        <ele>225</ele>
        <time>2012-07-15T12:37:51Z</time>
      </trkpt>
      <trkpt lat="44.6793" lon="1.1577">
        <ele>225</ele>
        <time>2012-07-15T12:37:58Z</time>
      </trkpt>
      <trkpt lat="44.6791" lon="1.15781">
        <ele>225</ele>
        <time>2012-07-15T12:38:05Z</time>
      </trkpt>
      <trkpt lat="44.67887" lon="1.15797">
        <ele>225</ele>
        <time>2012-07-15T12:38:12Z</time>
      </trkpt>
      <trkpt lat="44.6787" lon="1.15813">
        <ele>225</ele>
        <time>2012-07-15T12:38:19Z</time>
      </trkpt>
      <trkpt lat="44.67867" lon="1.15828">
        <ele>227</ele>
        <time>2012-07-15T12:38:28Z</time>
      </trkpt>
      <trkpt lat="44.67867" lon="1.15865">
        <ele>229</ele>
        <time>2012-07-15T12:38:36Z</time>
      </trkpt>
      <trkpt lat="44.67849" lon="1.15888">
        <ele>232</ele>
        <time>2012-07-15T12:38:44Z</time>
      </trkpt>
      <trkpt lat="44.67831" lon="1.15912">
        <ele>234</ele>
        <time>2012-07-15T12:38:50Z</time>
      </trkpt>
      <trkpt lat="44.67812" lon="1.15925">
        <ele>238</ele>
        <time>2012-07-15T12:38:58Z</time>
      </trkpt>
      <trkpt lat="44.67792" lon="1.15932">
        <ele>241</ele>
        <time>2012-07-15T12:39:05Z</time>
      </trkpt>
      <trkpt lat="44.67771" lon="1.1593">
        <ele>241</ele>
        <time>2012-07-15T12:39:13Z</time>
      </trkpt>
      <trkpt lat="44.67752" lon="1.15914">
        <ele>241</ele>
        <time>2012-07-15T12:39:21Z</time>
      </trkpt>
      <trkpt lat="44.67739" lon="1.15889">
        <ele>241</ele>
        <time>2012-07-15T12:39:28Z</time>
      </trkpt>
      <trkpt lat="44.67736" lon="1.15875">
        <ele>241</ele>
        <time>2012-07-15T12:39:37Z</time>
      </trkpt>
      <trkpt lat="44.6773" lon="1.1585">
        <ele>241</ele>
        <time>2012-07-15T12:39:44Z</time>
      </trkpt>
      <trkpt lat="44.6773" lon="1.15827">
        <ele>241</ele>
        <time>2012-07-15T12:39:51Z</time>
      </trkpt>
      <trkpt lat="44.6773" lon="1.15818">
        <ele>240</ele>
        <time>2012-07-15T12:39:58Z</time>
      </trkpt>
      <trkpt lat="44.67729" lon="1.15797">
        <ele>240</ele>
        <time>2012-07-15T12:40:07Z</time>
      </trkpt>
      <trkpt lat="44.67734" lon="1.15778">
        <ele>240</ele>
        <time>2012-07-15T12:40:14Z</time>
      </trkpt>
      <trkpt lat="44.67737" lon="1.1576">
        <ele>240</ele>
        <time>2012-07-15T12:40:22Z</time>
      </trkpt>
      <trkpt lat="44.67729" lon="1.15748">
        <ele>240</ele>
        <time>2012-07-15T12:40:30Z</time>
      </trkpt>
      <trkpt lat="44.67717" lon="1.15746">
        <ele>240</ele>
        <time>2012-07-15T12:40:38Z</time>
      </trkpt>
      <trkpt lat="44.67707" lon="1.15739">
        <ele>244</ele>
        <time>2012-07-15T12:40:46Z</time>
      </trkpt>
      <trkpt lat="44.677" lon="1.15728">
        <ele>247</ele>
        <time>2012-07-15T12:40:53Z</time>
      </trkpt>
      <trkpt lat="44.67696" lon="1.15716">
        <ele>247</ele>
        <time>2012-07-15T12:41:01Z</time>
      </trkpt>
      <trkpt lat="44.67689" lon="1.15701">
        <ele>247</ele>
        <time>2012-07-15T12:41:08Z</time>
      </trkpt>
      <trkpt lat="44.67685" lon="1.15686">
        <ele>247</ele>
        <time>2012-07-15T12:41:15Z</time>
      </trkpt>
      <trkpt lat="44.67681" lon="1.15669">
        <ele>250</ele>
        <time>2012-07-15T12:41:22Z</time>
      </trkpt>
      <trkpt lat="44.67675" lon="1.15657">
        <ele>253</ele>
        <time>2012-07-15T12:41:29Z</time>
      </trkpt>
      <trkpt lat="44.67666" lon="1.15645">
        <ele>257</ele>
        <time>2012-07-15T12:41:37Z</time>
      </trkpt>
      <trkpt lat="44.67656" lon="1.15636">
        <ele>258</ele>
        <time>2012-07-15T12:41:44Z</time>
      </trkpt>
      <trkpt lat="44.67647" lon="1.15628">
        <ele>260</ele>
        <time>2012-07-15T12:41:51Z</time>
      </trkpt>
      <trkpt lat="44.67637" lon="1.15619">
        <ele>261</ele>
        <time>2012-07-15T12:41:58Z</time>
      </trkpt>
      <trkpt lat="44.67629" lon="1.15607">
        <ele>262</ele>
        <time>2012-07-15T12:42:05Z</time>
      </trkpt>
      <trkpt lat="44.67624" lon="1.15591">
        <ele>264</ele>
        <time>2012-07-15T12:42:12Z</time>
      </trkpt>
      <trkpt lat="44.67626" lon="1.15574">
        <ele>266</ele>
        <time>2012-07-15T12:42:20Z</time>
      </trkpt>
      <trkpt lat="44.6763" lon="1.15559">
        <ele>268</ele>
        <time>2012-07-15T12:42:27Z</time>
      </trkpt>
      <trkpt lat="44.67635" lon="1.1554">
        <ele>270</ele>
        <time>2012-07-15T12:42:34Z</time>
      </trkpt>
      <trkpt lat="44.67639" lon="1.15515">
        <ele>272</ele>
        <time>2012-07-15T12:42:41Z</time>
      </trkpt>
      <trkpt lat="44.6764" lon="1.15489">
        <ele>272</ele>
        <time>2012-07-15T12:42:48Z</time>
      </trkpt>
      <trkpt lat="44.67638" lon="1.15463">
        <ele>272</ele>
        <time>2012-07-15T12:42:55Z</time>
      </trkpt>
      <trkpt lat="44.67638" lon="1.15437">
        <ele>272</ele>
        <time>2012-07-15T12:43:02Z</time>
      </trkpt>
      <trkpt lat="44.67637" lon="1.1541">
        <ele>272</ele>
        <time>2012-07-15T12:43:09Z</time>
      </trkpt>
      <trkpt lat="44.67635" lon="1.15383">
        <ele>272</ele>
        <time>2012-07-15T12:43:16Z</time>
      </trkpt>
      <trkpt lat="44.67635" lon="1.15355">
        <ele>272</ele>
        <time>2012-07-15T12:43:23Z</time>
      </trkpt>
      <trkpt lat="44.67636" lon="1.15324">
        <ele>272</ele>
        <time>2012-07-15T12:43:30Z</time>
      </trkpt>
      <trkpt lat="44.67646" lon="1.15292">
        <ele>274</ele>
        <time>2012-07-15T12:43:38Z</time>
      </trkpt>
      <trkpt lat="44.6766" lon="1.15267">
        <ele>276</ele>
        <time>2012-07-15T12:43:45Z</time>
      </trkpt>
      <trkpt lat="44.67671" lon="1.15244">
        <ele>279</ele>
        <time>2012-07-15T12:43:52Z</time>
      </trkpt>
      <trkpt lat="44.67681" lon="1.15219">
        <ele>281</ele>
        <time>2012-07-15T12:43:59Z</time>
      </trkpt>
      <trkpt lat="44.67692" lon="1.15194">
        <ele>281</ele>
        <time>2012-07-15T12:44:08Z</time>
      </trkpt>
      <trkpt lat="44.67702" lon="1.15168">
        <ele>281</ele>
        <time>2012-07-15T12:44:14Z</time>
      </trkpt>
      <trkpt lat="44.67711" lon="1.1514">
        <ele>281</ele>
        <time>2012-07-15T12:44:21Z</time>
      </trkpt>
      <trkpt lat="44.6772" lon="1.1511">
        <ele>281</ele>
        <time>2012-07-15T12:44:28Z</time>
      </trkpt>
      <trkpt lat="44.67729" lon="1.15078">
        <ele>281</ele>
        <time>2012-07-15T12:44:35Z</time>
      </trkpt>
      <trkpt lat="44.67735" lon="1.15046">
        <ele>281</ele>
        <time>2012-07-15T12:44:42Z</time>
      </trkpt>
      <trkpt lat="44.67739" lon="1.15016">
        <ele>281</ele>
        <time>2012-07-15T12:44:49Z</time>
      </trkpt>
      <trkpt lat="44.67738" lon="1.14981">
        <ele>282</ele>
        <time>2012-07-15T12:44:57Z</time>
      </trkpt>
      <trkpt lat="44.67722" lon="1.14949">
        <ele>283</ele>
        <time>2012-07-15T12:45:05Z</time>
      </trkpt>
      <trkpt lat="44.67705" lon="1.14931">
        <ele>284</ele>
        <time>2012-07-15T12:45:12Z</time>
      </trkpt>
      <trkpt lat="44.67686" lon="1.14918">
        <ele>287</ele>
        <time>2012-07-15T12:45:19Z</time>
      </trkpt>
      <trkpt lat="44.67661" lon="1.14911">
        <ele>290</ele>
        <time>2012-07-15T12:45:24Z</time>
      </trkpt>
      <trkpt lat="44.67655" lon="1.14911">
        <ele>291</ele>
        <time>2012-07-15T12:45:30Z</time>
      </trkpt>
      <trkpt lat="44.67633" lon="1.14909">
        <ele>295</ele>
        <time>2012-07-15T12:45:38Z</time>
      </trkpt>
      <trkpt lat="44.67614" lon="1.14906">
        <ele>298</ele>
        <time>2012-07-15T12:45:45Z</time>
      </trkpt>
      <trkpt lat="44.67598" lon="1.14906">
        <ele>300</ele>
        <time>2012-07-15T12:45:52Z</time>
      </trkpt>
      <trkpt lat="44.67582" lon="1.14909">
        <ele>300</ele>
        <time>2012-07-15T12:46:01Z</time>
      </trkpt>
      <trkpt lat="44.67566" lon="1.14912">
        <ele>300</ele>
        <time>2012-07-15T12:46:08Z</time>
      </trkpt>
      <trkpt lat="44.67553" lon="1.14913">
        <ele>300</ele>
        <time>2012-07-15T12:46:15Z</time>
      </trkpt>
      <trkpt lat="44.67538" lon="1.14916">
        <ele>301</ele>
        <time>2012-07-15T12:46:22Z</time>
      </trkpt>
      <trkpt lat="44.67522" lon="1.14912">
        <ele>304</ele>
        <time>2012-07-15T12:46:29Z</time>
      </trkpt>
      <trkpt lat="44.67504" lon="1.14908">
        <ele>307</ele>
        <time>2012-07-15T12:46:36Z</time>
      </trkpt>
      <trkpt lat="44.67488" lon="1.14898">
        <ele>310</ele>
        <time>2012-07-15T12:46:43Z</time>
      </trkpt>
      <trkpt lat="44.67478" lon="1.14887">
        <ele>313</ele>
        <time>2012-07-15T12:46:50Z</time>
      </trkpt>
      <trkpt lat="44.67471" lon="1.14876">
        <ele>316</ele>
        <time>2012-07-15T12:46:57Z</time>
      </trkpt>
      <trkpt lat="44.67465" lon="1.14864">
        <ele>319</ele>
        <time>2012-07-15T12:47:06Z</time>
      </trkpt>
      <trkpt lat="44.6745" lon="1.1485">
        <ele>319</ele>
        <time>2012-07-15T12:47:12Z</time>
      </trkpt>
      <trkpt lat="44.67438" lon="1.14838">
        <ele>319</ele>
        <time>2012-07-15T12:47:19Z</time>
      </trkpt>
      <trkpt lat="44.67427" lon="1.14828">
        <ele>316</ele>
        <time>2012-07-15T12:47:26Z</time>
      </trkpt>
      <trkpt lat="44.67417" lon="1.14818">
        <ele>314</ele>
        <time>2012-07-15T12:47:33Z</time>
      </trkpt>
      <trkpt lat="44.67406" lon="1.14809">
        <ele>314</ele>
        <time>2012-07-15T12:47:40Z</time>
      </trkpt>
      <trkpt lat="44.67396" lon="1.14799">
        <ele>314</ele>
        <time>2012-07-15T12:47:47Z</time>
      </trkpt>
      <trkpt lat="44.67384" lon="1.14793">
        <ele>314</ele>
        <time>2012-07-15T12:47:54Z</time>
      </trkpt>
      <trkpt lat="44.67371" lon="1.14787">
        <ele>314</ele>
        <time>2012-07-15T12:48:01Z</time>
      </trkpt>
      <trkpt lat="44.67359" lon="1.14782">
        <ele>314</ele>
        <time>2012-07-15T12:48:08Z</time>
      </trkpt>
      <trkpt lat="44.67349" lon="1.14777">
        <ele>314</ele>
        <time>2012-07-15T12:48:15Z</time>
      </trkpt>
      <trkpt lat="44.6735" lon="1.14777">
        <ele>314</ele>
        <time>2012-07-15T12:48:28Z</time>
      </trkpt>
      <trkpt lat="44.67349" lon="1.14777">
        <ele>314</ele>
        <time>2012-07-15T12:48:35Z</time>
      </trkpt>
      <trkpt lat="44.67349" lon="1.14775">
        <ele>314</ele>
        <time>2012-07-15T12:48:54Z</time>
      </trkpt>
      <trkpt lat="44.67346" lon="1.14774">
        <ele>319</ele>
        <time>2012-07-15T12:49:06Z</time>
      </trkpt>
      <trkpt lat="44.67337" lon="1.14771">
        <ele>321</ele>
        <time>2012-07-15T12:49:12Z</time>
      </trkpt>
      <trkpt lat="44.67307" lon="1.14757">
        <ele>322</ele>
        <time>2012-07-15T12:49:19Z</time>
      </trkpt>
      <trkpt lat="44.67267" lon="1.14731">
        <ele>321</ele>
        <time>2012-07-15T12:49:26Z</time>
      </trkpt>
      <trkpt lat="44.67231" lon="1.14696">
        <ele>319</ele>
        <time>2012-07-15T12:49:33Z</time>
      </trkpt>
      <trkpt lat="44.67193" lon="1.14654">
        <ele>319</ele>
        <time>2012-07-15T12:49:40Z</time>
      </trkpt>
      <trkpt lat="44.67141" lon="1.14634">
        <ele>319</ele>
        <time>2012-07-15T12:49:49Z</time>
      </trkpt>
      <trkpt lat="44.67112" lon="1.14636">
        <ele>318</ele>
        <time>2012-07-15T12:49:56Z</time>
      </trkpt>
      <trkpt lat="44.67084" lon="1.14675">
        <ele>318</ele>
        <time>2012-07-15T12:50:05Z</time>
      </trkpt>
      <trkpt lat="44.67065" lon="1.1469">
        <ele>318</ele>
        <time>2012-07-15T12:50:13Z</time>
      </trkpt>
      <trkpt lat="44.67044" lon="1.14705">
        <ele>318</ele>
        <time>2012-07-15T12:50:20Z</time>
      </trkpt>
      <trkpt lat="44.67028" lon="1.14714">
        <ele>318</ele>
        <time>2012-07-15T12:50:27Z</time>
      </trkpt>
      <trkpt lat="44.67014" lon="1.14731">
        <ele>318</ele>
        <time>2012-07-15T12:50:35Z</time>
      </trkpt>
      <trkpt lat="44.67004" lon="1.14743">
        <ele>319</ele>
        <time>2012-07-15T12:50:42Z</time>
      </trkpt>
      <trkpt lat="44.66993" lon="1.14757">
        <ele>323</ele>
        <time>2012-07-15T12:50:51Z</time>
      </trkpt>
      <trkpt lat="44.66983" lon="1.14773">
        <ele>325</ele>
        <time>2012-07-15T12:50:57Z</time>
      </trkpt>
      <trkpt lat="44.66974" lon="1.14787">
        <ele>328</ele>
        <time>2012-07-15T12:51:04Z</time>
      </trkpt>
      <trkpt lat="44.66962" lon="1.14802">
        <ele>332</ele>
        <time>2012-07-15T12:51:12Z</time>
      </trkpt>
      <trkpt lat="44.66953" lon="1.14816">
        <ele>335</ele>
        <time>2012-07-15T12:51:19Z</time>
      </trkpt>
      <trkpt lat="44.66941" lon="1.14834">
        <ele>338</ele>
        <time>2012-07-15T12:51:26Z</time>
      </trkpt>
      <trkpt lat="44.6693" lon="1.14834">
        <ele>338</ele>
        <time>2012-07-15T12:51:36Z</time>
      </trkpt>
      <trkpt lat="44.6692" lon="1.14821">
        <ele>338</ele>
        <time>2012-07-15T12:51:44Z</time>
      </trkpt>
      <trkpt lat="44.669" lon="1.14784">
        <ele>337</ele>
        <time>2012-07-15T12:51:52Z</time>
      </trkpt>
      <trkpt lat="44.66872" lon="1.1475">
        <ele>332</ele>
        <time>2012-07-15T12:52:00Z</time>
      </trkpt>
      <trkpt lat="44.66858" lon="1.14743">
        <ele>329</ele>
        <time>2012-07-15T12:52:07Z</time>
      </trkpt>
      <trkpt lat="44.66822" lon="1.14743">
        <ele>326</ele>
        <time>2012-07-15T12:52:15Z</time>
      </trkpt>
      <trkpt lat="44.66798" lon="1.14748">
        <ele>326</ele>
        <time>2012-07-15T12:52:22Z</time>
      </trkpt>
      <trkpt lat="44.66782" lon="1.14765">
        <ele>326</ele>
        <time>2012-07-15T12:52:30Z</time>
      </trkpt>
      <trkpt lat="44.66757" lon="1.14784">
        <ele>326</ele>
        <time>2012-07-15T12:52:38Z</time>
      </trkpt>
      <trkpt lat="44.6675" lon="1.14746">
        <ele>326</ele>
        <time>2012-07-15T12:52:46Z</time>
      </trkpt>
      <trkpt lat="44.66715" lon="1.14729">
        <ele>326</ele>
        <time>2012-07-15T12:52:54Z</time>
      </trkpt>
      <trkpt lat="44.66662" lon="1.14725">
        <ele>323</ele>
        <time>2012-07-15T12:53:01Z</time>
      </trkpt>
      <trkpt lat="44.66606" lon="1.14712">
        <ele>320</ele>
        <time>2012-07-15T12:53:08Z</time>
      </trkpt>
      <trkpt lat="44.66553" lon="1.14699">
        <ele>317</ele>
        <time>2012-07-15T12:53:15Z</time>
      </trkpt>
      <trkpt lat="44.66499" lon="1.1469">
        <ele>314</ele>
        <time>2012-07-15T12:53:22Z</time>
      </trkpt>
      <trkpt lat="44.66444" lon="1.14716">
        <ele>310</ele>
        <time>2012-07-15T12:53:30Z</time>
      </trkpt>
      <trkpt lat="44.66398" lon="1.14738">
        <ele>307</ele>
        <time>2012-07-15T12:53:37Z</time>
      </trkpt>
      <trkpt lat="44.66363" lon="1.14746">
        <ele>307</ele>
        <time>2012-07-15T12:53:44Z</time>
      </trkpt>
      <trkpt lat="44.6633" lon="1.14753">
        <ele>310</ele>
        <time>2012-07-15T12:53:51Z</time>
      </trkpt>
      <trkpt lat="44.66306" lon="1.14733">
        <ele>313</ele>
        <time>2012-07-15T12:54:01Z</time>
      </trkpt>
      <trkpt lat="44.66299" lon="1.14688">
        <ele>315</ele>
        <time>2012-07-15T12:54:07Z</time>
      </trkpt>
      <trkpt lat="44.66291" lon="1.14644">
        <ele>318</ele>
        <time>2012-07-15T12:54:14Z</time>
      </trkpt>
      <trkpt lat="44.6628" lon="1.14575">
        <ele>321</ele>
        <time>2012-07-15T12:54:21Z</time>
      </trkpt>
      <trkpt lat="44.66276" lon="1.14534">
        <ele>323</ele>
        <time>2012-07-15T12:54:28Z</time>
      </trkpt>
      <trkpt lat="44.6627" lon="1.14493">
        <ele>325</ele>
        <time>2012-07-15T12:54:35Z</time>
      </trkpt>
      <trkpt lat="44.66264" lon="1.1447">
        <ele>326</ele>
        <time>2012-07-15T12:54:43Z</time>
      </trkpt>
      <trkpt lat="44.66255" lon="1.14435">
        <ele>326</ele>
        <time>2012-07-15T12:54:50Z</time>
      </trkpt>
      <trkpt lat="44.66247" lon="1.14401">
        <ele>328</ele>
        <time>2012-07-15T12:54:58Z</time>
      </trkpt>
      <trkpt lat="44.66233" lon="1.14373">
        <ele>328</ele>
        <time>2012-07-15T12:55:05Z</time>
      </trkpt>
      <trkpt lat="44.66218" lon="1.14347">
        <ele>328</ele>
        <time>2012-07-15T12:55:12Z</time>
      </trkpt>
      <trkpt lat="44.66202" lon="1.14317">
        <ele>328</ele>
        <time>2012-07-15T12:55:19Z</time>
      </trkpt>
      <trkpt lat="44.6619" lon="1.14295">
        <ele>329</ele>
        <time>2012-07-15T12:55:26Z</time>
      </trkpt>
      <trkpt lat="44.66178" lon="1.14278">
        <ele>332</ele>
        <time>2012-07-15T12:55:33Z</time>
      </trkpt>
      <trkpt lat="44.66168" lon="1.1427">
        <ele>333</ele>
        <time>2012-07-15T12:55:40Z</time>
      </trkpt>
      <trkpt lat="44.66163" lon="1.14265">
        <ele>333</ele>
        <time>2012-07-15T12:55:48Z</time>
      </trkpt>
      <trkpt lat="44.6615" lon="1.14253">
        <ele>333</ele>
        <time>2012-07-15T12:55:55Z</time>
      </trkpt>
      <trkpt lat="44.66141" lon="1.14243">
        <ele>333</ele>
        <time>2012-07-15T12:56:03Z</time>
      </trkpt>
      <trkpt lat="44.66132" lon="1.14234">
        <ele>330</ele>
        <time>2012-07-15T12:56:10Z</time>
      </trkpt>
      <trkpt lat="44.66122" lon="1.14222">
        <ele>328</ele>
        <time>2012-07-15T12:56:18Z</time>
      </trkpt>
      <trkpt lat="44.66111" lon="1.14212">
        <ele>330</ele>
        <time>2012-07-15T12:56:26Z</time>
      </trkpt>
      <trkpt lat="44.66101" lon="1.14204">
        <ele>333</ele>
        <time>2012-07-15T12:56:34Z</time>
      </trkpt>
      <trkpt lat="44.66092" lon="1.14197">
        <ele>333</ele>
        <time>2012-07-15T12:56:41Z</time>
      </trkpt>
      <trkpt lat="44.66083" lon="1.14189">
        <ele>333</ele>
        <time>2012-07-15T12:56:48Z</time>
      </trkpt>
      <trkpt lat="44.66063" lon="1.14177">
        <ele>333</ele>
        <time>2012-07-15T12:56:57Z</time>
      </trkpt>
      <trkpt lat="44.66056" lon="1.14174">
        <ele>333</ele>
        <time>2012-07-15T12:57:04Z</time>
      </trkpt>
      <trkpt lat="44.66046" lon="1.14166">
        <ele>333</ele>
        <time>2012-07-15T12:57:14Z</time>
      </trkpt>
      <trkpt lat="44.66042" lon="1.14135">
        <ele>333</ele>
        <time>2012-07-15T12:57:23Z</time>
      </trkpt>
      <trkpt lat="44.66053" lon="1.14114">
        <ele>333</ele>
        <time>2012-07-15T12:57:30Z</time>
      </trkpt>
      <trkpt lat="44.66061" lon="1.14088">
        <ele>333</ele>
        <time>2012-07-15T12:57:40Z</time>
      </trkpt>
      <trkpt lat="44.66078" lon="1.14064">
        <ele>333</ele>
        <time>2012-07-15T12:57:46Z</time>
      </trkpt>
      <trkpt lat="44.66093" lon="1.1403">
        <ele>333</ele>
        <time>2012-07-15T12:57:56Z</time>
      </trkpt>
      <trkpt lat="44.66114" lon="1.13988">
        <ele>332</ele>
        <time>2012-07-15T12:58:03Z</time>
      </trkpt>
      <trkpt lat="44.66138" lon="1.13925">
        <ele>330</ele>
        <time>2012-07-15T12:58:11Z</time>
      </trkpt>
      <trkpt lat="44.66161" lon="1.13877">
        <ele>330</ele>
        <time>2012-07-15T12:58:18Z</time>
      </trkpt>
      <trkpt lat="44.66185" lon="1.13829">
        <ele>330</ele>
        <time>2012-07-15T12:58:25Z</time>
      </trkpt>
      <trkpt lat="44.66221" lon="1.13767">
        <ele>330</ele>
        <time>2012-07-15T12:58:32Z</time>
      </trkpt>
      <trkpt lat="44.66227" lon="1.13744">
        <ele>330</ele>
        <time>2012-07-15T12:58:40Z</time>
      </trkpt>
      <trkpt lat="44.66239" lon="1.137">
        <ele>330</ele>
        <time>2012-07-15T12:58:47Z</time>
      </trkpt>
      <trkpt lat="44.66246" lon="1.13653">
        <ele>327</ele>
        <time>2012-07-15T12:58:54Z</time>
      </trkpt>
      <trkpt lat="44.66257" lon="1.13598">
        <ele>324</ele>
        <time>2012-07-15T12:59:02Z</time>
      </trkpt>
      <trkpt lat="44.66258" lon="1.13519">
        <ele>324</ele>
        <time>2012-07-15T12:59:09Z</time>
      </trkpt>
      <trkpt lat="44.6626" lon="1.13489">
        <ele>324</ele>
        <time>2012-07-15T12:59:17Z</time>
      </trkpt>
      <trkpt lat="44.66265" lon="1.13433">
        <ele>324</ele>
        <time>2012-07-15T12:59:24Z</time>
      </trkpt>
      <trkpt lat="44.66277" lon="1.13315">
        <ele>323</ele>
        <time>2012-07-15T12:59:31Z</time>
      </trkpt>
      <trkpt lat="44.66281" lon="1.13285">
        <ele>321</ele>
        <time>2012-07-15T12:59:38Z</time>
      </trkpt>
      <trkpt lat="44.66297" lon="1.13235">
        <ele>317</ele>
        <time>2012-07-15T12:59:46Z</time>
      </trkpt>
      <trkpt lat="44.66311" lon="1.1319">
        <ele>314</ele>
        <time>2012-07-15T12:59:53Z</time>
      </trkpt>
      <trkpt lat="44.66324" lon="1.13143">
        <ele>311</ele>
        <time>2012-07-15T13:00:00Z</time>
      </trkpt>
      <trkpt lat="44.66337" lon="1.13101">
        <ele>308</ele>
        <time>2012-07-15T13:00:07Z</time>
      </trkpt>
      <trkpt lat="44.66357" lon="1.13038">
        <ele>308</ele>
        <time>2012-07-15T13:00:15Z</time>
      </trkpt>
      <trkpt lat="44.66383" lon="1.12984">
        <ele>306</ele>
        <time>2012-07-15T13:00:22Z</time>
      </trkpt>
      <trkpt lat="44.66402" lon="1.12902">
        <ele>301</ele>
        <time>2012-07-15T13:00:31Z</time>
      </trkpt>
      <trkpt lat="44.66422" lon="1.12847">
        <ele>300</ele>
        <time>2012-07-15T13:00:38Z</time>
      </trkpt>
      <trkpt lat="44.66442" lon="1.12803">
        <ele>298</ele>
        <time>2012-07-15T13:00:45Z</time>
      </trkpt>
      <trkpt lat="44.66449" lon="1.12749">
        <ele>296</ele>
        <time>2012-07-15T13:00:54Z</time>
      </trkpt>
      <trkpt lat="44.66454" lon="1.12711">
        <ele>296</ele>
        <time>2012-07-15T13:01:01Z</time>
      </trkpt>
      <trkpt lat="44.66465" lon="1.12664">
        <ele>298</ele>
        <time>2012-07-15T13:01:09Z</time>
      </trkpt>
      <trkpt lat="44.66474" lon="1.12626">
        <ele>301</ele>
        <time>2012-07-15T13:01:16Z</time>
      </trkpt>
      <trkpt lat="44.66484" lon="1.12571">
        <ele>306</ele>
        <time>2012-07-15T13:01:27Z</time>
      </trkpt>
      <trkpt lat="44.66505" lon="1.12539">
        <ele>309</ele>
        <time>2012-07-15T13:01:35Z</time>
      </trkpt>
      <trkpt lat="44.66521" lon="1.12497">
        <ele>309</ele>
        <time>2012-07-15T13:01:42Z</time>
      </trkpt>
      <trkpt lat="44.66538" lon="1.12443">
        <ele>307</ele>
        <time>2012-07-15T13:01:51Z</time>
      </trkpt>
      <trkpt lat="44.66538" lon="1.12416">
        <ele>306</ele>
        <time>2012-07-15T13:01:59Z</time>
      </trkpt>
      <trkpt lat="44.66542" lon="1.12399">
        <ele>307</ele>
        <time>2012-07-15T13:02:07Z</time>
      </trkpt>
      <trkpt lat="44.66546" lon="1.12368">
        <ele>310</ele>
        <time>2012-07-15T13:02:14Z</time>
      </trkpt>
      <trkpt lat="44.66555" lon="1.12329">
        <ele>312</ele>
        <time>2012-07-15T13:02:23Z</time>
      </trkpt>
      <trkpt lat="44.66569" lon="1.12296">
        <ele>312</ele>
        <time>2012-07-15T13:02:33Z</time>
      </trkpt>
      <trkpt lat="44.6659" lon="1.12264">
        <ele>312</ele>
        <time>2012-07-15T13:02:40Z</time>
      </trkpt>
      <trkpt lat="44.66605" lon="1.12206">
        <ele>312</ele>
        <time>2012-07-15T13:02:47Z</time>
      </trkpt>
      <trkpt lat="44.6661" lon="1.12193">
        <ele>313</ele>
        <time>2012-07-15T13:02:55Z</time>
      </trkpt>
      <trkpt lat="44.66622" lon="1.12146">
        <ele>314</ele>
        <time>2012-07-15T13:03:02Z</time>
      </trkpt>
      <trkpt lat="44.66621" lon="1.12092">
        <ele>318</ele>
        <time>2012-07-15T13:03:10Z</time>
      </trkpt>
      <trkpt lat="44.66629" lon="1.12019">
        <ele>318</ele>
        <time>2012-07-15T13:03:17Z</time>
      </trkpt>
      <trkpt lat="44.66636" lon="1.11992">
        <ele>317</ele>
        <time>2012-07-15T13:03:25Z</time>
      </trkpt>
      <trkpt lat="44.66642" lon="1.11943">
        <ele>314</ele>
        <time>2012-07-15T13:03:32Z</time>
      </trkpt>
      <trkpt lat="44.66654" lon="1.11871">
        <ele>308</ele>
        <time>2012-07-15T13:03:39Z</time>
      </trkpt>
      <trkpt lat="44.66655" lon="1.11854">
        <ele>305</ele>
        <time>2012-07-15T13:03:47Z</time>
      </trkpt>
      <trkpt lat="44.66637" lon="1.11804">
        <ele>302</ele>
        <time>2012-07-15T13:03:55Z</time>
      </trkpt>
      <trkpt lat="44.6663" lon="1.11725">
        <ele>302</ele>
        <time>2012-07-15T13:04:03Z</time>
      </trkpt>
      <trkpt lat="44.66646" lon="1.11693">
        <ele>306</ele>
        <time>2012-07-15T13:04:13Z</time>
      </trkpt>
      <trkpt lat="44.66668" lon="1.11646">
        <ele>307</ele>
        <time>2012-07-15T13:04:21Z</time>
      </trkpt>
      <trkpt lat="44.66695" lon="1.11588">
        <ele>306</ele>
        <time>2012-07-15T13:04:29Z</time>
      </trkpt>
      <trkpt lat="44.66722" lon="1.11531">
        <ele>303</ele>
        <time>2012-07-15T13:04:36Z</time>
      </trkpt>
      <trkpt lat="44.66758" lon="1.11461">
        <ele>298</ele>
        <time>2012-07-15T13:04:44Z</time>
      </trkpt>
      <trkpt lat="44.66792" lon="1.11396">
        <ele>293</ele>
        <time>2012-07-15T13:04:51Z</time>
      </trkpt>
      <trkpt lat="44.6681" lon="1.11312">
        <ele>288</ele>
        <time>2012-07-15T13:04:58Z</time>
      </trkpt>
      <trkpt lat="44.6679" lon="1.11249">
        <ele>284</ele>
        <time>2012-07-15T13:05:05Z</time>
      </trkpt>
      <trkpt lat="44.66782" lon="1.11214">
        <ele>281</ele>
        <time>2012-07-15T13:05:12Z</time>
      </trkpt>
      <trkpt lat="44.66789" lon="1.11168">
        <ele>281</ele>
        <time>2012-07-15T13:05:19Z</time>
      </trkpt>
      <trkpt lat="44.66788" lon="1.11111">
        <ele>277</ele>
        <time>2012-07-15T13:05:26Z</time>
      </trkpt>
      <trkpt lat="44.66789" lon="1.1106">
        <ele>274</ele>
        <time>2012-07-15T13:05:32Z</time>
      </trkpt>
      <trkpt lat="44.66795" lon="1.11012">
        <ele>271</ele>
        <time>2012-07-15T13:05:38Z</time>
      </trkpt>
      <trkpt lat="44.6679" lon="1.10957">
        <ele>270</ele>
        <time>2012-07-15T13:05:44Z</time>
      </trkpt>
      <trkpt lat="44.66776" lon="1.10895">
        <ele>268</ele>
        <time>2012-07-15T13:05:50Z</time>
      </trkpt>
      <trkpt lat="44.66756" lon="1.10848">
        <ele>265</ele>
        <time>2012-07-15T13:05:56Z</time>
      </trkpt>
      <trkpt lat="44.66742" lon="1.10824">
        <ele>261</ele>
        <time>2012-07-15T13:06:02Z</time>
      </trkpt>
      <trkpt lat="44.66739" lon="1.10813">
        <ele>257</ele>
        <time>2012-07-15T13:06:10Z</time>
      </trkpt>
      <trkpt lat="44.66775" lon="1.10774">
        <ele>253</ele>
        <time>2012-07-15T13:06:17Z</time>
      </trkpt>
      <trkpt lat="44.66808" lon="1.10746">
        <ele>250</ele>
        <time>2012-07-15T13:06:23Z</time>
      </trkpt>
      <trkpt lat="44.66842" lon="1.10731">
        <ele>246</ele>
        <time>2012-07-15T13:06:29Z</time>
      </trkpt>
      <trkpt lat="44.66895" lon="1.10732">
        <ele>240</ele>
        <time>2012-07-15T13:06:36Z</time>
      </trkpt>
      <trkpt lat="44.669" lon="1.10737">
        <ele>237</ele>
        <time>2012-07-15T13:06:43Z</time>
      </trkpt>
      <trkpt lat="44.66899" lon="1.10742">
        <ele>237</ele>
        <time>2012-07-15T13:06:51Z</time>
      </trkpt>
      <trkpt lat="44.66898" lon="1.10742">
        <ele>237</ele>
        <time>2012-07-15T13:06:58Z</time>
      </trkpt>
      <trkpt lat="44.669" lon="1.10742">
        <ele>240</ele>
        <time>2012-07-15T13:07:03Z</time>
      </trkpt>
      <trkpt lat="44.669" lon="1.10742">
        <ele>247</ele>
        <time>2012-07-15T13:07:09Z</time>
      </trkpt>
    </trkseg>
  </trk>
</gpx>